<?xml version="1.0" encoding="UTF-8" standalone="no" ?>
<gpx xmlns="http://www.topografix.com/GPX/1/1" xmlns:xsi="http://www.w3.org/2001/XMLSchema-instance" xsi:schemaLocation="http://www.topografix.com/GPX/1/1 http://www.topografix.com/GPX/1/1/gpx.xsd" version="1.1" creator="VisuGPX - https://www.visugpx.com">
  <metadata>
    <name>Une Boucleau lac du Barbat 26/05/26</name>
  </metadata>
  <trk>
    <name><![CDATA[2026-05-26 14:38:53]]></name>
    <trkseg>
      <trkpt lat="42.90791" lon="-0.20326">
        <ele>1175.32</ele>
        <time>2026-05-26T06:50:19Z</time>
      </trkpt>
      <trkpt lat="42.90791" lon="-0.20325">
        <ele>1175.32</ele>
        <time>2026-05-26T06:50:20Z</time>
      </trkpt>
      <trkpt lat="42.9079" lon="-0.2032">
        <ele>1175.37</ele>
        <time>2026-05-26T06:50:48Z</time>
      </trkpt>
      <trkpt lat="42.90789" lon="-0.20321">
        <ele>1175.4</ele>
        <time>2026-05-26T06:51:07Z</time>
      </trkpt>
      <trkpt lat="42.90789" lon="-0.20321">
        <ele>1178.78</ele>
        <time>2026-05-26T06:51:08Z</time>
      </trkpt>
      <trkpt lat="42.90789" lon="-0.20321">
        <ele>1178.78</ele>
        <time>2026-05-26T06:51:09Z</time>
      </trkpt>
      <trkpt lat="42.9079" lon="-0.20324">
        <ele>1179.62</ele>
        <time>2026-05-26T06:51:38Z</time>
      </trkpt>
      <trkpt lat="42.9079" lon="-0.20324">
        <ele>1179.63</ele>
        <time>2026-05-26T06:51:52Z</time>
      </trkpt>
      <trkpt lat="42.90793" lon="-0.20324">
        <ele>1179.59</ele>
        <time>2026-05-26T06:52:15Z</time>
      </trkpt>
      <trkpt lat="42.90793" lon="-0.20323">
        <ele>1177.27</ele>
        <time>2026-05-26T06:52:22Z</time>
      </trkpt>
      <trkpt lat="42.90792" lon="-0.20321">
        <ele>1177.24</ele>
        <time>2026-05-26T06:52:42Z</time>
      </trkpt>
      <trkpt lat="42.90791" lon="-0.20321">
        <ele>1179.59</ele>
        <time>2026-05-26T06:52:55Z</time>
      </trkpt>
      <trkpt lat="42.90791" lon="-0.20321">
        <ele>1176.17</ele>
        <time>2026-05-26T06:53:21Z</time>
      </trkpt>
      <trkpt lat="42.90791" lon="-0.20321">
        <ele>1176.17</ele>
        <time>2026-05-26T06:53:22Z</time>
      </trkpt>
      <trkpt lat="42.9079" lon="-0.20321">
        <ele>1178.49</ele>
        <time>2026-05-26T06:53:25Z</time>
      </trkpt>
      <trkpt lat="42.90789" lon="-0.2032">
        <ele>1178.45</ele>
        <time>2026-05-26T06:54:06Z</time>
      </trkpt>
      <trkpt lat="42.9079" lon="-0.20321">
        <ele>1179.34</ele>
        <time>2026-05-26T06:54:18Z</time>
      </trkpt>
      <trkpt lat="42.90791" lon="-0.2032">
        <ele>1179.32</ele>
        <time>2026-05-26T06:54:35Z</time>
      </trkpt>
      <trkpt lat="42.90792" lon="-0.20322">
        <ele>1179.3</ele>
        <time>2026-05-26T06:54:58Z</time>
      </trkpt>
      <trkpt lat="42.90791" lon="-0.20321">
        <ele>1179.25</ele>
        <time>2026-05-26T06:55:38Z</time>
      </trkpt>
      <trkpt lat="42.90791" lon="-0.20321">
        <ele>1179.22</ele>
        <time>2026-05-26T06:55:57Z</time>
      </trkpt>
      <trkpt lat="42.9079" lon="-0.20321">
        <ele>1179.18</ele>
        <time>2026-05-26T06:56:25Z</time>
      </trkpt>
      <trkpt lat="42.9079" lon="-0.20321">
        <ele>1179.15</ele>
        <time>2026-05-26T06:56:48Z</time>
      </trkpt>
      <trkpt lat="42.9079" lon="-0.20322">
        <ele>1179.11</ele>
        <time>2026-05-26T06:57:14Z</time>
      </trkpt>
      <trkpt lat="42.90789" lon="-0.20324">
        <ele>1179.13</ele>
        <time>2026-05-26T06:57:41Z</time>
      </trkpt>
      <trkpt lat="42.90789" lon="-0.20321">
        <ele>1179.07</ele>
        <time>2026-05-26T06:57:48Z</time>
      </trkpt>
      <trkpt lat="42.90785" lon="-0.20324">
        <ele>1179.09</ele>
        <time>2026-05-26T06:57:52Z</time>
      </trkpt>
      <trkpt lat="42.90779" lon="-0.20328">
        <ele>1179.06</ele>
        <time>2026-05-26T06:57:57Z</time>
      </trkpt>
      <trkpt lat="42.9076" lon="-0.20338">
        <ele>1176.75</ele>
        <time>2026-05-26T06:58:14Z</time>
      </trkpt>
      <trkpt lat="42.90734" lon="-0.20357">
        <ele>1175.79</ele>
        <time>2026-05-26T06:58:33Z</time>
      </trkpt>
      <trkpt lat="42.90718" lon="-0.20373">
        <ele>1174.85</ele>
        <time>2026-05-26T06:58:48Z</time>
      </trkpt>
      <trkpt lat="42.90715" lon="-0.20373">
        <ele>1173.54</ele>
        <time>2026-05-26T06:58:50Z</time>
      </trkpt>
      <trkpt lat="42.90701" lon="-0.20358">
        <ele>1173.62</ele>
        <time>2026-05-26T06:59:03Z</time>
      </trkpt>
      <trkpt lat="42.907" lon="-0.20352">
        <ele>1175.91</ele>
        <time>2026-05-26T06:59:07Z</time>
      </trkpt>
      <trkpt lat="42.90707" lon="-0.20345">
        <ele>1176.01</ele>
        <time>2026-05-26T06:59:18Z</time>
      </trkpt>
      <trkpt lat="42.90703" lon="-0.20336">
        <ele>1177.92</ele>
        <time>2026-05-26T06:59:29Z</time>
      </trkpt>
      <trkpt lat="42.90704" lon="-0.2033">
        <ele>1178.71</ele>
        <time>2026-05-26T06:59:44Z</time>
      </trkpt>
      <trkpt lat="42.90711" lon="-0.20324">
        <ele>1179.85</ele>
        <time>2026-05-26T07:00:01Z</time>
      </trkpt>
      <trkpt lat="42.90718" lon="-0.20324">
        <ele>1179.84</ele>
        <time>2026-05-26T07:00:18Z</time>
      </trkpt>
      <trkpt lat="42.90717" lon="-0.20322">
        <ele>1179.91</ele>
        <time>2026-05-26T07:00:40Z</time>
      </trkpt>
      <trkpt lat="42.90716" lon="-0.2032">
        <ele>1179.99</ele>
        <time>2026-05-26T07:01:12Z</time>
      </trkpt>
      <trkpt lat="42.90721" lon="-0.20323">
        <ele>1180.07</ele>
        <time>2026-05-26T07:01:44Z</time>
      </trkpt>
      <trkpt lat="42.90718" lon="-0.20326">
        <ele>1180.02</ele>
        <time>2026-05-26T07:02:19Z</time>
      </trkpt>
      <trkpt lat="42.90719" lon="-0.20326">
        <ele>1181.14</ele>
        <time>2026-05-26T07:02:47Z</time>
      </trkpt>
      <trkpt lat="42.90718" lon="-0.20336">
        <ele>1177.75</ele>
        <time>2026-05-26T07:03:04Z</time>
      </trkpt>
      <trkpt lat="42.90718" lon="-0.20338">
        <ele>1177.75</ele>
        <time>2026-05-26T07:03:05Z</time>
      </trkpt>
      <trkpt lat="42.90718" lon="-0.20339">
        <ele>1177.77</ele>
        <time>2026-05-26T07:03:06Z</time>
      </trkpt>
      <trkpt lat="42.90716" lon="-0.20349">
        <ele>1176.62</ele>
        <time>2026-05-26T07:03:13Z</time>
      </trkpt>
      <trkpt lat="42.90709" lon="-0.20368">
        <ele>1175.99</ele>
        <time>2026-05-26T07:03:25Z</time>
      </trkpt>
      <trkpt lat="42.90706" lon="-0.2037">
        <ele>1174.1</ele>
        <time>2026-05-26T07:03:28Z</time>
      </trkpt>
      <trkpt lat="42.90701" lon="-0.20375">
        <ele>1174.12</ele>
        <time>2026-05-26T07:03:32Z</time>
      </trkpt>
      <trkpt lat="42.90684" lon="-0.2038">
        <ele>1172.9</ele>
        <time>2026-05-26T07:03:43Z</time>
      </trkpt>
      <trkpt lat="42.90665" lon="-0.20382">
        <ele>1172.96</ele>
        <time>2026-05-26T07:03:57Z</time>
      </trkpt>
      <trkpt lat="42.90656" lon="-0.20386">
        <ele>1172.98</ele>
        <time>2026-05-26T07:04:10Z</time>
      </trkpt>
      <trkpt lat="42.9065" lon="-0.20404">
        <ele>1172.99</ele>
        <time>2026-05-26T07:04:26Z</time>
      </trkpt>
      <trkpt lat="42.90647" lon="-0.20418">
        <ele>1175.28</ele>
        <time>2026-05-26T07:04:35Z</time>
      </trkpt>
      <trkpt lat="42.90642" lon="-0.20433">
        <ele>1176.2</ele>
        <time>2026-05-26T07:04:54Z</time>
      </trkpt>
      <trkpt lat="42.90636" lon="-0.20432">
        <ele>1176.27</ele>
        <time>2026-05-26T07:05:18Z</time>
      </trkpt>
      <trkpt lat="42.90635" lon="-0.2045">
        <ele>1177.41</ele>
        <time>2026-05-26T07:05:34Z</time>
      </trkpt>
      <trkpt lat="42.90636" lon="-0.20473">
        <ele>1177.47</ele>
        <time>2026-05-26T07:05:47Z</time>
      </trkpt>
      <trkpt lat="42.90636" lon="-0.20477">
        <ele>1177.48</ele>
        <time>2026-05-26T07:05:49Z</time>
      </trkpt>
      <trkpt lat="42.90631" lon="-0.20488">
        <ele>1178.28</ele>
        <time>2026-05-26T07:05:55Z</time>
      </trkpt>
      <trkpt lat="42.90624" lon="-0.20503">
        <ele>1178.31</ele>
        <time>2026-05-26T07:06:05Z</time>
      </trkpt>
      <trkpt lat="42.90615" lon="-0.20527">
        <ele>1180.47</ele>
        <time>2026-05-26T07:06:22Z</time>
      </trkpt>
      <trkpt lat="42.90611" lon="-0.20539">
        <ele>1181.39</ele>
        <time>2026-05-26T07:06:30Z</time>
      </trkpt>
      <trkpt lat="42.90605" lon="-0.20561">
        <ele>1183.41</ele>
        <time>2026-05-26T07:06:44Z</time>
      </trkpt>
      <trkpt lat="42.90598" lon="-0.20577">
        <ele>1185.63</ele>
        <time>2026-05-26T07:06:58Z</time>
      </trkpt>
      <trkpt lat="42.90597" lon="-0.20579">
        <ele>1186.98</ele>
        <time>2026-05-26T07:07:00Z</time>
      </trkpt>
      <trkpt lat="42.90588" lon="-0.20601">
        <ele>1190.76</ele>
        <time>2026-05-26T07:07:18Z</time>
      </trkpt>
      <trkpt lat="42.90587" lon="-0.20601">
        <ele>1190.78</ele>
        <time>2026-05-26T07:07:19Z</time>
      </trkpt>
      <trkpt lat="42.90577" lon="-0.20613">
        <ele>1193.99</ele>
        <time>2026-05-26T07:07:35Z</time>
      </trkpt>
      <trkpt lat="42.90576" lon="-0.20614">
        <ele>1194.02</ele>
        <time>2026-05-26T07:07:36Z</time>
      </trkpt>
      <trkpt lat="42.90564" lon="-0.20636">
        <ele>1196.17</ele>
        <time>2026-05-26T07:07:56Z</time>
      </trkpt>
      <trkpt lat="42.90555" lon="-0.20653">
        <ele>1199.11</ele>
        <time>2026-05-26T07:08:15Z</time>
      </trkpt>
      <trkpt lat="42.90553" lon="-0.20661">
        <ele>1202.37</ele>
        <time>2026-05-26T07:08:28Z</time>
      </trkpt>
      <trkpt lat="42.90547" lon="-0.20666">
        <ele>1206.29</ele>
        <time>2026-05-26T07:08:45Z</time>
      </trkpt>
      <trkpt lat="42.90542" lon="-0.2067">
        <ele>1209.36</ele>
        <time>2026-05-26T07:09:00Z</time>
      </trkpt>
      <trkpt lat="42.9054" lon="-0.20674">
        <ele>1210.84</ele>
        <time>2026-05-26T07:09:06Z</time>
      </trkpt>
      <trkpt lat="42.90528" lon="-0.20698">
        <ele>1213.65</ele>
        <time>2026-05-26T07:09:30Z</time>
      </trkpt>
      <trkpt lat="42.90517" lon="-0.20721">
        <ele>1216.54</ele>
        <time>2026-05-26T07:09:51Z</time>
      </trkpt>
      <trkpt lat="42.90506" lon="-0.20725">
        <ele>1219.97</ele>
        <time>2026-05-26T07:10:05Z</time>
      </trkpt>
      <trkpt lat="42.90499" lon="-0.20725">
        <ele>1221.49</ele>
        <time>2026-05-26T07:10:12Z</time>
      </trkpt>
      <trkpt lat="42.90494" lon="-0.20725">
        <ele>1222.76</ele>
        <time>2026-05-26T07:10:18Z</time>
      </trkpt>
      <trkpt lat="42.90493" lon="-0.20725">
        <ele>1222.76</ele>
        <time>2026-05-26T07:10:21Z</time>
      </trkpt>
      <trkpt lat="42.90481" lon="-0.20729">
        <ele>1225.1</ele>
        <time>2026-05-26T07:10:39Z</time>
      </trkpt>
      <trkpt lat="42.90477" lon="-0.2073">
        <ele>1228.56</ele>
        <time>2026-05-26T07:10:53Z</time>
      </trkpt>
      <trkpt lat="42.90476" lon="-0.2073">
        <ele>1228.57</ele>
        <time>2026-05-26T07:10:54Z</time>
      </trkpt>
      <trkpt lat="42.9047" lon="-0.2074">
        <ele>1230.44</ele>
        <time>2026-05-26T07:11:13Z</time>
      </trkpt>
      <trkpt lat="42.90461" lon="-0.20737">
        <ele>1232.5</ele>
        <time>2026-05-26T07:11:28Z</time>
      </trkpt>
      <trkpt lat="42.90454" lon="-0.20734">
        <ele>1233.48</ele>
        <time>2026-05-26T07:11:37Z</time>
      </trkpt>
      <trkpt lat="42.90449" lon="-0.20738">
        <ele>1235.77</ele>
        <time>2026-05-26T07:11:46Z</time>
      </trkpt>
      <trkpt lat="42.90449" lon="-0.20738">
        <ele>1235.76</ele>
        <time>2026-05-26T07:11:47Z</time>
      </trkpt>
      <trkpt lat="42.90446" lon="-0.20739">
        <ele>1237.49</ele>
        <time>2026-05-26T07:11:52Z</time>
      </trkpt>
      <trkpt lat="42.90445" lon="-0.20738">
        <ele>1238.71</ele>
        <time>2026-05-26T07:11:57Z</time>
      </trkpt>
      <trkpt lat="42.90422" lon="-0.20738">
        <ele>1242.2</ele>
        <time>2026-05-26T07:12:11Z</time>
      </trkpt>
      <trkpt lat="42.90407" lon="-0.20732">
        <ele>1244.9</ele>
        <time>2026-05-26T07:12:30Z</time>
      </trkpt>
      <trkpt lat="42.90402" lon="-0.20733">
        <ele>1247.02</ele>
        <time>2026-05-26T07:12:46Z</time>
      </trkpt>
      <trkpt lat="42.90399" lon="-0.20739">
        <ele>1248.65</ele>
        <time>2026-05-26T07:13:07Z</time>
      </trkpt>
      <trkpt lat="42.90397" lon="-0.20742">
        <ele>1250.87</ele>
        <time>2026-05-26T07:13:16Z</time>
      </trkpt>
      <trkpt lat="42.90394" lon="-0.20748">
        <ele>1250.85</ele>
        <time>2026-05-26T07:13:32Z</time>
      </trkpt>
      <trkpt lat="42.90391" lon="-0.20752">
        <ele>1252.53</ele>
        <time>2026-05-26T07:13:56Z</time>
      </trkpt>
      <trkpt lat="42.90391" lon="-0.20754">
        <ele>1253.99</ele>
        <time>2026-05-26T07:13:58Z</time>
      </trkpt>
      <trkpt lat="42.90386" lon="-0.20766">
        <ele>1256.19</ele>
        <time>2026-05-26T07:14:14Z</time>
      </trkpt>
      <trkpt lat="42.90385" lon="-0.20767">
        <ele>1258.08</ele>
        <time>2026-05-26T07:14:19Z</time>
      </trkpt>
      <trkpt lat="42.90371" lon="-0.20759">
        <ele>1259.97</ele>
        <time>2026-05-26T07:14:35Z</time>
      </trkpt>
      <trkpt lat="42.90368" lon="-0.20757">
        <ele>1261.26</ele>
        <time>2026-05-26T07:14:37Z</time>
      </trkpt>
      <trkpt lat="42.90341" lon="-0.20747">
        <ele>1264.28</ele>
        <time>2026-05-26T07:14:59Z</time>
      </trkpt>
      <trkpt lat="42.90333" lon="-0.20743">
        <ele>1267.73</ele>
        <time>2026-05-26T07:15:16Z</time>
      </trkpt>
      <trkpt lat="42.90333" lon="-0.2074">
        <ele>1270.06</ele>
        <time>2026-05-26T07:15:36Z</time>
      </trkpt>
      <trkpt lat="42.90332" lon="-0.2074">
        <ele>1270.07</ele>
        <time>2026-05-26T07:15:37Z</time>
      </trkpt>
      <trkpt lat="42.9033" lon="-0.20739">
        <ele>1273.06</ele>
        <time>2026-05-26T07:15:51Z</time>
      </trkpt>
      <trkpt lat="42.90329" lon="-0.20741">
        <ele>1274.1</ele>
        <time>2026-05-26T07:15:56Z</time>
      </trkpt>
      <trkpt lat="42.90321" lon="-0.20739">
        <ele>1276.05</ele>
        <time>2026-05-26T07:16:11Z</time>
      </trkpt>
      <trkpt lat="42.90317" lon="-0.2075">
        <ele>1279.11</ele>
        <time>2026-05-26T07:16:28Z</time>
      </trkpt>
      <trkpt lat="42.90301" lon="-0.20758">
        <ele>1281.28</ele>
        <time>2026-05-26T07:16:46Z</time>
      </trkpt>
      <trkpt lat="42.90289" lon="-0.20764">
        <ele>1284.61</ele>
        <time>2026-05-26T07:17:01Z</time>
      </trkpt>
      <trkpt lat="42.90281" lon="-0.20767">
        <ele>1287.82</ele>
        <time>2026-05-26T07:17:21Z</time>
      </trkpt>
      <trkpt lat="42.90272" lon="-0.20765">
        <ele>1290.32</ele>
        <time>2026-05-26T07:17:40Z</time>
      </trkpt>
      <trkpt lat="42.90263" lon="-0.20764">
        <ele>1293.9</ele>
        <time>2026-05-26T07:17:58Z</time>
      </trkpt>
      <trkpt lat="42.90249" lon="-0.2076">
        <ele>1296.96</ele>
        <time>2026-05-26T07:18:17Z</time>
      </trkpt>
      <trkpt lat="42.90241" lon="-0.20755">
        <ele>1299.7</ele>
        <time>2026-05-26T07:18:36Z</time>
      </trkpt>
      <trkpt lat="42.90237" lon="-0.2074">
        <ele>1303.62</ele>
        <time>2026-05-26T07:18:55Z</time>
      </trkpt>
      <trkpt lat="42.90226" lon="-0.20727">
        <ele>1307.07</ele>
        <time>2026-05-26T07:19:14Z</time>
      </trkpt>
      <trkpt lat="42.90226" lon="-0.20726">
        <ele>1307.09</ele>
        <time>2026-05-26T07:19:15Z</time>
      </trkpt>
      <trkpt lat="42.90221" lon="-0.20718">
        <ele>1309.49</ele>
        <time>2026-05-26T07:19:24Z</time>
      </trkpt>
      <trkpt lat="42.90213" lon="-0.20701">
        <ele>1312</ele>
        <time>2026-05-26T07:19:44Z</time>
      </trkpt>
      <trkpt lat="42.9021" lon="-0.2069">
        <ele>1315.74</ele>
        <time>2026-05-26T07:19:58Z</time>
      </trkpt>
      <trkpt lat="42.9021" lon="-0.20676">
        <ele>1317.5</ele>
        <time>2026-05-26T07:20:11Z</time>
      </trkpt>
      <trkpt lat="42.90206" lon="-0.20658">
        <ele>1320.98</ele>
        <time>2026-05-26T07:20:29Z</time>
      </trkpt>
      <trkpt lat="42.90205" lon="-0.20646">
        <ele>1322.68</ele>
        <time>2026-05-26T07:20:41Z</time>
      </trkpt>
      <trkpt lat="42.90202" lon="-0.2064">
        <ele>1323.63</ele>
        <time>2026-05-26T07:20:48Z</time>
      </trkpt>
      <trkpt lat="42.90196" lon="-0.2063">
        <ele>1326.28</ele>
        <time>2026-05-26T07:21:00Z</time>
      </trkpt>
      <trkpt lat="42.90187" lon="-0.20624">
        <ele>1329.06</ele>
        <time>2026-05-26T07:21:20Z</time>
      </trkpt>
      <trkpt lat="42.9018" lon="-0.2062">
        <ele>1332.58</ele>
        <time>2026-05-26T07:21:35Z</time>
      </trkpt>
      <trkpt lat="42.90178" lon="-0.20616">
        <ele>1333.92</ele>
        <time>2026-05-26T07:21:40Z</time>
      </trkpt>
      <trkpt lat="42.90168" lon="-0.20607">
        <ele>1336.33</ele>
        <time>2026-05-26T07:21:58Z</time>
      </trkpt>
      <trkpt lat="42.90158" lon="-0.20597">
        <ele>1339.8</ele>
        <time>2026-05-26T07:22:12Z</time>
      </trkpt>
      <trkpt lat="42.90155" lon="-0.20582">
        <ele>1340.72</ele>
        <time>2026-05-26T07:22:29Z</time>
      </trkpt>
      <trkpt lat="42.9015" lon="-0.20572">
        <ele>1343.29</ele>
        <time>2026-05-26T07:22:45Z</time>
      </trkpt>
      <trkpt lat="42.90148" lon="-0.20567">
        <ele>1345.4</ele>
        <time>2026-05-26T07:22:56Z</time>
      </trkpt>
      <trkpt lat="42.90144" lon="-0.20561">
        <ele>1347.54</ele>
        <time>2026-05-26T07:23:11Z</time>
      </trkpt>
      <trkpt lat="42.90144" lon="-0.20561">
        <ele>1347.56</ele>
        <time>2026-05-26T07:23:12Z</time>
      </trkpt>
      <trkpt lat="42.90141" lon="-0.20556">
        <ele>1349.9</ele>
        <time>2026-05-26T07:23:31Z</time>
      </trkpt>
      <trkpt lat="42.9014" lon="-0.20548">
        <ele>1352.8</ele>
        <time>2026-05-26T07:23:44Z</time>
      </trkpt>
      <trkpt lat="42.90137" lon="-0.20547">
        <ele>1355.7</ele>
        <time>2026-05-26T07:24:03Z</time>
      </trkpt>
      <trkpt lat="42.90132" lon="-0.20545">
        <ele>1357.48</ele>
        <time>2026-05-26T07:24:24Z</time>
      </trkpt>
      <trkpt lat="42.90129" lon="-0.20545">
        <ele>1359.13</ele>
        <time>2026-05-26T07:24:32Z</time>
      </trkpt>
      <trkpt lat="42.90123" lon="-0.20542">
        <ele>1360.93</ele>
        <time>2026-05-26T07:24:46Z</time>
      </trkpt>
      <trkpt lat="42.90117" lon="-0.20546">
        <ele>1363.86</ele>
        <time>2026-05-26T07:25:06Z</time>
      </trkpt>
      <trkpt lat="42.90116" lon="-0.20548">
        <ele>1364.69</ele>
        <time>2026-05-26T07:25:09Z</time>
      </trkpt>
      <trkpt lat="42.90104" lon="-0.20546">
        <ele>1366.38</ele>
        <time>2026-05-26T07:25:24Z</time>
      </trkpt>
      <trkpt lat="42.90096" lon="-0.20543">
        <ele>1368.44</ele>
        <time>2026-05-26T07:25:33Z</time>
      </trkpt>
      <trkpt lat="42.90089" lon="-0.20544">
        <ele>1371.35</ele>
        <time>2026-05-26T07:25:49Z</time>
      </trkpt>
      <trkpt lat="42.9008" lon="-0.20546">
        <ele>1374.01</ele>
        <time>2026-05-26T07:26:09Z</time>
      </trkpt>
      <trkpt lat="42.90069" lon="-0.20543">
        <ele>1377.85</ele>
        <time>2026-05-26T07:26:23Z</time>
      </trkpt>
      <trkpt lat="42.90064" lon="-0.20539">
        <ele>1380.27</ele>
        <time>2026-05-26T07:26:39Z</time>
      </trkpt>
      <trkpt lat="42.9006" lon="-0.20528">
        <ele>1381.94</ele>
        <time>2026-05-26T07:26:56Z</time>
      </trkpt>
      <trkpt lat="42.90057" lon="-0.20517">
        <ele>1385.2</ele>
        <time>2026-05-26T07:27:15Z</time>
      </trkpt>
      <trkpt lat="42.90047" lon="-0.20505">
        <ele>1387.61</ele>
        <time>2026-05-26T07:27:35Z</time>
      </trkpt>
      <trkpt lat="42.9004" lon="-0.20499">
        <ele>1389.29</ele>
        <time>2026-05-26T07:27:49Z</time>
      </trkpt>
      <trkpt lat="42.90031" lon="-0.20492">
        <ele>1391.01</ele>
        <time>2026-05-26T07:28:04Z</time>
      </trkpt>
      <trkpt lat="42.90018" lon="-0.20478">
        <ele>1393.92</ele>
        <time>2026-05-26T07:28:22Z</time>
      </trkpt>
      <trkpt lat="42.90012" lon="-0.20472">
        <ele>1394.59</ele>
        <time>2026-05-26T07:28:36Z</time>
      </trkpt>
      <trkpt lat="42.90003" lon="-0.20481">
        <ele>1396.17</ele>
        <time>2026-05-26T07:28:52Z</time>
      </trkpt>
      <trkpt lat="42.89998" lon="-0.20493">
        <ele>1397.12</ele>
        <time>2026-05-26T07:29:04Z</time>
      </trkpt>
      <trkpt lat="42.89982" lon="-0.20496">
        <ele>1398.07</ele>
        <time>2026-05-26T07:29:22Z</time>
      </trkpt>
      <trkpt lat="42.89973" lon="-0.20501">
        <ele>1398.09</ele>
        <time>2026-05-26T07:29:33Z</time>
      </trkpt>
      <trkpt lat="42.89972" lon="-0.20502">
        <ele>1398.03</ele>
        <time>2026-05-26T07:29:55Z</time>
      </trkpt>
      <trkpt lat="42.89968" lon="-0.20505">
        <ele>1398.74</ele>
        <time>2026-05-26T07:30:19Z</time>
      </trkpt>
      <trkpt lat="42.89967" lon="-0.20516">
        <ele>1399.75</ele>
        <time>2026-05-26T07:30:32Z</time>
      </trkpt>
      <trkpt lat="42.89959" lon="-0.20512">
        <ele>1399.78</ele>
        <time>2026-05-26T07:30:36Z</time>
      </trkpt>
      <trkpt lat="42.89951" lon="-0.20507">
        <ele>1401.31</ele>
        <time>2026-05-26T07:30:40Z</time>
      </trkpt>
      <trkpt lat="42.89934" lon="-0.20494">
        <ele>1403.2</ele>
        <time>2026-05-26T07:30:56Z</time>
      </trkpt>
      <trkpt lat="42.89921" lon="-0.20487">
        <ele>1405.95</ele>
        <time>2026-05-26T07:31:12Z</time>
      </trkpt>
      <trkpt lat="42.89918" lon="-0.20485">
        <ele>1407.41</ele>
        <time>2026-05-26T07:31:16Z</time>
      </trkpt>
      <trkpt lat="42.89911" lon="-0.20479">
        <ele>1409.23</ele>
        <time>2026-05-26T07:31:29Z</time>
      </trkpt>
      <trkpt lat="42.89914" lon="-0.20479">
        <ele>1409.27</ele>
        <time>2026-05-26T07:31:43Z</time>
      </trkpt>
      <trkpt lat="42.89898" lon="-0.20473">
        <ele>1412.97</ele>
        <time>2026-05-26T07:31:57Z</time>
      </trkpt>
      <trkpt lat="42.89897" lon="-0.20474">
        <ele>1416.21</ele>
        <time>2026-05-26T07:32:13Z</time>
      </trkpt>
      <trkpt lat="42.89896" lon="-0.20476">
        <ele>1417.91</ele>
        <time>2026-05-26T07:32:24Z</time>
      </trkpt>
      <trkpt lat="42.89892" lon="-0.20477">
        <ele>1418.76</ele>
        <time>2026-05-26T07:32:29Z</time>
      </trkpt>
      <trkpt lat="42.89868" lon="-0.20474">
        <ele>1421.53</ele>
        <time>2026-05-26T07:32:44Z</time>
      </trkpt>
      <trkpt lat="42.89854" lon="-0.20468">
        <ele>1423.08</ele>
        <time>2026-05-26T07:32:53Z</time>
      </trkpt>
      <trkpt lat="42.89845" lon="-0.20469">
        <ele>1424.52</ele>
        <time>2026-05-26T07:33:02Z</time>
      </trkpt>
      <trkpt lat="42.89833" lon="-0.20464">
        <ele>1425.35</ele>
        <time>2026-05-26T07:33:18Z</time>
      </trkpt>
      <trkpt lat="42.89832" lon="-0.20464">
        <ele>1426.63</ele>
        <time>2026-05-26T07:33:23Z</time>
      </trkpt>
      <trkpt lat="42.8983" lon="-0.20458">
        <ele>1430.38</ele>
        <time>2026-05-26T07:33:37Z</time>
      </trkpt>
      <trkpt lat="42.8983" lon="-0.20458">
        <ele>1431.19</ele>
        <time>2026-05-26T07:33:39Z</time>
      </trkpt>
      <trkpt lat="42.89862" lon="-0.20501">
        <ele>1432.94</ele>
        <time>2026-05-26T07:34:06Z</time>
      </trkpt>
      <trkpt lat="42.89891" lon="-0.20537">
        <ele>1434.63</ele>
        <time>2026-05-26T07:34:27Z</time>
      </trkpt>
      <trkpt lat="42.89813" lon="-0.20534">
        <ele>1438.48</ele>
        <time>2026-05-26T07:34:41Z</time>
      </trkpt>
      <trkpt lat="42.89808" lon="-0.2054">
        <ele>1440.47</ele>
        <time>2026-05-26T07:34:49Z</time>
      </trkpt>
      <trkpt lat="42.89799" lon="-0.20556">
        <ele>1444.27</ele>
        <time>2026-05-26T07:35:09Z</time>
      </trkpt>
      <trkpt lat="42.89794" lon="-0.20572">
        <ele>1447.42</ele>
        <time>2026-05-26T07:35:27Z</time>
      </trkpt>
      <trkpt lat="42.89794" lon="-0.20573">
        <ele>1447.43</ele>
        <time>2026-05-26T07:35:28Z</time>
      </trkpt>
      <trkpt lat="42.89785" lon="-0.20593">
        <ele>1450.66</ele>
        <time>2026-05-26T07:35:48Z</time>
      </trkpt>
      <trkpt lat="42.89784" lon="-0.20594">
        <ele>1450.66</ele>
        <time>2026-05-26T07:35:49Z</time>
      </trkpt>
      <trkpt lat="42.89776" lon="-0.20601">
        <ele>1453.68</ele>
        <time>2026-05-26T07:36:06Z</time>
      </trkpt>
      <trkpt lat="42.89772" lon="-0.20602">
        <ele>1455.61</ele>
        <time>2026-05-26T07:36:22Z</time>
      </trkpt>
      <trkpt lat="42.89768" lon="-0.20602">
        <ele>1457.72</ele>
        <time>2026-05-26T07:36:45Z</time>
      </trkpt>
      <trkpt lat="42.89761" lon="-0.20601">
        <ele>1459.58</ele>
        <time>2026-05-26T07:37:06Z</time>
      </trkpt>
      <trkpt lat="42.89755" lon="-0.20593">
        <ele>1460.89</ele>
        <time>2026-05-26T07:37:23Z</time>
      </trkpt>
      <trkpt lat="42.89749" lon="-0.20586">
        <ele>1462.15</ele>
        <time>2026-05-26T07:37:35Z</time>
      </trkpt>
      <trkpt lat="42.89741" lon="-0.20576">
        <ele>1464.04</ele>
        <time>2026-05-26T07:37:48Z</time>
      </trkpt>
      <trkpt lat="42.89736" lon="-0.20566">
        <ele>1465.92</ele>
        <time>2026-05-26T07:38:01Z</time>
      </trkpt>
      <trkpt lat="42.89732" lon="-0.20557">
        <ele>1467.01</ele>
        <time>2026-05-26T07:38:11Z</time>
      </trkpt>
      <trkpt lat="42.89725" lon="-0.20545">
        <ele>1468.83</ele>
        <time>2026-05-26T07:38:25Z</time>
      </trkpt>
      <trkpt lat="42.89719" lon="-0.20535">
        <ele>1469.94</ele>
        <time>2026-05-26T07:38:35Z</time>
      </trkpt>
      <trkpt lat="42.89711" lon="-0.20527">
        <ele>1472.21</ele>
        <time>2026-05-26T07:38:45Z</time>
      </trkpt>
      <trkpt lat="42.89707" lon="-0.2052">
        <ele>1473.25</ele>
        <time>2026-05-26T07:38:56Z</time>
      </trkpt>
      <trkpt lat="42.89702" lon="-0.20511">
        <ele>1475.14</ele>
        <time>2026-05-26T07:39:06Z</time>
      </trkpt>
      <trkpt lat="42.89694" lon="-0.20501">
        <ele>1477.76</ele>
        <time>2026-05-26T07:39:22Z</time>
      </trkpt>
      <trkpt lat="42.89684" lon="-0.20486">
        <ele>1480.81</ele>
        <time>2026-05-26T07:39:41Z</time>
      </trkpt>
      <trkpt lat="42.89684" lon="-0.20486">
        <ele>1480.83</ele>
        <time>2026-05-26T07:39:42Z</time>
      </trkpt>
      <trkpt lat="42.89671" lon="-0.20477">
        <ele>1482.69</ele>
        <time>2026-05-26T07:40:02Z</time>
      </trkpt>
      <trkpt lat="42.89657" lon="-0.2047">
        <ele>1485.46</ele>
        <time>2026-05-26T07:40:21Z</time>
      </trkpt>
      <trkpt lat="42.89656" lon="-0.20469">
        <ele>1485.46</ele>
        <time>2026-05-26T07:40:22Z</time>
      </trkpt>
      <trkpt lat="42.89636" lon="-0.20461">
        <ele>1488.29</ele>
        <time>2026-05-26T07:40:43Z</time>
      </trkpt>
      <trkpt lat="42.89625" lon="-0.20455">
        <ele>1490.08</ele>
        <time>2026-05-26T07:40:56Z</time>
      </trkpt>
      <trkpt lat="42.89619" lon="-0.20453">
        <ele>1492.29</ele>
        <time>2026-05-26T07:41:04Z</time>
      </trkpt>
      <trkpt lat="42.89603" lon="-0.20443">
        <ele>1494.08</ele>
        <time>2026-05-26T07:41:24Z</time>
      </trkpt>
      <trkpt lat="42.89601" lon="-0.20439">
        <ele>1494.97</ele>
        <time>2026-05-26T07:41:43Z</time>
      </trkpt>
      <trkpt lat="42.896" lon="-0.2044">
        <ele>1495.14</ele>
        <time>2026-05-26T07:42:04Z</time>
      </trkpt>
      <trkpt lat="42.89599" lon="-0.20441">
        <ele>1495.33</ele>
        <time>2026-05-26T07:42:26Z</time>
      </trkpt>
      <trkpt lat="42.89597" lon="-0.20442">
        <ele>1495.59</ele>
        <time>2026-05-26T07:42:56Z</time>
      </trkpt>
      <trkpt lat="42.89597" lon="-0.20442">
        <ele>1495.79</ele>
        <time>2026-05-26T07:43:18Z</time>
      </trkpt>
      <trkpt lat="42.89598" lon="-0.20442">
        <ele>1496.1</ele>
        <time>2026-05-26T07:43:55Z</time>
      </trkpt>
      <trkpt lat="42.89598" lon="-0.20442">
        <ele>1496.37</ele>
        <time>2026-05-26T07:44:27Z</time>
      </trkpt>
      <trkpt lat="42.89601" lon="-0.20441">
        <ele>1496.61</ele>
        <time>2026-05-26T07:44:57Z</time>
      </trkpt>
      <trkpt lat="42.89601" lon="-0.2044">
        <ele>1496.86</ele>
        <time>2026-05-26T07:45:26Z</time>
      </trkpt>
      <trkpt lat="42.896" lon="-0.20441">
        <ele>1497.3</ele>
        <time>2026-05-26T07:46:27Z</time>
      </trkpt>
      <trkpt lat="42.896" lon="-0.20441">
        <ele>1497.72</ele>
        <time>2026-05-26T07:47:31Z</time>
      </trkpt>
      <trkpt lat="42.89601" lon="-0.20441">
        <ele>1498.05</ele>
        <time>2026-05-26T07:48:26Z</time>
      </trkpt>
      <trkpt lat="42.89602" lon="-0.20441">
        <ele>1498.38</ele>
        <time>2026-05-26T07:49:22Z</time>
      </trkpt>
      <trkpt lat="42.89601" lon="-0.20441">
        <ele>1498.54</ele>
        <time>2026-05-26T07:49:52Z</time>
      </trkpt>
      <trkpt lat="42.896" lon="-0.2044">
        <ele>1498.63</ele>
        <time>2026-05-26T07:50:08Z</time>
      </trkpt>
      <trkpt lat="42.89601" lon="-0.20439">
        <ele>1498.7</ele>
        <time>2026-05-26T07:50:22Z</time>
      </trkpt>
      <trkpt lat="42.89601" lon="-0.20439">
        <ele>1498.81</ele>
        <time>2026-05-26T07:50:45Z</time>
      </trkpt>
      <trkpt lat="42.89601" lon="-0.20439">
        <ele>1498.92</ele>
        <time>2026-05-26T07:51:05Z</time>
      </trkpt>
      <trkpt lat="42.89601" lon="-0.2044">
        <ele>1499.03</ele>
        <time>2026-05-26T07:51:27Z</time>
      </trkpt>
      <trkpt lat="42.89604" lon="-0.20438">
        <ele>1499.11</ele>
        <time>2026-05-26T07:51:44Z</time>
      </trkpt>
      <trkpt lat="42.89603" lon="-0.20437">
        <ele>1499.19</ele>
        <time>2026-05-26T07:52:01Z</time>
      </trkpt>
      <trkpt lat="42.89604" lon="-0.2044">
        <ele>1499.26</ele>
        <time>2026-05-26T07:52:17Z</time>
      </trkpt>
      <trkpt lat="42.89603" lon="-0.20439">
        <ele>1499.35</ele>
        <time>2026-05-26T07:52:37Z</time>
      </trkpt>
      <trkpt lat="42.89606" lon="-0.20439">
        <ele>1499.48</ele>
        <time>2026-05-26T07:53:04Z</time>
      </trkpt>
      <trkpt lat="42.89607" lon="-0.20439">
        <ele>1499.57</ele>
        <time>2026-05-26T07:53:22Z</time>
      </trkpt>
      <trkpt lat="42.89605" lon="-0.20442">
        <ele>1499.71</ele>
        <time>2026-05-26T07:53:52Z</time>
      </trkpt>
      <trkpt lat="42.89604" lon="-0.20442">
        <ele>1499.85</ele>
        <time>2026-05-26T07:54:19Z</time>
      </trkpt>
      <trkpt lat="42.89603" lon="-0.20442">
        <ele>1499.97</ele>
        <time>2026-05-26T07:54:43Z</time>
      </trkpt>
      <trkpt lat="42.89603" lon="-0.20441">
        <ele>1500.08</ele>
        <time>2026-05-26T07:55:06Z</time>
      </trkpt>
      <trkpt lat="42.89605" lon="-0.2044">
        <ele>1500.15</ele>
        <time>2026-05-26T07:55:20Z</time>
      </trkpt>
      <trkpt lat="42.89593" lon="-0.20433">
        <ele>1502.08</ele>
        <time>2026-05-26T07:55:38Z</time>
      </trkpt>
      <trkpt lat="42.89582" lon="-0.20418">
        <ele>1505.76</ele>
        <time>2026-05-26T07:55:55Z</time>
      </trkpt>
      <trkpt lat="42.89578" lon="-0.20413">
        <ele>1507.14</ele>
        <time>2026-05-26T07:56:02Z</time>
      </trkpt>
      <trkpt lat="42.89574" lon="-0.2041">
        <ele>1507.17</ele>
        <time>2026-05-26T07:56:09Z</time>
      </trkpt>
      <trkpt lat="42.89562" lon="-0.20399">
        <ele>1510.73</ele>
        <time>2026-05-26T07:56:27Z</time>
      </trkpt>
      <trkpt lat="42.89548" lon="-0.20386">
        <ele>1512.52</ele>
        <time>2026-05-26T07:56:48Z</time>
      </trkpt>
      <trkpt lat="42.89534" lon="-0.20373">
        <ele>1516.05</ele>
        <time>2026-05-26T07:57:08Z</time>
      </trkpt>
      <trkpt lat="42.89521" lon="-0.20363">
        <ele>1518.89</ele>
        <time>2026-05-26T07:57:26Z</time>
      </trkpt>
      <trkpt lat="42.89509" lon="-0.20353">
        <ele>1522.5</ele>
        <time>2026-05-26T07:57:44Z</time>
      </trkpt>
      <trkpt lat="42.89501" lon="-0.20348">
        <ele>1524.39</ele>
        <time>2026-05-26T07:57:54Z</time>
      </trkpt>
      <trkpt lat="42.89489" lon="-0.20336">
        <ele>1527.39</ele>
        <time>2026-05-26T07:58:14Z</time>
      </trkpt>
      <trkpt lat="42.89473" lon="-0.20331">
        <ele>1529.06</ele>
        <time>2026-05-26T07:58:33Z</time>
      </trkpt>
      <trkpt lat="42.89465" lon="-0.20325">
        <ele>1532.79</ele>
        <time>2026-05-26T07:58:45Z</time>
      </trkpt>
      <trkpt lat="42.89463" lon="-0.20324">
        <ele>1532.96</ele>
        <time>2026-05-26T07:58:48Z</time>
      </trkpt>
      <trkpt lat="42.89453" lon="-0.20319">
        <ele>1535.27</ele>
        <time>2026-05-26T07:59:02Z</time>
      </trkpt>
      <trkpt lat="42.89441" lon="-0.20316">
        <ele>1537.04</ele>
        <time>2026-05-26T07:59:16Z</time>
      </trkpt>
      <trkpt lat="42.89423" lon="-0.20309">
        <ele>1540.02</ele>
        <time>2026-05-26T07:59:37Z</time>
      </trkpt>
      <trkpt lat="42.89422" lon="-0.20308">
        <ele>1541.26</ele>
        <time>2026-05-26T07:59:39Z</time>
      </trkpt>
      <trkpt lat="42.89409" lon="-0.20297">
        <ele>1544.05</ele>
        <time>2026-05-26T07:59:58Z</time>
      </trkpt>
      <trkpt lat="42.89396" lon="-0.20287">
        <ele>1546.8</ele>
        <time>2026-05-26T08:00:17Z</time>
      </trkpt>
      <trkpt lat="42.89386" lon="-0.20275">
        <ele>1549.7</ele>
        <time>2026-05-26T08:00:33Z</time>
      </trkpt>
      <trkpt lat="42.89382" lon="-0.20272">
        <ele>1550.89</ele>
        <time>2026-05-26T08:00:38Z</time>
      </trkpt>
      <trkpt lat="42.89369" lon="-0.20258">
        <ele>1553.55</ele>
        <time>2026-05-26T08:00:58Z</time>
      </trkpt>
      <trkpt lat="42.89353" lon="-0.20245">
        <ele>1555.98</ele>
        <time>2026-05-26T08:01:17Z</time>
      </trkpt>
      <trkpt lat="42.89346" lon="-0.2024">
        <ele>1558.27</ele>
        <time>2026-05-26T08:01:26Z</time>
      </trkpt>
      <trkpt lat="42.89331" lon="-0.20232">
        <ele>1560.72</ele>
        <time>2026-05-26T08:01:45Z</time>
      </trkpt>
      <trkpt lat="42.89314" lon="-0.2022">
        <ele>1563.5</ele>
        <time>2026-05-26T08:02:06Z</time>
      </trkpt>
      <trkpt lat="42.89299" lon="-0.2021">
        <ele>1565.97</ele>
        <time>2026-05-26T08:02:24Z</time>
      </trkpt>
      <trkpt lat="42.89286" lon="-0.202">
        <ele>1567.95</ele>
        <time>2026-05-26T08:02:42Z</time>
      </trkpt>
      <trkpt lat="42.89277" lon="-0.20195">
        <ele>1568.9</ele>
        <time>2026-05-26T08:02:51Z</time>
      </trkpt>
      <trkpt lat="42.89276" lon="-0.20194">
        <ele>1568.9</ele>
        <time>2026-05-26T08:02:53Z</time>
      </trkpt>
      <trkpt lat="42.89254" lon="-0.20188">
        <ele>1572.7</ele>
        <time>2026-05-26T08:03:16Z</time>
      </trkpt>
      <trkpt lat="42.89242" lon="-0.20185">
        <ele>1575.99</ele>
        <time>2026-05-26T08:03:32Z</time>
      </trkpt>
      <trkpt lat="42.89242" lon="-0.20184">
        <ele>1576.02</ele>
        <time>2026-05-26T08:03:33Z</time>
      </trkpt>
      <trkpt lat="42.89228" lon="-0.20181">
        <ele>1578.73</ele>
        <time>2026-05-26T08:03:51Z</time>
      </trkpt>
      <trkpt lat="42.89217" lon="-0.20175">
        <ele>1582.04</ele>
        <time>2026-05-26T08:04:07Z</time>
      </trkpt>
      <trkpt lat="42.89197" lon="-0.20168">
        <ele>1585.11</ele>
        <time>2026-05-26T08:04:28Z</time>
      </trkpt>
      <trkpt lat="42.8918" lon="-0.20157">
        <ele>1586.86</ele>
        <time>2026-05-26T08:04:47Z</time>
      </trkpt>
      <trkpt lat="42.89162" lon="-0.20145">
        <ele>1589.66</ele>
        <time>2026-05-26T08:05:07Z</time>
      </trkpt>
      <trkpt lat="42.89153" lon="-0.20138">
        <ele>1592.25</ele>
        <time>2026-05-26T08:05:19Z</time>
      </trkpt>
      <trkpt lat="42.89141" lon="-0.20128">
        <ele>1593.94</ele>
        <time>2026-05-26T08:05:35Z</time>
      </trkpt>
      <trkpt lat="42.89135" lon="-0.20121">
        <ele>1596.14</ele>
        <time>2026-05-26T08:05:45Z</time>
      </trkpt>
      <trkpt lat="42.89129" lon="-0.20115">
        <ele>1597.35</ele>
        <time>2026-05-26T08:05:56Z</time>
      </trkpt>
      <trkpt lat="42.89125" lon="-0.20109">
        <ele>1599.23</ele>
        <time>2026-05-26T08:06:10Z</time>
      </trkpt>
      <trkpt lat="42.89109" lon="-0.20101">
        <ele>1601.21</ele>
        <time>2026-05-26T08:06:28Z</time>
      </trkpt>
      <trkpt lat="42.89092" lon="-0.20085">
        <ele>1604.13</ele>
        <time>2026-05-26T08:06:50Z</time>
      </trkpt>
      <trkpt lat="42.89078" lon="-0.20073">
        <ele>1605.89</ele>
        <time>2026-05-26T08:07:07Z</time>
      </trkpt>
      <trkpt lat="42.89067" lon="-0.20064">
        <ele>1608.81</ele>
        <time>2026-05-26T08:07:21Z</time>
      </trkpt>
      <trkpt lat="42.89053" lon="-0.20055">
        <ele>1611.84</ele>
        <time>2026-05-26T08:07:39Z</time>
      </trkpt>
      <trkpt lat="42.89046" lon="-0.20049">
        <ele>1613.62</ele>
        <time>2026-05-26T08:07:54Z</time>
      </trkpt>
      <trkpt lat="42.89043" lon="-0.20045">
        <ele>1613.73</ele>
        <time>2026-05-26T08:08:02Z</time>
      </trkpt>
      <trkpt lat="42.89022" lon="-0.20021">
        <ele>1616.65</ele>
        <time>2026-05-26T08:08:26Z</time>
      </trkpt>
      <trkpt lat="42.89" lon="-0.20001">
        <ele>1618.33</ele>
        <time>2026-05-26T08:08:50Z</time>
      </trkpt>
      <trkpt lat="42.88985" lon="-0.1999">
        <ele>1621.75</ele>
        <time>2026-05-26T08:09:07Z</time>
      </trkpt>
      <trkpt lat="42.88985" lon="-0.19989">
        <ele>1621.74</ele>
        <time>2026-05-26T08:09:08Z</time>
      </trkpt>
      <trkpt lat="42.88976" lon="-0.19979">
        <ele>1623.56</ele>
        <time>2026-05-26T08:09:21Z</time>
      </trkpt>
      <trkpt lat="42.88965" lon="-0.1997">
        <ele>1626.58</ele>
        <time>2026-05-26T08:09:34Z</time>
      </trkpt>
      <trkpt lat="42.88954" lon="-0.19959">
        <ele>1629.07</ele>
        <time>2026-05-26T08:09:51Z</time>
      </trkpt>
      <trkpt lat="42.88934" lon="-0.19946">
        <ele>1631.02</ele>
        <time>2026-05-26T08:10:12Z</time>
      </trkpt>
      <trkpt lat="42.88911" lon="-0.19936">
        <ele>1633.92</ele>
        <time>2026-05-26T08:10:35Z</time>
      </trkpt>
      <trkpt lat="42.88886" lon="-0.19927">
        <ele>1635.86</ele>
        <time>2026-05-26T08:10:59Z</time>
      </trkpt>
      <trkpt lat="42.8886" lon="-0.19913">
        <ele>1637.47</ele>
        <time>2026-05-26T08:11:23Z</time>
      </trkpt>
      <trkpt lat="42.88845" lon="-0.19905">
        <ele>1639.17</ele>
        <time>2026-05-26T08:11:38Z</time>
      </trkpt>
      <trkpt lat="42.88826" lon="-0.19896">
        <ele>1642.02</ele>
        <time>2026-05-26T08:11:58Z</time>
      </trkpt>
      <trkpt lat="42.88805" lon="-0.19886">
        <ele>1644.74</ele>
        <time>2026-05-26T08:12:20Z</time>
      </trkpt>
      <trkpt lat="42.88786" lon="-0.19877">
        <ele>1647.67</ele>
        <time>2026-05-26T08:12:41Z</time>
      </trkpt>
      <trkpt lat="42.88771" lon="-0.19865">
        <ele>1649.46</ele>
        <time>2026-05-26T08:13:00Z</time>
      </trkpt>
      <trkpt lat="42.88758" lon="-0.19846">
        <ele>1650.36</ele>
        <time>2026-05-26T08:13:19Z</time>
      </trkpt>
      <trkpt lat="42.88752" lon="-0.19853">
        <ele>1650.39</ele>
        <time>2026-05-26T08:13:27Z</time>
      </trkpt>
      <trkpt lat="42.88744" lon="-0.19854">
        <ele>1652.65</ele>
        <time>2026-05-26T08:13:37Z</time>
      </trkpt>
      <trkpt lat="42.88731" lon="-0.19848">
        <ele>1654.6</ele>
        <time>2026-05-26T08:13:53Z</time>
      </trkpt>
      <trkpt lat="42.88726" lon="-0.19843">
        <ele>1656.21</ele>
        <time>2026-05-26T08:14:10Z</time>
      </trkpt>
      <trkpt lat="42.88723" lon="-0.19835">
        <ele>1658.73</ele>
        <time>2026-05-26T08:14:24Z</time>
      </trkpt>
      <trkpt lat="42.88722" lon="-0.19833">
        <ele>1659.98</ele>
        <time>2026-05-26T08:14:27Z</time>
      </trkpt>
      <trkpt lat="42.88722" lon="-0.19829">
        <ele>1661.24</ele>
        <time>2026-05-26T08:14:31Z</time>
      </trkpt>
      <trkpt lat="42.88712" lon="-0.19818">
        <ele>1665.04</ele>
        <time>2026-05-26T08:14:54Z</time>
      </trkpt>
      <trkpt lat="42.88702" lon="-0.19809">
        <ele>1667.73</ele>
        <time>2026-05-26T08:15:15Z</time>
      </trkpt>
      <trkpt lat="42.88693" lon="-0.19804">
        <ele>1670.84</ele>
        <time>2026-05-26T08:15:30Z</time>
      </trkpt>
      <trkpt lat="42.88693" lon="-0.19803">
        <ele>1670.84</ele>
        <time>2026-05-26T08:15:31Z</time>
      </trkpt>
      <trkpt lat="42.88684" lon="-0.19794">
        <ele>1674.69</ele>
        <time>2026-05-26T08:15:54Z</time>
      </trkpt>
      <trkpt lat="42.88675" lon="-0.19788">
        <ele>1677.28</ele>
        <time>2026-05-26T08:16:14Z</time>
      </trkpt>
      <trkpt lat="42.88674" lon="-0.19787">
        <ele>1679.11</ele>
        <time>2026-05-26T08:16:19Z</time>
      </trkpt>
      <trkpt lat="42.88666" lon="-0.19783">
        <ele>1680.73</ele>
        <time>2026-05-26T08:16:42Z</time>
      </trkpt>
      <trkpt lat="42.88656" lon="-0.19779">
        <ele>1684.68</ele>
        <time>2026-05-26T08:16:58Z</time>
      </trkpt>
      <trkpt lat="42.88656" lon="-0.19779">
        <ele>1684.68</ele>
        <time>2026-05-26T08:16:59Z</time>
      </trkpt>
      <trkpt lat="42.8865" lon="-0.19775">
        <ele>1686.55</ele>
        <time>2026-05-26T08:17:15Z</time>
      </trkpt>
      <trkpt lat="42.88646" lon="-0.19772">
        <ele>1688.11</ele>
        <time>2026-05-26T08:17:30Z</time>
      </trkpt>
      <trkpt lat="42.88634" lon="-0.19766">
        <ele>1689.81</ele>
        <time>2026-05-26T08:17:48Z</time>
      </trkpt>
      <trkpt lat="42.88628" lon="-0.19764">
        <ele>1692.05</ele>
        <time>2026-05-26T08:17:57Z</time>
      </trkpt>
      <trkpt lat="42.88623" lon="-0.19761">
        <ele>1695.35</ele>
        <time>2026-05-26T08:18:10Z</time>
      </trkpt>
      <trkpt lat="42.88622" lon="-0.19761">
        <ele>1695.35</ele>
        <time>2026-05-26T08:18:11Z</time>
      </trkpt>
      <trkpt lat="42.88616" lon="-0.1976">
        <ele>1697.39</ele>
        <time>2026-05-26T08:18:26Z</time>
      </trkpt>
      <trkpt lat="42.8861" lon="-0.19757">
        <ele>1700.55</ele>
        <time>2026-05-26T08:18:42Z</time>
      </trkpt>
      <trkpt lat="42.88604" lon="-0.19749">
        <ele>1702.43</ele>
        <time>2026-05-26T08:19:01Z</time>
      </trkpt>
      <trkpt lat="42.886" lon="-0.19744">
        <ele>1705.49</ele>
        <time>2026-05-26T08:19:12Z</time>
      </trkpt>
      <trkpt lat="42.88595" lon="-0.19739">
        <ele>1707.85</ele>
        <time>2026-05-26T08:19:27Z</time>
      </trkpt>
      <trkpt lat="42.88588" lon="-0.1973">
        <ele>1710.57</ele>
        <time>2026-05-26T08:19:46Z</time>
      </trkpt>
      <trkpt lat="42.8858" lon="-0.19736">
        <ele>1712.94</ele>
        <time>2026-05-26T08:20:05Z</time>
      </trkpt>
      <trkpt lat="42.88572" lon="-0.19736">
        <ele>1715.77</ele>
        <time>2026-05-26T08:20:23Z</time>
      </trkpt>
      <trkpt lat="42.88571" lon="-0.19734">
        <ele>1717.63</ele>
        <time>2026-05-26T08:20:29Z</time>
      </trkpt>
      <trkpt lat="42.88567" lon="-0.1973">
        <ele>1719.15</ele>
        <time>2026-05-26T08:20:39Z</time>
      </trkpt>
      <trkpt lat="42.88559" lon="-0.19723">
        <ele>1722.32</ele>
        <time>2026-05-26T08:20:57Z</time>
      </trkpt>
      <trkpt lat="42.8855" lon="-0.19715">
        <ele>1724.9</ele>
        <time>2026-05-26T08:21:18Z</time>
      </trkpt>
      <trkpt lat="42.88541" lon="-0.19701">
        <ele>1728.62</ele>
        <time>2026-05-26T08:21:39Z</time>
      </trkpt>
      <trkpt lat="42.88539" lon="-0.19697">
        <ele>1730.01</ele>
        <time>2026-05-26T08:21:45Z</time>
      </trkpt>
      <trkpt lat="42.88531" lon="-0.19683">
        <ele>1733.76</ele>
        <time>2026-05-26T08:22:06Z</time>
      </trkpt>
      <trkpt lat="42.88521" lon="-0.19674">
        <ele>1736.6</ele>
        <time>2026-05-26T08:22:26Z</time>
      </trkpt>
      <trkpt lat="42.88517" lon="-0.19667">
        <ele>1738.41</ele>
        <time>2026-05-26T08:22:42Z</time>
      </trkpt>
      <trkpt lat="42.88512" lon="-0.19661">
        <ele>1738.41</ele>
        <time>2026-05-26T08:23:00Z</time>
      </trkpt>
      <trkpt lat="42.88505" lon="-0.19659">
        <ele>1739.27</ele>
        <time>2026-05-26T08:23:08Z</time>
      </trkpt>
      <trkpt lat="42.88495" lon="-0.19663">
        <ele>1742</ele>
        <time>2026-05-26T08:23:23Z</time>
      </trkpt>
      <trkpt lat="42.88493" lon="-0.1967">
        <ele>1742.88</ele>
        <time>2026-05-26T08:23:37Z</time>
      </trkpt>
      <trkpt lat="42.88489" lon="-0.19673">
        <ele>1744.44</ele>
        <time>2026-05-26T08:23:55Z</time>
      </trkpt>
      <trkpt lat="42.88483" lon="-0.19675">
        <ele>1746.25</ele>
        <time>2026-05-26T08:24:11Z</time>
      </trkpt>
      <trkpt lat="42.88481" lon="-0.19675">
        <ele>1747.63</ele>
        <time>2026-05-26T08:24:15Z</time>
      </trkpt>
      <trkpt lat="42.88477" lon="-0.1967">
        <ele>1748.9</ele>
        <time>2026-05-26T08:24:26Z</time>
      </trkpt>
      <trkpt lat="42.88472" lon="-0.19661">
        <ele>1750.56</ele>
        <time>2026-05-26T08:24:45Z</time>
      </trkpt>
      <trkpt lat="42.88466" lon="-0.19655">
        <ele>1754.2</ele>
        <time>2026-05-26T08:25:02Z</time>
      </trkpt>
      <trkpt lat="42.88463" lon="-0.1965">
        <ele>1756.96</ele>
        <time>2026-05-26T08:25:18Z</time>
      </trkpt>
      <trkpt lat="42.8846" lon="-0.19642">
        <ele>1758.95</ele>
        <time>2026-05-26T08:25:35Z</time>
      </trkpt>
      <trkpt lat="42.88454" lon="-0.19639">
        <ele>1762.73</ele>
        <time>2026-05-26T08:25:57Z</time>
      </trkpt>
      <trkpt lat="42.88447" lon="-0.19635">
        <ele>1765.53</ele>
        <time>2026-05-26T08:26:19Z</time>
      </trkpt>
      <trkpt lat="42.88448" lon="-0.19626">
        <ele>1768.16</ele>
        <time>2026-05-26T08:26:36Z</time>
      </trkpt>
      <trkpt lat="42.8844" lon="-0.19625">
        <ele>1771.07</ele>
        <time>2026-05-26T08:26:55Z</time>
      </trkpt>
      <trkpt lat="42.88433" lon="-0.19626">
        <ele>1774.54</ele>
        <time>2026-05-26T08:27:13Z</time>
      </trkpt>
      <trkpt lat="42.88425" lon="-0.19629">
        <ele>1777.03</ele>
        <time>2026-05-26T08:27:33Z</time>
      </trkpt>
      <trkpt lat="42.88413" lon="-0.19635">
        <ele>1779.84</ele>
        <time>2026-05-26T08:27:57Z</time>
      </trkpt>
      <trkpt lat="42.88407" lon="-0.19638">
        <ele>1782.93</ele>
        <time>2026-05-26T08:28:09Z</time>
      </trkpt>
      <trkpt lat="42.88399" lon="-0.19642">
        <ele>1784.6</ele>
        <time>2026-05-26T08:28:28Z</time>
      </trkpt>
      <trkpt lat="42.88389" lon="-0.19649">
        <ele>1788.24</ele>
        <time>2026-05-26T08:28:45Z</time>
      </trkpt>
      <trkpt lat="42.88381" lon="-0.19648">
        <ele>1790.39</ele>
        <time>2026-05-26T08:29:01Z</time>
      </trkpt>
      <trkpt lat="42.88374" lon="-0.19646">
        <ele>1793.05</ele>
        <time>2026-05-26T08:29:19Z</time>
      </trkpt>
      <trkpt lat="42.88368" lon="-0.19644">
        <ele>1795.85</ele>
        <time>2026-05-26T08:29:35Z</time>
      </trkpt>
      <trkpt lat="42.88361" lon="-0.1964">
        <ele>1798.99</ele>
        <time>2026-05-26T08:29:55Z</time>
      </trkpt>
      <trkpt lat="42.88361" lon="-0.1964">
        <ele>1798.98</ele>
        <time>2026-05-26T08:29:56Z</time>
      </trkpt>
      <trkpt lat="42.88354" lon="-0.19638">
        <ele>1799.99</ele>
        <time>2026-05-26T08:30:11Z</time>
      </trkpt>
      <trkpt lat="42.88352" lon="-0.19638">
        <ele>1801.23</ele>
        <time>2026-05-26T08:30:16Z</time>
      </trkpt>
      <trkpt lat="42.88346" lon="-0.19629">
        <ele>1804.2</ele>
        <time>2026-05-26T08:30:36Z</time>
      </trkpt>
      <trkpt lat="42.88344" lon="-0.19621">
        <ele>1807.32</ele>
        <time>2026-05-26T08:30:53Z</time>
      </trkpt>
      <trkpt lat="42.88344" lon="-0.1962">
        <ele>1807.32</ele>
        <time>2026-05-26T08:30:54Z</time>
      </trkpt>
      <trkpt lat="42.88341" lon="-0.19615">
        <ele>1809.34</ele>
        <time>2026-05-26T08:31:13Z</time>
      </trkpt>
      <trkpt lat="42.88337" lon="-0.1961">
        <ele>1812.11</ele>
        <time>2026-05-26T08:31:31Z</time>
      </trkpt>
      <trkpt lat="42.88329" lon="-0.19606">
        <ele>1815.12</ele>
        <time>2026-05-26T08:31:51Z</time>
      </trkpt>
      <trkpt lat="42.88323" lon="-0.19606">
        <ele>1817.75</ele>
        <time>2026-05-26T08:32:12Z</time>
      </trkpt>
      <trkpt lat="42.88318" lon="-0.19605">
        <ele>1820.77</ele>
        <time>2026-05-26T08:32:27Z</time>
      </trkpt>
      <trkpt lat="42.88312" lon="-0.19607">
        <ele>1822.82</ele>
        <time>2026-05-26T08:32:45Z</time>
      </trkpt>
      <trkpt lat="42.88309" lon="-0.19607">
        <ele>1824.36</ele>
        <time>2026-05-26T08:32:55Z</time>
      </trkpt>
      <trkpt lat="42.88302" lon="-0.19604">
        <ele>1826.38</ele>
        <time>2026-05-26T08:33:15Z</time>
      </trkpt>
      <trkpt lat="42.88298" lon="-0.19608">
        <ele>1829.52</ele>
        <time>2026-05-26T08:33:32Z</time>
      </trkpt>
      <trkpt lat="42.88292" lon="-0.19614">
        <ele>1832.27</ele>
        <time>2026-05-26T08:33:49Z</time>
      </trkpt>
      <trkpt lat="42.88283" lon="-0.19612">
        <ele>1834.27</ele>
        <time>2026-05-26T08:34:07Z</time>
      </trkpt>
      <trkpt lat="42.88279" lon="-0.19611">
        <ele>1836.64</ele>
        <time>2026-05-26T08:34:14Z</time>
      </trkpt>
      <trkpt lat="42.88269" lon="-0.19609">
        <ele>1838.3</ele>
        <time>2026-05-26T08:34:31Z</time>
      </trkpt>
      <trkpt lat="42.88267" lon="-0.1961">
        <ele>1839.67</ele>
        <time>2026-05-26T08:34:35Z</time>
      </trkpt>
      <trkpt lat="42.88256" lon="-0.19614">
        <ele>1841.76</ele>
        <time>2026-05-26T08:34:52Z</time>
      </trkpt>
      <trkpt lat="42.88242" lon="-0.19616">
        <ele>1842.56</ele>
        <time>2026-05-26T08:35:09Z</time>
      </trkpt>
      <trkpt lat="42.88238" lon="-0.19614">
        <ele>1842.6</ele>
        <time>2026-05-26T08:35:28Z</time>
      </trkpt>
      <trkpt lat="42.88232" lon="-0.19596">
        <ele>1846.25</ele>
        <time>2026-05-26T08:35:49Z</time>
      </trkpt>
      <trkpt lat="42.8823" lon="-0.19577">
        <ele>1848.51</ele>
        <time>2026-05-26T08:36:08Z</time>
      </trkpt>
      <trkpt lat="42.88231" lon="-0.19564">
        <ele>1850.41</ele>
        <time>2026-05-26T08:36:20Z</time>
      </trkpt>
      <trkpt lat="42.88237" lon="-0.19551">
        <ele>1852.38</ele>
        <time>2026-05-26T08:36:38Z</time>
      </trkpt>
      <trkpt lat="42.88237" lon="-0.19549">
        <ele>1853.63</ele>
        <time>2026-05-26T08:36:41Z</time>
      </trkpt>
      <trkpt lat="42.88241" lon="-0.19535">
        <ele>1856.48</ele>
        <time>2026-05-26T08:37:01Z</time>
      </trkpt>
      <trkpt lat="42.88246" lon="-0.19517">
        <ele>1858.49</ele>
        <time>2026-05-26T08:37:20Z</time>
      </trkpt>
      <trkpt lat="42.88246" lon="-0.19503">
        <ele>1861.93</ele>
        <time>2026-05-26T08:37:41Z</time>
      </trkpt>
      <trkpt lat="42.88243" lon="-0.19499">
        <ele>1863.95</ele>
        <time>2026-05-26T08:37:56Z</time>
      </trkpt>
      <trkpt lat="42.88243" lon="-0.19498">
        <ele>1864.87</ele>
        <time>2026-05-26T08:38:14Z</time>
      </trkpt>
      <trkpt lat="42.88246" lon="-0.1949">
        <ele>1865.03</ele>
        <time>2026-05-26T08:38:46Z</time>
      </trkpt>
      <trkpt lat="42.88245" lon="-0.1949">
        <ele>1862.78</ele>
        <time>2026-05-26T08:39:05Z</time>
      </trkpt>
      <trkpt lat="42.88245" lon="-0.19491">
        <ele>1862.89</ele>
        <time>2026-05-26T08:39:32Z</time>
      </trkpt>
      <trkpt lat="42.88241" lon="-0.19498">
        <ele>1863</ele>
        <time>2026-05-26T08:40:02Z</time>
      </trkpt>
      <trkpt lat="42.88241" lon="-0.195">
        <ele>1863.17</ele>
        <time>2026-05-26T08:40:41Z</time>
      </trkpt>
      <trkpt lat="42.88241" lon="-0.195">
        <ele>1863.29</ele>
        <time>2026-05-26T08:41:11Z</time>
      </trkpt>
      <trkpt lat="42.8824" lon="-0.19502">
        <ele>1863.44</ele>
        <time>2026-05-26T08:41:45Z</time>
      </trkpt>
      <trkpt lat="42.88241" lon="-0.195">
        <ele>1863.52</ele>
        <time>2026-05-26T08:42:07Z</time>
      </trkpt>
      <trkpt lat="42.88247" lon="-0.19495">
        <ele>1863.55</ele>
        <time>2026-05-26T08:42:20Z</time>
      </trkpt>
      <trkpt lat="42.88256" lon="-0.19485">
        <ele>1866.08</ele>
        <time>2026-05-26T08:42:34Z</time>
      </trkpt>
      <trkpt lat="42.88263" lon="-0.19473">
        <ele>1867.89</ele>
        <time>2026-05-26T08:42:50Z</time>
      </trkpt>
      <trkpt lat="42.88263" lon="-0.19469">
        <ele>1867.92</ele>
        <time>2026-05-26T08:42:54Z</time>
      </trkpt>
      <trkpt lat="42.88261" lon="-0.19448">
        <ele>1868.7</ele>
        <time>2026-05-26T08:43:12Z</time>
      </trkpt>
      <trkpt lat="42.88261" lon="-0.19446">
        <ele>1868.68</ele>
        <time>2026-05-26T08:43:23Z</time>
      </trkpt>
      <trkpt lat="42.8826" lon="-0.19442">
        <ele>1868.67</ele>
        <time>2026-05-26T08:43:26Z</time>
      </trkpt>
      <trkpt lat="42.88264" lon="-0.19425">
        <ele>1870.02</ele>
        <time>2026-05-26T08:43:41Z</time>
      </trkpt>
      <trkpt lat="42.88268" lon="-0.1942">
        <ele>1871.99</ele>
        <time>2026-05-26T08:43:56Z</time>
      </trkpt>
      <trkpt lat="42.88273" lon="-0.19415">
        <ele>1874.5</ele>
        <time>2026-05-26T08:44:08Z</time>
      </trkpt>
      <trkpt lat="42.88278" lon="-0.19402">
        <ele>1875.47</ele>
        <time>2026-05-26T08:44:24Z</time>
      </trkpt>
      <trkpt lat="42.88276" lon="-0.1939">
        <ele>1879.01</ele>
        <time>2026-05-26T08:44:38Z</time>
      </trkpt>
      <trkpt lat="42.88281" lon="-0.19373">
        <ele>1881.49</ele>
        <time>2026-05-26T08:44:58Z</time>
      </trkpt>
      <trkpt lat="42.8829" lon="-0.19362">
        <ele>1883.64</ele>
        <time>2026-05-26T08:45:17Z</time>
      </trkpt>
      <trkpt lat="42.88299" lon="-0.19352">
        <ele>1887.47</ele>
        <time>2026-05-26T08:45:36Z</time>
      </trkpt>
      <trkpt lat="42.88304" lon="-0.19342">
        <ele>1890.55</ele>
        <time>2026-05-26T08:45:57Z</time>
      </trkpt>
      <trkpt lat="42.88308" lon="-0.19336">
        <ele>1892.38</ele>
        <time>2026-05-26T08:46:13Z</time>
      </trkpt>
      <trkpt lat="42.88318" lon="-0.19332">
        <ele>1895.95</ele>
        <time>2026-05-26T08:46:31Z</time>
      </trkpt>
      <trkpt lat="42.88329" lon="-0.19324">
        <ele>1897.8</ele>
        <time>2026-05-26T08:46:52Z</time>
      </trkpt>
      <trkpt lat="42.88327" lon="-0.19317">
        <ele>1901.01</ele>
        <time>2026-05-26T08:47:05Z</time>
      </trkpt>
      <trkpt lat="42.88327" lon="-0.19316">
        <ele>1901</ele>
        <time>2026-05-26T08:47:06Z</time>
      </trkpt>
      <trkpt lat="42.8832" lon="-0.19317">
        <ele>1902.85</ele>
        <time>2026-05-26T08:47:23Z</time>
      </trkpt>
      <trkpt lat="42.88315" lon="-0.19311">
        <ele>1904.84</ele>
        <time>2026-05-26T08:47:39Z</time>
      </trkpt>
      <trkpt lat="42.88316" lon="-0.19305">
        <ele>1907.28</ele>
        <time>2026-05-26T08:47:54Z</time>
      </trkpt>
      <trkpt lat="42.88313" lon="-0.193">
        <ele>1908.91</ele>
        <time>2026-05-26T08:48:13Z</time>
      </trkpt>
      <trkpt lat="42.88313" lon="-0.1929">
        <ele>1911.48</ele>
        <time>2026-05-26T08:48:32Z</time>
      </trkpt>
      <trkpt lat="42.88311" lon="-0.19278">
        <ele>1915.32</ele>
        <time>2026-05-26T08:48:55Z</time>
      </trkpt>
      <trkpt lat="42.88309" lon="-0.19271">
        <ele>1917.27</ele>
        <time>2026-05-26T08:49:18Z</time>
      </trkpt>
      <trkpt lat="42.88308" lon="-0.19271">
        <ele>1918.55</ele>
        <time>2026-05-26T08:49:22Z</time>
      </trkpt>
      <trkpt lat="42.88301" lon="-0.19277">
        <ele>1921.54</ele>
        <time>2026-05-26T08:49:45Z</time>
      </trkpt>
      <trkpt lat="42.88294" lon="-0.19273">
        <ele>1924.16</ele>
        <time>2026-05-26T08:50:03Z</time>
      </trkpt>
      <trkpt lat="42.88289" lon="-0.19269">
        <ele>1927.46</ele>
        <time>2026-05-26T08:50:19Z</time>
      </trkpt>
      <trkpt lat="42.88284" lon="-0.19264">
        <ele>1929.23</ele>
        <time>2026-05-26T08:50:38Z</time>
      </trkpt>
      <trkpt lat="42.88278" lon="-0.19257">
        <ele>1932.05</ele>
        <time>2026-05-26T08:50:59Z</time>
      </trkpt>
      <trkpt lat="42.88272" lon="-0.19255">
        <ele>1935.07</ele>
        <time>2026-05-26T08:51:15Z</time>
      </trkpt>
      <trkpt lat="42.88272" lon="-0.19255">
        <ele>1935.03</ele>
        <time>2026-05-26T08:51:16Z</time>
      </trkpt>
      <trkpt lat="42.8827" lon="-0.19253">
        <ele>1936.31</ele>
        <time>2026-05-26T08:51:23Z</time>
      </trkpt>
      <trkpt lat="42.88262" lon="-0.19254">
        <ele>1939.18</ele>
        <time>2026-05-26T08:51:45Z</time>
      </trkpt>
      <trkpt lat="42.88253" lon="-0.19252">
        <ele>1942.51</ele>
        <time>2026-05-26T08:52:05Z</time>
      </trkpt>
      <trkpt lat="42.88249" lon="-0.19244">
        <ele>1945.23</ele>
        <time>2026-05-26T08:52:24Z</time>
      </trkpt>
      <trkpt lat="42.88242" lon="-0.19241">
        <ele>1946.99</ele>
        <time>2026-05-26T08:52:43Z</time>
      </trkpt>
      <trkpt lat="42.88243" lon="-0.19233">
        <ele>1949.13</ele>
        <time>2026-05-26T08:52:58Z</time>
      </trkpt>
      <trkpt lat="42.88237" lon="-0.19232">
        <ele>1952.18</ele>
        <time>2026-05-26T08:53:16Z</time>
      </trkpt>
      <trkpt lat="42.88233" lon="-0.19229">
        <ele>1954.37</ele>
        <time>2026-05-26T08:53:32Z</time>
      </trkpt>
      <trkpt lat="42.88228" lon="-0.19224">
        <ele>1957.55</ele>
        <time>2026-05-26T08:53:48Z</time>
      </trkpt>
      <trkpt lat="42.8822" lon="-0.19222">
        <ele>1959.3</ele>
        <time>2026-05-26T08:54:07Z</time>
      </trkpt>
      <trkpt lat="42.88213" lon="-0.1922">
        <ele>1962.24</ele>
        <time>2026-05-26T08:54:27Z</time>
      </trkpt>
      <trkpt lat="42.88206" lon="-0.1922">
        <ele>1965.72</ele>
        <time>2026-05-26T08:54:47Z</time>
      </trkpt>
      <trkpt lat="42.882" lon="-0.19222">
        <ele>1968.38</ele>
        <time>2026-05-26T08:55:06Z</time>
      </trkpt>
      <trkpt lat="42.88198" lon="-0.19217">
        <ele>1968.45</ele>
        <time>2026-05-26T08:55:33Z</time>
      </trkpt>
      <trkpt lat="42.88196" lon="-0.19211">
        <ele>1971.59</ele>
        <time>2026-05-26T08:55:47Z</time>
      </trkpt>
      <trkpt lat="42.88196" lon="-0.1921">
        <ele>1971.6</ele>
        <time>2026-05-26T08:55:48Z</time>
      </trkpt>
      <trkpt lat="42.88196" lon="-0.19208">
        <ele>1971.56</ele>
        <time>2026-05-26T08:56:05Z</time>
      </trkpt>
      <trkpt lat="42.88193" lon="-0.192">
        <ele>1973.41</ele>
        <time>2026-05-26T08:56:21Z</time>
      </trkpt>
      <trkpt lat="42.88192" lon="-0.19199">
        <ele>1974.68</ele>
        <time>2026-05-26T08:56:26Z</time>
      </trkpt>
      <trkpt lat="42.88189" lon="-0.19196">
        <ele>1976.57</ele>
        <time>2026-05-26T08:56:42Z</time>
      </trkpt>
      <trkpt lat="42.88189" lon="-0.19192">
        <ele>1977.45</ele>
        <time>2026-05-26T08:57:02Z</time>
      </trkpt>
      <trkpt lat="42.88186" lon="-0.19188">
        <ele>1978.36</ele>
        <time>2026-05-26T08:57:19Z</time>
      </trkpt>
      <trkpt lat="42.88185" lon="-0.19185">
        <ele>1979.09</ele>
        <time>2026-05-26T08:57:36Z</time>
      </trkpt>
      <trkpt lat="42.88184" lon="-0.19187">
        <ele>1979.9</ele>
        <time>2026-05-26T08:57:55Z</time>
      </trkpt>
      <trkpt lat="42.88184" lon="-0.19189">
        <ele>1979.95</ele>
        <time>2026-05-26T08:58:16Z</time>
      </trkpt>
      <trkpt lat="42.88182" lon="-0.19192">
        <ele>1980.95</ele>
        <time>2026-05-26T08:58:44Z</time>
      </trkpt>
      <trkpt lat="42.88173" lon="-0.19196">
        <ele>1980.97</ele>
        <time>2026-05-26T08:59:01Z</time>
      </trkpt>
      <trkpt lat="42.88166" lon="-0.19196">
        <ele>1980.98</ele>
        <time>2026-05-26T08:59:15Z</time>
      </trkpt>
      <trkpt lat="42.88162" lon="-0.19193">
        <ele>1978.59</ele>
        <time>2026-05-26T08:59:28Z</time>
      </trkpt>
      <trkpt lat="42.88155" lon="-0.19192">
        <ele>1975.96</ele>
        <time>2026-05-26T08:59:39Z</time>
      </trkpt>
      <trkpt lat="42.8815" lon="-0.19194">
        <ele>1974.25</ele>
        <time>2026-05-26T08:59:46Z</time>
      </trkpt>
      <trkpt lat="42.88151" lon="-0.19196">
        <ele>1973.1</ele>
        <time>2026-05-26T08:59:52Z</time>
      </trkpt>
      <trkpt lat="42.88151" lon="-0.19204">
        <ele>1971.37</ele>
        <time>2026-05-26T09:00:06Z</time>
      </trkpt>
      <trkpt lat="42.88143" lon="-0.19203">
        <ele>1969.41</ele>
        <time>2026-05-26T09:00:20Z</time>
      </trkpt>
      <trkpt lat="42.88137" lon="-0.19205">
        <ele>1966.98</ele>
        <time>2026-05-26T09:00:31Z</time>
      </trkpt>
      <trkpt lat="42.88134" lon="-0.1921">
        <ele>1965.03</ele>
        <time>2026-05-26T09:00:46Z</time>
      </trkpt>
      <trkpt lat="42.88131" lon="-0.19211">
        <ele>1964.24</ele>
        <time>2026-05-26T09:01:10Z</time>
      </trkpt>
      <trkpt lat="42.88129" lon="-0.19214">
        <ele>1963.43</ele>
        <time>2026-05-26T09:01:29Z</time>
      </trkpt>
      <trkpt lat="42.88129" lon="-0.1922">
        <ele>1963.41</ele>
        <time>2026-05-26T09:01:37Z</time>
      </trkpt>
      <trkpt lat="42.88127" lon="-0.19242">
        <ele>1962.43</ele>
        <time>2026-05-26T09:01:53Z</time>
      </trkpt>
      <trkpt lat="42.88123" lon="-0.19252">
        <ele>1962.42</ele>
        <time>2026-05-26T09:02:04Z</time>
      </trkpt>
      <trkpt lat="42.8812" lon="-0.19267">
        <ele>1958.64</ele>
        <time>2026-05-26T09:02:21Z</time>
      </trkpt>
      <trkpt lat="42.88117" lon="-0.19288">
        <ele>1957.69</ele>
        <time>2026-05-26T09:02:37Z</time>
      </trkpt>
      <trkpt lat="42.88116" lon="-0.1929">
        <ele>1957.75</ele>
        <time>2026-05-26T09:02:53Z</time>
      </trkpt>
      <trkpt lat="42.88116" lon="-0.19304">
        <ele>1957.78</ele>
        <time>2026-05-26T09:03:06Z</time>
      </trkpt>
      <trkpt lat="42.88116" lon="-0.19315">
        <ele>1955.98</ele>
        <time>2026-05-26T09:03:14Z</time>
      </trkpt>
      <trkpt lat="42.88119" lon="-0.19324">
        <ele>1954.77</ele>
        <time>2026-05-26T09:03:23Z</time>
      </trkpt>
      <trkpt lat="42.88119" lon="-0.1934">
        <ele>1954.07</ele>
        <time>2026-05-26T09:03:40Z</time>
      </trkpt>
      <trkpt lat="42.88116" lon="-0.19352">
        <ele>1953.35</ele>
        <time>2026-05-26T09:03:54Z</time>
      </trkpt>
      <trkpt lat="42.88116" lon="-0.19357">
        <ele>1953.42</ele>
        <time>2026-05-26T09:04:14Z</time>
      </trkpt>
      <trkpt lat="42.88115" lon="-0.19363">
        <ele>1951.97</ele>
        <time>2026-05-26T09:04:33Z</time>
      </trkpt>
      <trkpt lat="42.88117" lon="-0.19371">
        <ele>1949.75</ele>
        <time>2026-05-26T09:04:46Z</time>
      </trkpt>
      <trkpt lat="42.88119" lon="-0.19379">
        <ele>1948</ele>
        <time>2026-05-26T09:05:00Z</time>
      </trkpt>
      <trkpt lat="42.88118" lon="-0.19389">
        <ele>1946.24</ele>
        <time>2026-05-26T09:05:10Z</time>
      </trkpt>
      <trkpt lat="42.88113" lon="-0.19401">
        <ele>1945.45</ele>
        <time>2026-05-26T09:05:25Z</time>
      </trkpt>
      <trkpt lat="42.88111" lon="-0.194">
        <ele>1945.49</ele>
        <time>2026-05-26T09:05:40Z</time>
      </trkpt>
      <trkpt lat="42.88109" lon="-0.19408">
        <ele>1943.34</ele>
        <time>2026-05-26T09:05:50Z</time>
      </trkpt>
      <trkpt lat="42.88109" lon="-0.19411">
        <ele>1943.21</ele>
        <time>2026-05-26T09:05:54Z</time>
      </trkpt>
      <trkpt lat="42.88108" lon="-0.19412">
        <ele>1942</ele>
        <time>2026-05-26T09:05:56Z</time>
      </trkpt>
      <trkpt lat="42.88104" lon="-0.19426">
        <ele>1941</ele>
        <time>2026-05-26T09:06:11Z</time>
      </trkpt>
      <trkpt lat="42.88101" lon="-0.19433">
        <ele>1940.26</ele>
        <time>2026-05-26T09:06:24Z</time>
      </trkpt>
      <trkpt lat="42.881" lon="-0.19437">
        <ele>1939.53</ele>
        <time>2026-05-26T09:06:40Z</time>
      </trkpt>
      <trkpt lat="42.88098" lon="-0.19447">
        <ele>1937.02</ele>
        <time>2026-05-26T09:06:56Z</time>
      </trkpt>
      <trkpt lat="42.88096" lon="-0.19456">
        <ele>1934.35</ele>
        <time>2026-05-26T09:07:11Z</time>
      </trkpt>
      <trkpt lat="42.88091" lon="-0.19469">
        <ele>1931.53</ele>
        <time>2026-05-26T09:07:25Z</time>
      </trkpt>
      <trkpt lat="42.88084" lon="-0.1948">
        <ele>1929.37</ele>
        <time>2026-05-26T09:07:39Z</time>
      </trkpt>
      <trkpt lat="42.88078" lon="-0.19486">
        <ele>1929.4</ele>
        <time>2026-05-26T09:07:46Z</time>
      </trkpt>
      <trkpt lat="42.8807" lon="-0.19502">
        <ele>1926.49</ele>
        <time>2026-05-26T09:08:02Z</time>
      </trkpt>
      <trkpt lat="42.8807" lon="-0.19503">
        <ele>1926.48</ele>
        <time>2026-05-26T09:08:03Z</time>
      </trkpt>
      <trkpt lat="42.88063" lon="-0.1952">
        <ele>1925.34</ele>
        <time>2026-05-26T09:08:21Z</time>
      </trkpt>
      <trkpt lat="42.88062" lon="-0.19522">
        <ele>1925.34</ele>
        <time>2026-05-26T09:08:23Z</time>
      </trkpt>
      <trkpt lat="42.88059" lon="-0.1953">
        <ele>1924.32</ele>
        <time>2026-05-26T09:08:32Z</time>
      </trkpt>
      <trkpt lat="42.88054" lon="-0.19546">
        <ele>1924.35</ele>
        <time>2026-05-26T09:08:46Z</time>
      </trkpt>
      <trkpt lat="42.88048" lon="-0.1956">
        <ele>1924.38</ele>
        <time>2026-05-26T09:09:02Z</time>
      </trkpt>
      <trkpt lat="42.88041" lon="-0.19572">
        <ele>1924.43</ele>
        <time>2026-05-26T09:09:17Z</time>
      </trkpt>
      <trkpt lat="42.88034" lon="-0.19584">
        <ele>1924.44</ele>
        <time>2026-05-26T09:09:33Z</time>
      </trkpt>
      <trkpt lat="42.88027" lon="-0.19598">
        <ele>1924.46</ele>
        <time>2026-05-26T09:09:49Z</time>
      </trkpt>
      <trkpt lat="42.88021" lon="-0.19607">
        <ele>1924.49</ele>
        <time>2026-05-26T09:10:03Z</time>
      </trkpt>
      <trkpt lat="42.88013" lon="-0.19617">
        <ele>1924.6</ele>
        <time>2026-05-26T09:10:18Z</time>
      </trkpt>
      <trkpt lat="42.88006" lon="-0.19626">
        <ele>1924.52</ele>
        <time>2026-05-26T09:10:33Z</time>
      </trkpt>
      <trkpt lat="42.87997" lon="-0.19635">
        <ele>1922.66</ele>
        <time>2026-05-26T09:10:48Z</time>
      </trkpt>
      <trkpt lat="42.87991" lon="-0.19641">
        <ele>1921.91</ele>
        <time>2026-05-26T09:11:05Z</time>
      </trkpt>
      <trkpt lat="42.8799" lon="-0.19644">
        <ele>1921.93</ele>
        <time>2026-05-26T09:11:22Z</time>
      </trkpt>
      <trkpt lat="42.87985" lon="-0.1965">
        <ele>1921.95</ele>
        <time>2026-05-26T09:11:37Z</time>
      </trkpt>
      <trkpt lat="42.87983" lon="-0.19653">
        <ele>1921</ele>
        <time>2026-05-26T09:11:41Z</time>
      </trkpt>
      <trkpt lat="42.8798" lon="-0.19658">
        <ele>1921.05</ele>
        <time>2026-05-26T09:11:55Z</time>
      </trkpt>
      <trkpt lat="42.87984" lon="-0.19665">
        <ele>1921.14</ele>
        <time>2026-05-26T09:12:11Z</time>
      </trkpt>
      <trkpt lat="42.87984" lon="-0.19671">
        <ele>1921.09</ele>
        <time>2026-05-26T09:12:26Z</time>
      </trkpt>
      <trkpt lat="42.87984" lon="-0.19672">
        <ele>1921.12</ele>
        <time>2026-05-26T09:12:48Z</time>
      </trkpt>
      <trkpt lat="42.87983" lon="-0.19673">
        <ele>1921.13</ele>
        <time>2026-05-26T09:13:05Z</time>
      </trkpt>
      <trkpt lat="42.87983" lon="-0.19672">
        <ele>1921.13</ele>
        <time>2026-05-26T09:13:31Z</time>
      </trkpt>
      <trkpt lat="42.87982" lon="-0.19672">
        <ele>1921.1</ele>
        <time>2026-05-26T09:14:14Z</time>
      </trkpt>
      <trkpt lat="42.87982" lon="-0.19673">
        <ele>1921.07</ele>
        <time>2026-05-26T09:14:57Z</time>
      </trkpt>
      <trkpt lat="42.87982" lon="-0.19674">
        <ele>1921.06</ele>
        <time>2026-05-26T09:15:20Z</time>
      </trkpt>
      <trkpt lat="42.87982" lon="-0.19676">
        <ele>1921.03</ele>
        <time>2026-05-26T09:15:42Z</time>
      </trkpt>
      <trkpt lat="42.87986" lon="-0.19685">
        <ele>1918.75</ele>
        <time>2026-05-26T09:15:55Z</time>
      </trkpt>
      <trkpt lat="42.87989" lon="-0.19692">
        <ele>1918.8</ele>
        <time>2026-05-26T09:16:08Z</time>
      </trkpt>
      <trkpt lat="42.87986" lon="-0.197">
        <ele>1918.85</ele>
        <time>2026-05-26T09:16:20Z</time>
      </trkpt>
      <trkpt lat="42.87982" lon="-0.19711">
        <ele>1918.71</ele>
        <time>2026-05-26T09:16:34Z</time>
      </trkpt>
      <trkpt lat="42.87979" lon="-0.19719">
        <ele>1917.7</ele>
        <time>2026-05-26T09:16:49Z</time>
      </trkpt>
      <trkpt lat="42.87976" lon="-0.19726">
        <ele>1916.72</ele>
        <time>2026-05-26T09:17:10Z</time>
      </trkpt>
      <trkpt lat="42.87976" lon="-0.1973">
        <ele>1916.86</ele>
        <time>2026-05-26T09:17:26Z</time>
      </trkpt>
      <trkpt lat="42.87975" lon="-0.19732">
        <ele>1919.15</ele>
        <time>2026-05-26T09:17:30Z</time>
      </trkpt>
      <trkpt lat="42.87973" lon="-0.19739">
        <ele>1921.68</ele>
        <time>2026-05-26T09:17:46Z</time>
      </trkpt>
      <trkpt lat="42.87975" lon="-0.19745">
        <ele>1921.54</ele>
        <time>2026-05-26T09:17:58Z</time>
      </trkpt>
      <trkpt lat="42.87974" lon="-0.19747">
        <ele>1921.5</ele>
        <time>2026-05-26T09:18:13Z</time>
      </trkpt>
      <trkpt lat="42.8797" lon="-0.19751">
        <ele>1923.46</ele>
        <time>2026-05-26T09:18:29Z</time>
      </trkpt>
      <trkpt lat="42.87969" lon="-0.19758">
        <ele>1923.38</ele>
        <time>2026-05-26T09:18:44Z</time>
      </trkpt>
      <trkpt lat="42.87962" lon="-0.19772">
        <ele>1924.47</ele>
        <time>2026-05-26T09:19:01Z</time>
      </trkpt>
      <trkpt lat="42.87959" lon="-0.19777">
        <ele>1925.75</ele>
        <time>2026-05-26T09:19:08Z</time>
      </trkpt>
      <trkpt lat="42.87954" lon="-0.19784">
        <ele>1926.76</ele>
        <time>2026-05-26T09:19:23Z</time>
      </trkpt>
      <trkpt lat="42.87952" lon="-0.19792">
        <ele>1927.49</ele>
        <time>2026-05-26T09:19:38Z</time>
      </trkpt>
      <trkpt lat="42.87954" lon="-0.19802">
        <ele>1929.5</ele>
        <time>2026-05-26T09:19:58Z</time>
      </trkpt>
      <trkpt lat="42.87955" lon="-0.19819">
        <ele>1932.32</ele>
        <time>2026-05-26T09:20:21Z</time>
      </trkpt>
      <trkpt lat="42.87957" lon="-0.19825">
        <ele>1934.51</ele>
        <time>2026-05-26T09:20:30Z</time>
      </trkpt>
      <trkpt lat="42.87955" lon="-0.19835">
        <ele>1936.93</ele>
        <time>2026-05-26T09:20:49Z</time>
      </trkpt>
      <trkpt lat="42.87955" lon="-0.19836">
        <ele>1938.17</ele>
        <time>2026-05-26T09:20:53Z</time>
      </trkpt>
      <trkpt lat="42.87958" lon="-0.19844">
        <ele>1941</ele>
        <time>2026-05-26T09:21:13Z</time>
      </trkpt>
      <trkpt lat="42.87955" lon="-0.19855">
        <ele>1943.71</ele>
        <time>2026-05-26T09:21:37Z</time>
      </trkpt>
      <trkpt lat="42.87949" lon="-0.19873">
        <ele>1946.18</ele>
        <time>2026-05-26T09:22:02Z</time>
      </trkpt>
      <trkpt lat="42.87941" lon="-0.19881">
        <ele>1948.81</ele>
        <time>2026-05-26T09:22:20Z</time>
      </trkpt>
      <trkpt lat="42.87938" lon="-0.19891">
        <ele>1951.36</ele>
        <time>2026-05-26T09:22:39Z</time>
      </trkpt>
      <trkpt lat="42.87931" lon="-0.199">
        <ele>1953.76</ele>
        <time>2026-05-26T09:22:59Z</time>
      </trkpt>
      <trkpt lat="42.87924" lon="-0.19913">
        <ele>1956.55</ele>
        <time>2026-05-26T09:23:21Z</time>
      </trkpt>
      <trkpt lat="42.87917" lon="-0.1992">
        <ele>1958.22</ele>
        <time>2026-05-26T09:23:42Z</time>
      </trkpt>
      <trkpt lat="42.87909" lon="-0.19925">
        <ele>1961.75</ele>
        <time>2026-05-26T09:24:02Z</time>
      </trkpt>
      <trkpt lat="42.87905" lon="-0.19935">
        <ele>1964.52</ele>
        <time>2026-05-26T09:24:24Z</time>
      </trkpt>
      <trkpt lat="42.87905" lon="-0.19935">
        <ele>1964.44</ele>
        <time>2026-05-26T09:24:48Z</time>
      </trkpt>
      <trkpt lat="42.879" lon="-0.19941">
        <ele>1965.4</ele>
        <time>2026-05-26T09:25:05Z</time>
      </trkpt>
      <trkpt lat="42.87897" lon="-0.19942">
        <ele>1966.13</ele>
        <time>2026-05-26T09:25:23Z</time>
      </trkpt>
      <trkpt lat="42.87893" lon="-0.19951">
        <ele>1966.9</ele>
        <time>2026-05-26T09:25:41Z</time>
      </trkpt>
      <trkpt lat="42.87891" lon="-0.19961">
        <ele>1968.72</ele>
        <time>2026-05-26T09:25:58Z</time>
      </trkpt>
      <trkpt lat="42.87888" lon="-0.19967">
        <ele>1969.59</ele>
        <time>2026-05-26T09:26:17Z</time>
      </trkpt>
      <trkpt lat="42.87886" lon="-0.1997">
        <ele>1971.35</ele>
        <time>2026-05-26T09:26:24Z</time>
      </trkpt>
      <trkpt lat="42.8788" lon="-0.19983">
        <ele>1972.94</ele>
        <time>2026-05-26T09:26:45Z</time>
      </trkpt>
      <trkpt lat="42.87882" lon="-0.1999">
        <ele>1972.9</ele>
        <time>2026-05-26T09:26:58Z</time>
      </trkpt>
      <trkpt lat="42.87882" lon="-0.19997">
        <ele>1975.12</ele>
        <time>2026-05-26T09:27:13Z</time>
      </trkpt>
      <trkpt lat="42.87882" lon="-0.20005">
        <ele>1976.12</ele>
        <time>2026-05-26T09:27:30Z</time>
      </trkpt>
      <trkpt lat="42.87882" lon="-0.20008">
        <ele>1977.03</ele>
        <time>2026-05-26T09:27:45Z</time>
      </trkpt>
      <trkpt lat="42.87881" lon="-0.20009">
        <ele>1976.97</ele>
        <time>2026-05-26T09:28:05Z</time>
      </trkpt>
      <trkpt lat="42.87882" lon="-0.20011">
        <ele>1977.73</ele>
        <time>2026-05-26T09:28:31Z</time>
      </trkpt>
      <trkpt lat="42.87883" lon="-0.20014">
        <ele>1975.32</ele>
        <time>2026-05-26T09:28:45Z</time>
      </trkpt>
      <trkpt lat="42.87882" lon="-0.20015">
        <ele>1975.29</ele>
        <time>2026-05-26T09:29:14Z</time>
      </trkpt>
      <trkpt lat="42.87882" lon="-0.20015">
        <ele>1974.45</ele>
        <time>2026-05-26T09:29:43Z</time>
      </trkpt>
      <trkpt lat="42.8788" lon="-0.20015">
        <ele>1974.41</ele>
        <time>2026-05-26T09:30:10Z</time>
      </trkpt>
      <trkpt lat="42.87882" lon="-0.20014">
        <ele>1974.36</ele>
        <time>2026-05-26T09:30:32Z</time>
      </trkpt>
      <trkpt lat="42.87886" lon="-0.20018">
        <ele>1972.39</ele>
        <time>2026-05-26T09:31:07Z</time>
      </trkpt>
      <trkpt lat="42.87887" lon="-0.2002">
        <ele>1971.03</ele>
        <time>2026-05-26T09:31:11Z</time>
      </trkpt>
      <trkpt lat="42.87894" lon="-0.20022">
        <ele>1969.18</ele>
        <time>2026-05-26T09:31:22Z</time>
      </trkpt>
      <trkpt lat="42.87896" lon="-0.20025">
        <ele>1967.53</ele>
        <time>2026-05-26T09:31:27Z</time>
      </trkpt>
      <trkpt lat="42.87902" lon="-0.20029">
        <ele>1965.28</ele>
        <time>2026-05-26T09:31:41Z</time>
      </trkpt>
      <trkpt lat="42.87905" lon="-0.20036">
        <ele>1962.55</ele>
        <time>2026-05-26T09:31:53Z</time>
      </trkpt>
      <trkpt lat="42.87906" lon="-0.20045">
        <ele>1962.54</ele>
        <time>2026-05-26T09:32:05Z</time>
      </trkpt>
      <trkpt lat="42.87905" lon="-0.20048">
        <ele>1962.55</ele>
        <time>2026-05-26T09:32:17Z</time>
      </trkpt>
      <trkpt lat="42.87905" lon="-0.20048">
        <ele>1962.51</ele>
        <time>2026-05-26T09:32:30Z</time>
      </trkpt>
      <trkpt lat="42.87905" lon="-0.20044">
        <ele>1962.45</ele>
        <time>2026-05-26T09:32:47Z</time>
      </trkpt>
      <trkpt lat="42.87905" lon="-0.20045">
        <ele>1962.43</ele>
        <time>2026-05-26T09:33:01Z</time>
      </trkpt>
      <trkpt lat="42.87903" lon="-0.20043">
        <ele>1962.38</ele>
        <time>2026-05-26T09:33:20Z</time>
      </trkpt>
      <trkpt lat="42.87904" lon="-0.20042">
        <ele>1962.32</ele>
        <time>2026-05-26T09:33:44Z</time>
      </trkpt>
      <trkpt lat="42.87904" lon="-0.20042">
        <ele>1962.28</ele>
        <time>2026-05-26T09:34:02Z</time>
      </trkpt>
      <trkpt lat="42.87902" lon="-0.20043">
        <ele>1962.22</ele>
        <time>2026-05-26T09:34:23Z</time>
      </trkpt>
      <trkpt lat="42.87903" lon="-0.20047">
        <ele>1961.34</ele>
        <time>2026-05-26T09:34:39Z</time>
      </trkpt>
      <trkpt lat="42.87902" lon="-0.20047">
        <ele>1961.32</ele>
        <time>2026-05-26T09:35:20Z</time>
      </trkpt>
      <trkpt lat="42.87902" lon="-0.20047">
        <ele>1961.31</ele>
        <time>2026-05-26T09:35:31Z</time>
      </trkpt>
      <trkpt lat="42.87901" lon="-0.20048">
        <ele>1961.29</ele>
        <time>2026-05-26T09:35:58Z</time>
      </trkpt>
      <trkpt lat="42.87902" lon="-0.20048">
        <ele>1961.22</ele>
        <time>2026-05-26T09:37:26Z</time>
      </trkpt>
      <trkpt lat="42.87902" lon="-0.20048">
        <ele>1961.14</ele>
        <time>2026-05-26T09:38:41Z</time>
      </trkpt>
      <trkpt lat="42.87901" lon="-0.20047">
        <ele>1961.09</ele>
        <time>2026-05-26T09:39:33Z</time>
      </trkpt>
      <trkpt lat="42.87902" lon="-0.20047">
        <ele>1960.19</ele>
        <time>2026-05-26T09:40:27Z</time>
      </trkpt>
      <trkpt lat="42.879" lon="-0.20051">
        <ele>1960.17</ele>
        <time>2026-05-26T09:40:43Z</time>
      </trkpt>
      <trkpt lat="42.879" lon="-0.20052">
        <ele>1960.14</ele>
        <time>2026-05-26T09:41:04Z</time>
      </trkpt>
      <trkpt lat="42.879" lon="-0.20052">
        <ele>1960.07</ele>
        <time>2026-05-26T09:41:42Z</time>
      </trkpt>
      <trkpt lat="42.87901" lon="-0.20052">
        <ele>1959.99</ele>
        <time>2026-05-26T09:42:21Z</time>
      </trkpt>
      <trkpt lat="42.87901" lon="-0.20053">
        <ele>1959.91</ele>
        <time>2026-05-26T09:43:06Z</time>
      </trkpt>
      <trkpt lat="42.879" lon="-0.20053">
        <ele>1959.8</ele>
        <time>2026-05-26T09:44:13Z</time>
      </trkpt>
      <trkpt lat="42.879" lon="-0.20053">
        <ele>1959.66</ele>
        <time>2026-05-26T09:45:29Z</time>
      </trkpt>
      <trkpt lat="42.879" lon="-0.20053">
        <ele>1959.53</ele>
        <time>2026-05-26T09:46:40Z</time>
      </trkpt>
      <trkpt lat="42.87899" lon="-0.20053">
        <ele>1959.37</ele>
        <time>2026-05-26T09:47:54Z</time>
      </trkpt>
      <trkpt lat="42.87899" lon="-0.20054">
        <ele>1959.22</ele>
        <time>2026-05-26T09:48:57Z</time>
      </trkpt>
      <trkpt lat="42.879" lon="-0.20054">
        <ele>1959.12</ele>
        <time>2026-05-26T09:49:39Z</time>
      </trkpt>
      <trkpt lat="42.87899" lon="-0.20054">
        <ele>1958.96</ele>
        <time>2026-05-26T09:50:39Z</time>
      </trkpt>
      <trkpt lat="42.87899" lon="-0.20054">
        <ele>1958.86</ele>
        <time>2026-05-26T09:51:20Z</time>
      </trkpt>
      <trkpt lat="42.87901" lon="-0.20053">
        <ele>1958.79</ele>
        <time>2026-05-26T09:51:48Z</time>
      </trkpt>
      <trkpt lat="42.879" lon="-0.20054">
        <ele>1958.64</ele>
        <time>2026-05-26T09:52:57Z</time>
      </trkpt>
      <trkpt lat="42.879" lon="-0.20054">
        <ele>1958.47</ele>
        <time>2026-05-26T09:54:07Z</time>
      </trkpt>
      <trkpt lat="42.87899" lon="-0.20054">
        <ele>1958.34</ele>
        <time>2026-05-26T09:55:03Z</time>
      </trkpt>
      <trkpt lat="42.87901" lon="-0.20051">
        <ele>1960.87</ele>
        <time>2026-05-26T09:55:11Z</time>
      </trkpt>
      <trkpt lat="42.87904" lon="-0.20052">
        <ele>1960.74</ele>
        <time>2026-05-26T09:55:25Z</time>
      </trkpt>
      <trkpt lat="42.87905" lon="-0.20047">
        <ele>1961.48</ele>
        <time>2026-05-26T09:55:38Z</time>
      </trkpt>
      <trkpt lat="42.87904" lon="-0.20048">
        <ele>1961.44</ele>
        <time>2026-05-26T09:56:04Z</time>
      </trkpt>
      <trkpt lat="42.87905" lon="-0.20048">
        <ele>1961.41</ele>
        <time>2026-05-26T09:56:35Z</time>
      </trkpt>
      <trkpt lat="42.87907" lon="-0.20047">
        <ele>1961.43</ele>
        <time>2026-05-26T09:57:28Z</time>
      </trkpt>
      <trkpt lat="42.87905" lon="-0.20045">
        <ele>1961.46</ele>
        <time>2026-05-26T09:57:50Z</time>
      </trkpt>
      <trkpt lat="42.87905" lon="-0.20045">
        <ele>1959.88</ele>
        <time>2026-05-26T09:57:54Z</time>
      </trkpt>
      <trkpt lat="42.87905" lon="-0.20045">
        <ele>1959.96</ele>
        <time>2026-05-26T09:58:50Z</time>
      </trkpt>
      <trkpt lat="42.87905" lon="-0.20046">
        <ele>1959.26</ele>
        <time>2026-05-26T10:00:10Z</time>
      </trkpt>
      <trkpt lat="42.87904" lon="-0.20045">
        <ele>1959.3</ele>
        <time>2026-05-26T10:00:51Z</time>
      </trkpt>
      <trkpt lat="42.87904" lon="-0.20046">
        <ele>1959.35</ele>
        <time>2026-05-26T10:01:59Z</time>
      </trkpt>
      <trkpt lat="42.87905" lon="-0.20045">
        <ele>1959.4</ele>
        <time>2026-05-26T10:03:16Z</time>
      </trkpt>
      <trkpt lat="42.87906" lon="-0.20046">
        <ele>1959.43</ele>
        <time>2026-05-26T10:04:24Z</time>
      </trkpt>
      <trkpt lat="42.87906" lon="-0.20048">
        <ele>1959.43</ele>
        <time>2026-05-26T10:05:39Z</time>
      </trkpt>
      <trkpt lat="42.87906" lon="-0.20047">
        <ele>1959.47</ele>
        <time>2026-05-26T10:06:59Z</time>
      </trkpt>
      <trkpt lat="42.87906" lon="-0.20048">
        <ele>1959.49</ele>
        <time>2026-05-26T10:08:12Z</time>
      </trkpt>
      <trkpt lat="42.87907" lon="-0.20048">
        <ele>1959.49</ele>
        <time>2026-05-26T10:09:31Z</time>
      </trkpt>
      <trkpt lat="42.87906" lon="-0.20048">
        <ele>1959.5</ele>
        <time>2026-05-26T10:10:43Z</time>
      </trkpt>
      <trkpt lat="42.87906" lon="-0.20048">
        <ele>1959.5</ele>
        <time>2026-05-26T10:11:50Z</time>
      </trkpt>
      <trkpt lat="42.87907" lon="-0.20048">
        <ele>1959.5</ele>
        <time>2026-05-26T10:13:18Z</time>
      </trkpt>
      <trkpt lat="42.87906" lon="-0.20047">
        <ele>1959.51</ele>
        <time>2026-05-26T10:14:41Z</time>
      </trkpt>
      <trkpt lat="42.87907" lon="-0.20048">
        <ele>1959.5</ele>
        <time>2026-05-26T10:15:58Z</time>
      </trkpt>
      <trkpt lat="42.87906" lon="-0.20048">
        <ele>1959.49</ele>
        <time>2026-05-26T10:17:09Z</time>
      </trkpt>
      <trkpt lat="42.87906" lon="-0.20048">
        <ele>1959.49</ele>
        <time>2026-05-26T10:18:18Z</time>
      </trkpt>
      <trkpt lat="42.87906" lon="-0.20047">
        <ele>1959.52</ele>
        <time>2026-05-26T10:19:33Z</time>
      </trkpt>
      <trkpt lat="42.87906" lon="-0.20047">
        <ele>1959.58</ele>
        <time>2026-05-26T10:20:46Z</time>
      </trkpt>
      <trkpt lat="42.87906" lon="-0.20048">
        <ele>1959.62</ele>
        <time>2026-05-26T10:21:20Z</time>
      </trkpt>
      <trkpt lat="42.87906" lon="-0.20048">
        <ele>1959.66</ele>
        <time>2026-05-26T10:22:31Z</time>
      </trkpt>
      <trkpt lat="42.87905" lon="-0.20047">
        <ele>1959.71</ele>
        <time>2026-05-26T10:23:28Z</time>
      </trkpt>
      <trkpt lat="42.87906" lon="-0.2005">
        <ele>1959.84</ele>
        <time>2026-05-26T10:24:47Z</time>
      </trkpt>
      <trkpt lat="42.87907" lon="-0.20049">
        <ele>1960.03</ele>
        <time>2026-05-26T10:26:09Z</time>
      </trkpt>
      <trkpt lat="42.87905" lon="-0.20049">
        <ele>1960.22</ele>
        <time>2026-05-26T10:27:26Z</time>
      </trkpt>
      <trkpt lat="42.87906" lon="-0.20049">
        <ele>1960.38</ele>
        <time>2026-05-26T10:28:40Z</time>
      </trkpt>
      <trkpt lat="42.87906" lon="-0.20049">
        <ele>1960.55</ele>
        <time>2026-05-26T10:29:50Z</time>
      </trkpt>
      <trkpt lat="42.87906" lon="-0.20049">
        <ele>1960.73</ele>
        <time>2026-05-26T10:31:05Z</time>
      </trkpt>
      <trkpt lat="42.87904" lon="-0.20048">
        <ele>1960.82</ele>
        <time>2026-05-26T10:31:47Z</time>
      </trkpt>
      <trkpt lat="42.87904" lon="-0.20049">
        <ele>1960.87</ele>
        <time>2026-05-26T10:32:17Z</time>
      </trkpt>
      <trkpt lat="42.87903" lon="-0.2005">
        <ele>1960.9</ele>
        <time>2026-05-26T10:32:42Z</time>
      </trkpt>
      <trkpt lat="42.87903" lon="-0.20049">
        <ele>1960.94</ele>
        <time>2026-05-26T10:33:07Z</time>
      </trkpt>
      <trkpt lat="42.87903" lon="-0.20049">
        <ele>1960.92</ele>
        <time>2026-05-26T10:33:28Z</time>
      </trkpt>
      <trkpt lat="42.87902" lon="-0.20049">
        <ele>1960.92</ele>
        <time>2026-05-26T10:33:53Z</time>
      </trkpt>
      <trkpt lat="42.87898" lon="-0.20051">
        <ele>1960.9</ele>
        <time>2026-05-26T10:34:24Z</time>
      </trkpt>
      <trkpt lat="42.87897" lon="-0.20051">
        <ele>1960.86</ele>
        <time>2026-05-26T10:34:51Z</time>
      </trkpt>
      <trkpt lat="42.87897" lon="-0.20053">
        <ele>1960.84</ele>
        <time>2026-05-26T10:35:16Z</time>
      </trkpt>
      <trkpt lat="42.87897" lon="-0.20053">
        <ele>1960.8</ele>
        <time>2026-05-26T10:35:44Z</time>
      </trkpt>
      <trkpt lat="42.87897" lon="-0.20052">
        <ele>1960.76</ele>
        <time>2026-05-26T10:36:11Z</time>
      </trkpt>
      <trkpt lat="42.87897" lon="-0.20052">
        <ele>1960.72</ele>
        <time>2026-05-26T10:36:40Z</time>
      </trkpt>
      <trkpt lat="42.87897" lon="-0.20051">
        <ele>1960.67</ele>
        <time>2026-05-26T10:37:07Z</time>
      </trkpt>
      <trkpt lat="42.87901" lon="-0.20052">
        <ele>1960.62</ele>
        <time>2026-05-26T10:37:35Z</time>
      </trkpt>
      <trkpt lat="42.879" lon="-0.2005">
        <ele>1960.64</ele>
        <time>2026-05-26T10:38:04Z</time>
      </trkpt>
      <trkpt lat="42.879" lon="-0.20051">
        <ele>1960.64</ele>
        <time>2026-05-26T10:38:09Z</time>
      </trkpt>
      <trkpt lat="42.87909" lon="-0.20054">
        <ele>1960.61</ele>
        <time>2026-05-26T10:38:30Z</time>
      </trkpt>
      <trkpt lat="42.8791" lon="-0.20054">
        <ele>1960.59</ele>
        <time>2026-05-26T10:38:37Z</time>
      </trkpt>
      <trkpt lat="42.87901" lon="-0.20052">
        <ele>1960.6</ele>
        <time>2026-05-26T10:38:58Z</time>
      </trkpt>
      <trkpt lat="42.87902" lon="-0.20053">
        <ele>1960.5</ele>
        <time>2026-05-26T10:39:20Z</time>
      </trkpt>
      <trkpt lat="42.87902" lon="-0.20055">
        <ele>1960.45</ele>
        <time>2026-05-26T10:39:43Z</time>
      </trkpt>
      <trkpt lat="42.87902" lon="-0.20056">
        <ele>1960.41</ele>
        <time>2026-05-26T10:40:04Z</time>
      </trkpt>
      <trkpt lat="42.87902" lon="-0.20056">
        <ele>1960.4</ele>
        <time>2026-05-26T10:40:28Z</time>
      </trkpt>
      <trkpt lat="42.87904" lon="-0.20054">
        <ele>1962.7</ele>
        <time>2026-05-26T10:40:39Z</time>
      </trkpt>
      <trkpt lat="42.87902" lon="-0.20054">
        <ele>1962.61</ele>
        <time>2026-05-26T10:41:08Z</time>
      </trkpt>
      <trkpt lat="42.87902" lon="-0.20051">
        <ele>1962.52</ele>
        <time>2026-05-26T10:41:35Z</time>
      </trkpt>
      <trkpt lat="42.87903" lon="-0.20055">
        <ele>1962.44</ele>
        <time>2026-05-26T10:42:01Z</time>
      </trkpt>
      <trkpt lat="42.87903" lon="-0.20055">
        <ele>1962.35</ele>
        <time>2026-05-26T10:42:33Z</time>
      </trkpt>
      <trkpt lat="42.87899" lon="-0.20055">
        <ele>1962.25</ele>
        <time>2026-05-26T10:43:02Z</time>
      </trkpt>
      <trkpt lat="42.87907" lon="-0.20057">
        <ele>1963.04</ele>
        <time>2026-05-26T10:43:22Z</time>
      </trkpt>
      <trkpt lat="42.87912" lon="-0.2006">
        <ele>1963.87</ele>
        <time>2026-05-26T10:43:38Z</time>
      </trkpt>
      <trkpt lat="42.87912" lon="-0.2006">
        <ele>1963.73</ele>
        <time>2026-05-26T10:44:01Z</time>
      </trkpt>
      <trkpt lat="42.87906" lon="-0.20056">
        <ele>1963.66</ele>
        <time>2026-05-26T10:44:19Z</time>
      </trkpt>
      <trkpt lat="42.87905" lon="-0.20049">
        <ele>1961.08</ele>
        <time>2026-05-26T10:44:32Z</time>
      </trkpt>
      <trkpt lat="42.87911" lon="-0.20042">
        <ele>1960.18</ele>
        <time>2026-05-26T10:44:50Z</time>
      </trkpt>
      <trkpt lat="42.87908" lon="-0.20046">
        <ele>1960.11</ele>
        <time>2026-05-26T10:45:09Z</time>
      </trkpt>
      <trkpt lat="42.8791" lon="-0.20043">
        <ele>1960.02</ele>
        <time>2026-05-26T10:45:33Z</time>
      </trkpt>
      <trkpt lat="42.87914" lon="-0.20038">
        <ele>1958.11</ele>
        <time>2026-05-26T10:45:51Z</time>
      </trkpt>
      <trkpt lat="42.87917" lon="-0.20034">
        <ele>1955.27</ele>
        <time>2026-05-26T10:46:06Z</time>
      </trkpt>
      <trkpt lat="42.87923" lon="-0.20032">
        <ele>1954.37</ele>
        <time>2026-05-26T10:46:20Z</time>
      </trkpt>
      <trkpt lat="42.87924" lon="-0.20027">
        <ele>1951.14</ele>
        <time>2026-05-26T10:46:31Z</time>
      </trkpt>
      <trkpt lat="42.87924" lon="-0.20026">
        <ele>1951.19</ele>
        <time>2026-05-26T10:46:32Z</time>
      </trkpt>
      <trkpt lat="42.8792" lon="-0.20013">
        <ele>1949.12</ele>
        <time>2026-05-26T10:46:49Z</time>
      </trkpt>
      <trkpt lat="42.87924" lon="-0.20006">
        <ele>1949.12</ele>
        <time>2026-05-26T10:47:05Z</time>
      </trkpt>
      <trkpt lat="42.87929" lon="-0.19998">
        <ele>1947.95</ele>
        <time>2026-05-26T10:47:18Z</time>
      </trkpt>
      <trkpt lat="42.87932" lon="-0.19992">
        <ele>1946.48</ele>
        <time>2026-05-26T10:47:36Z</time>
      </trkpt>
      <trkpt lat="42.87938" lon="-0.1999">
        <ele>1944.53</ele>
        <time>2026-05-26T10:47:56Z</time>
      </trkpt>
      <trkpt lat="42.87947" lon="-0.19983">
        <ele>1941.14</ele>
        <time>2026-05-26T10:48:13Z</time>
      </trkpt>
      <trkpt lat="42.87948" lon="-0.19982">
        <ele>1941.15</ele>
        <time>2026-05-26T10:48:14Z</time>
      </trkpt>
      <trkpt lat="42.87948" lon="-0.19981">
        <ele>1941.14</ele>
        <time>2026-05-26T10:48:15Z</time>
      </trkpt>
      <trkpt lat="42.87958" lon="-0.19974">
        <ele>1938.5</ele>
        <time>2026-05-26T10:48:30Z</time>
      </trkpt>
      <trkpt lat="42.87958" lon="-0.19975">
        <ele>1937.79</ele>
        <time>2026-05-26T10:48:50Z</time>
      </trkpt>
      <trkpt lat="42.87969" lon="-0.19966">
        <ele>1935.33</ele>
        <time>2026-05-26T10:49:08Z</time>
      </trkpt>
      <trkpt lat="42.87975" lon="-0.19966">
        <ele>1933.26</ele>
        <time>2026-05-26T10:49:26Z</time>
      </trkpt>
      <trkpt lat="42.87981" lon="-0.19959">
        <ele>1932.13</ele>
        <time>2026-05-26T10:49:40Z</time>
      </trkpt>
      <trkpt lat="42.87987" lon="-0.19953">
        <ele>1930.54</ele>
        <time>2026-05-26T10:49:55Z</time>
      </trkpt>
      <trkpt lat="42.8799" lon="-0.19948">
        <ele>1929.53</ele>
        <time>2026-05-26T10:50:12Z</time>
      </trkpt>
      <trkpt lat="42.87996" lon="-0.19945">
        <ele>1928.67</ele>
        <time>2026-05-26T10:50:31Z</time>
      </trkpt>
      <trkpt lat="42.88" lon="-0.19939">
        <ele>1927.08</ele>
        <time>2026-05-26T10:50:44Z</time>
      </trkpt>
      <trkpt lat="42.88002" lon="-0.19934">
        <ele>1925.42</ele>
        <time>2026-05-26T10:50:56Z</time>
      </trkpt>
      <trkpt lat="42.88004" lon="-0.19934">
        <ele>1924.64</ele>
        <time>2026-05-26T10:51:11Z</time>
      </trkpt>
      <trkpt lat="42.88009" lon="-0.19932">
        <ele>1922.75</ele>
        <time>2026-05-26T10:51:28Z</time>
      </trkpt>
      <trkpt lat="42.88013" lon="-0.19931">
        <ele>1921.02</ele>
        <time>2026-05-26T10:51:42Z</time>
      </trkpt>
      <trkpt lat="42.88015" lon="-0.19926">
        <ele>1921.08</ele>
        <time>2026-05-26T10:51:54Z</time>
      </trkpt>
      <trkpt lat="42.88018" lon="-0.19922">
        <ele>1919.5</ele>
        <time>2026-05-26T10:52:06Z</time>
      </trkpt>
      <trkpt lat="42.88022" lon="-0.19917">
        <ele>1917.72</ele>
        <time>2026-05-26T10:52:21Z</time>
      </trkpt>
      <trkpt lat="42.88024" lon="-0.19909">
        <ele>1916.01</ele>
        <time>2026-05-26T10:52:37Z</time>
      </trkpt>
      <trkpt lat="42.88026" lon="-0.19905">
        <ele>1914.42</ele>
        <time>2026-05-26T10:52:51Z</time>
      </trkpt>
      <trkpt lat="42.88028" lon="-0.19905">
        <ele>1913.19</ele>
        <time>2026-05-26T10:52:58Z</time>
      </trkpt>
      <trkpt lat="42.88031" lon="-0.199">
        <ele>1911.21</ele>
        <time>2026-05-26T10:53:11Z</time>
      </trkpt>
      <trkpt lat="42.88034" lon="-0.19897">
        <ele>1910.38</ele>
        <time>2026-05-26T10:53:24Z</time>
      </trkpt>
      <trkpt lat="42.88037" lon="-0.19894">
        <ele>1908.59</ele>
        <time>2026-05-26T10:53:37Z</time>
      </trkpt>
      <trkpt lat="42.88041" lon="-0.1989">
        <ele>1906.68</ele>
        <time>2026-05-26T10:53:51Z</time>
      </trkpt>
      <trkpt lat="42.88045" lon="-0.19886">
        <ele>1905.82</ele>
        <time>2026-05-26T10:54:04Z</time>
      </trkpt>
      <trkpt lat="42.88049" lon="-0.19882">
        <ele>1905.1</ele>
        <time>2026-05-26T10:54:16Z</time>
      </trkpt>
      <trkpt lat="42.88053" lon="-0.19884">
        <ele>1902.51</ele>
        <time>2026-05-26T10:54:24Z</time>
      </trkpt>
      <trkpt lat="42.88053" lon="-0.19887">
        <ele>1901.73</ele>
        <time>2026-05-26T10:54:38Z</time>
      </trkpt>
      <trkpt lat="42.88057" lon="-0.19881">
        <ele>1900.43</ele>
        <time>2026-05-26T10:54:55Z</time>
      </trkpt>
      <trkpt lat="42.88061" lon="-0.19873">
        <ele>1899.69</ele>
        <time>2026-05-26T10:55:10Z</time>
      </trkpt>
      <trkpt lat="42.88064" lon="-0.19868">
        <ele>1898.74</ele>
        <time>2026-05-26T10:55:21Z</time>
      </trkpt>
      <trkpt lat="42.88067" lon="-0.19863">
        <ele>1897.05</ele>
        <time>2026-05-26T10:55:36Z</time>
      </trkpt>
      <trkpt lat="42.88068" lon="-0.1986">
        <ele>1895.3</ele>
        <time>2026-05-26T10:55:48Z</time>
      </trkpt>
      <trkpt lat="42.88067" lon="-0.19854">
        <ele>1893.56</ele>
        <time>2026-05-26T10:56:00Z</time>
      </trkpt>
      <trkpt lat="42.88075" lon="-0.19852">
        <ele>1891.75</ele>
        <time>2026-05-26T10:56:13Z</time>
      </trkpt>
      <trkpt lat="42.8808" lon="-0.19842">
        <ele>1888.32</ele>
        <time>2026-05-26T10:56:25Z</time>
      </trkpt>
      <trkpt lat="42.8808" lon="-0.19841">
        <ele>1888.4</ele>
        <time>2026-05-26T10:56:46Z</time>
      </trkpt>
      <trkpt lat="42.88084" lon="-0.19839">
        <ele>1886.42</ele>
        <time>2026-05-26T10:57:07Z</time>
      </trkpt>
      <trkpt lat="42.88086" lon="-0.19842">
        <ele>1885.58</ele>
        <time>2026-05-26T10:57:25Z</time>
      </trkpt>
      <trkpt lat="42.88091" lon="-0.19834">
        <ele>1883.65</ele>
        <time>2026-05-26T10:57:42Z</time>
      </trkpt>
      <trkpt lat="42.88096" lon="-0.19831">
        <ele>1879.95</ele>
        <time>2026-05-26T10:57:55Z</time>
      </trkpt>
      <trkpt lat="42.88095" lon="-0.1983">
        <ele>1880.03</ele>
        <time>2026-05-26T10:58:18Z</time>
      </trkpt>
      <trkpt lat="42.88097" lon="-0.19828">
        <ele>1878.77</ele>
        <time>2026-05-26T10:58:44Z</time>
      </trkpt>
      <trkpt lat="42.88099" lon="-0.19821">
        <ele>1877.71</ele>
        <time>2026-05-26T10:58:56Z</time>
      </trkpt>
      <trkpt lat="42.88103" lon="-0.19816">
        <ele>1875.87</ele>
        <time>2026-05-26T10:59:12Z</time>
      </trkpt>
      <trkpt lat="42.88108" lon="-0.19816">
        <ele>1873.28</ele>
        <time>2026-05-26T10:59:34Z</time>
      </trkpt>
      <trkpt lat="42.88111" lon="-0.19816">
        <ele>1871.55</ele>
        <time>2026-05-26T10:59:38Z</time>
      </trkpt>
      <trkpt lat="42.88116" lon="-0.19815">
        <ele>1869.11</ele>
        <time>2026-05-26T10:59:48Z</time>
      </trkpt>
      <trkpt lat="42.8812" lon="-0.19812">
        <ele>1867.16</ele>
        <time>2026-05-26T11:00:04Z</time>
      </trkpt>
      <trkpt lat="42.88127" lon="-0.19811">
        <ele>1863.99</ele>
        <time>2026-05-26T11:00:14Z</time>
      </trkpt>
      <trkpt lat="42.88135" lon="-0.19811">
        <ele>1860.82</ele>
        <time>2026-05-26T11:00:26Z</time>
      </trkpt>
      <trkpt lat="42.88136" lon="-0.1981">
        <ele>1859.54</ele>
        <time>2026-05-26T11:00:28Z</time>
      </trkpt>
      <trkpt lat="42.88141" lon="-0.19811">
        <ele>1858.61</ele>
        <time>2026-05-26T11:00:34Z</time>
      </trkpt>
      <trkpt lat="42.88144" lon="-0.19806">
        <ele>1857.52</ele>
        <time>2026-05-26T11:00:39Z</time>
      </trkpt>
      <trkpt lat="42.88114" lon="-0.19814">
        <ele>1857.57</ele>
        <time>2026-05-26T11:00:44Z</time>
      </trkpt>
      <trkpt lat="42.88079" lon="-0.19819">
        <ele>1855.72</ele>
        <time>2026-05-26T11:00:48Z</time>
      </trkpt>
      <trkpt lat="42.88102" lon="-0.19811">
        <ele>1855.75</ele>
        <time>2026-05-26T11:00:52Z</time>
      </trkpt>
      <trkpt lat="42.88122" lon="-0.19803">
        <ele>1855.77</ele>
        <time>2026-05-26T11:00:57Z</time>
      </trkpt>
      <trkpt lat="42.88138" lon="-0.19798">
        <ele>1854.48</ele>
        <time>2026-05-26T11:01:04Z</time>
      </trkpt>
      <trkpt lat="42.88155" lon="-0.19797">
        <ele>1852.2</ele>
        <time>2026-05-26T11:01:22Z</time>
      </trkpt>
      <trkpt lat="42.88161" lon="-0.19793">
        <ele>1850.9</ele>
        <time>2026-05-26T11:01:36Z</time>
      </trkpt>
      <trkpt lat="42.8817" lon="-0.19785">
        <ele>1847.89</ele>
        <time>2026-05-26T11:01:51Z</time>
      </trkpt>
      <trkpt lat="42.88177" lon="-0.19774">
        <ele>1846.08</ele>
        <time>2026-05-26T11:02:07Z</time>
      </trkpt>
      <trkpt lat="42.88185" lon="-0.19767">
        <ele>1845.35</ele>
        <time>2026-05-26T11:02:19Z</time>
      </trkpt>
      <trkpt lat="42.88203" lon="-0.19753">
        <ele>1842.46</ele>
        <time>2026-05-26T11:02:37Z</time>
      </trkpt>
      <trkpt lat="42.88211" lon="-0.19746">
        <ele>1840.24</ele>
        <time>2026-05-26T11:02:46Z</time>
      </trkpt>
      <trkpt lat="42.88221" lon="-0.19735">
        <ele>1840.35</ele>
        <time>2026-05-26T11:02:59Z</time>
      </trkpt>
      <trkpt lat="42.88228" lon="-0.19725">
        <ele>1838.44</ele>
        <time>2026-05-26T11:03:11Z</time>
      </trkpt>
      <trkpt lat="42.88236" lon="-0.19722">
        <ele>1835.27</ele>
        <time>2026-05-26T11:03:20Z</time>
      </trkpt>
      <trkpt lat="42.88237" lon="-0.19721">
        <ele>1835.27</ele>
        <time>2026-05-26T11:03:21Z</time>
      </trkpt>
      <trkpt lat="42.88241" lon="-0.19715">
        <ele>1833.7</ele>
        <time>2026-05-26T11:03:29Z</time>
      </trkpt>
      <trkpt lat="42.88251" lon="-0.19707">
        <ele>1832.85</ele>
        <time>2026-05-26T11:03:43Z</time>
      </trkpt>
      <trkpt lat="42.8826" lon="-0.19703">
        <ele>1829.61</ele>
        <time>2026-05-26T11:03:54Z</time>
      </trkpt>
      <trkpt lat="42.88267" lon="-0.19702">
        <ele>1825.22</ele>
        <time>2026-05-26T11:04:06Z</time>
      </trkpt>
      <trkpt lat="42.88268" lon="-0.19702">
        <ele>1825.21</ele>
        <time>2026-05-26T11:04:07Z</time>
      </trkpt>
      <trkpt lat="42.88271" lon="-0.19701">
        <ele>1823.63</ele>
        <time>2026-05-26T11:04:13Z</time>
      </trkpt>
      <trkpt lat="42.88279" lon="-0.19696">
        <ele>1822.84</ele>
        <time>2026-05-26T11:04:27Z</time>
      </trkpt>
      <trkpt lat="42.88282" lon="-0.19693">
        <ele>1820.62</ele>
        <time>2026-05-26T11:04:34Z</time>
      </trkpt>
      <trkpt lat="42.88291" lon="-0.1969">
        <ele>1818.34</ele>
        <time>2026-05-26T11:04:46Z</time>
      </trkpt>
      <trkpt lat="42.88296" lon="-0.19687">
        <ele>1816.2</ele>
        <time>2026-05-26T11:04:52Z</time>
      </trkpt>
      <trkpt lat="42.88303" lon="-0.19678">
        <ele>1812.22</ele>
        <time>2026-05-26T11:05:05Z</time>
      </trkpt>
      <trkpt lat="42.88312" lon="-0.19671">
        <ele>1808.48</ele>
        <time>2026-05-26T11:05:16Z</time>
      </trkpt>
      <trkpt lat="42.88313" lon="-0.1967">
        <ele>1808.78</ele>
        <time>2026-05-26T11:05:17Z</time>
      </trkpt>
      <trkpt lat="42.88328" lon="-0.19664">
        <ele>1804.35</ele>
        <time>2026-05-26T11:05:33Z</time>
      </trkpt>
      <trkpt lat="42.88329" lon="-0.19663">
        <ele>1804.38</ele>
        <time>2026-05-26T11:05:34Z</time>
      </trkpt>
      <trkpt lat="42.88346" lon="-0.19658">
        <ele>1801.91</ele>
        <time>2026-05-26T11:05:48Z</time>
      </trkpt>
      <trkpt lat="42.88362" lon="-0.19652">
        <ele>1801.36</ele>
        <time>2026-05-26T11:06:05Z</time>
      </trkpt>
      <trkpt lat="42.8837" lon="-0.19653">
        <ele>1799.85</ele>
        <time>2026-05-26T11:06:13Z</time>
      </trkpt>
      <trkpt lat="42.88376" lon="-0.19654">
        <ele>1797.45</ele>
        <time>2026-05-26T11:06:19Z</time>
      </trkpt>
      <trkpt lat="42.88381" lon="-0.19654">
        <ele>1794.89</ele>
        <time>2026-05-26T11:06:25Z</time>
      </trkpt>
      <trkpt lat="42.88389" lon="-0.19653">
        <ele>1793.89</ele>
        <time>2026-05-26T11:06:34Z</time>
      </trkpt>
      <trkpt lat="42.88397" lon="-0.19646">
        <ele>1790.03</ele>
        <time>2026-05-26T11:06:43Z</time>
      </trkpt>
      <trkpt lat="42.88404" lon="-0.19644">
        <ele>1787.65</ele>
        <time>2026-05-26T11:06:50Z</time>
      </trkpt>
      <trkpt lat="42.88413" lon="-0.19637">
        <ele>1785.07</ele>
        <time>2026-05-26T11:06:59Z</time>
      </trkpt>
      <trkpt lat="42.88418" lon="-0.19635">
        <ele>1783.72</ele>
        <time>2026-05-26T11:07:03Z</time>
      </trkpt>
      <trkpt lat="42.88421" lon="-0.19634">
        <ele>1782.48</ele>
        <time>2026-05-26T11:07:05Z</time>
      </trkpt>
      <trkpt lat="42.88426" lon="-0.19633">
        <ele>1779.9</ele>
        <time>2026-05-26T11:07:11Z</time>
      </trkpt>
      <trkpt lat="42.88432" lon="-0.19632">
        <ele>1777.64</ele>
        <time>2026-05-26T11:07:17Z</time>
      </trkpt>
      <trkpt lat="42.88437" lon="-0.19632">
        <ele>1776.41</ele>
        <time>2026-05-26T11:07:21Z</time>
      </trkpt>
      <trkpt lat="42.88442" lon="-0.19633">
        <ele>1775.25</ele>
        <time>2026-05-26T11:07:27Z</time>
      </trkpt>
      <trkpt lat="42.88445" lon="-0.19634">
        <ele>1775.36</ele>
        <time>2026-05-26T11:07:30Z</time>
      </trkpt>
      <trkpt lat="42.88445" lon="-0.19636">
        <ele>1773.85</ele>
        <time>2026-05-26T11:07:32Z</time>
      </trkpt>
      <trkpt lat="42.88445" lon="-0.19645">
        <ele>1770.75</ele>
        <time>2026-05-26T11:07:42Z</time>
      </trkpt>
      <trkpt lat="42.88446" lon="-0.19646">
        <ele>1770.76</ele>
        <time>2026-05-26T11:07:43Z</time>
      </trkpt>
      <trkpt lat="42.88453" lon="-0.19647">
        <ele>1768.81</ele>
        <time>2026-05-26T11:07:51Z</time>
      </trkpt>
      <trkpt lat="42.88456" lon="-0.19647">
        <ele>1767.29</ele>
        <time>2026-05-26T11:07:55Z</time>
      </trkpt>
      <trkpt lat="42.88459" lon="-0.19653">
        <ele>1764.01</ele>
        <time>2026-05-26T11:08:02Z</time>
      </trkpt>
      <trkpt lat="42.8846" lon="-0.19653">
        <ele>1764.03</ele>
        <time>2026-05-26T11:08:03Z</time>
      </trkpt>
      <trkpt lat="42.88462" lon="-0.1966">
        <ele>1762.06</ele>
        <time>2026-05-26T11:08:09Z</time>
      </trkpt>
      <trkpt lat="42.88468" lon="-0.19665">
        <ele>1759.22</ele>
        <time>2026-05-26T11:08:19Z</time>
      </trkpt>
      <trkpt lat="42.8847" lon="-0.19666">
        <ele>1757.61</ele>
        <time>2026-05-26T11:08:21Z</time>
      </trkpt>
      <trkpt lat="42.88471" lon="-0.19667">
        <ele>1757.56</ele>
        <time>2026-05-26T11:08:23Z</time>
      </trkpt>
      <trkpt lat="42.88473" lon="-0.1967">
        <ele>1757.65</ele>
        <time>2026-05-26T11:08:26Z</time>
      </trkpt>
      <trkpt lat="42.88479" lon="-0.19678">
        <ele>1754.54</ele>
        <time>2026-05-26T11:08:37Z</time>
      </trkpt>
      <trkpt lat="42.88483" lon="-0.19681">
        <ele>1752.81</ele>
        <time>2026-05-26T11:08:57Z</time>
      </trkpt>
      <trkpt lat="42.88489" lon="-0.19678">
        <ele>1750.96</ele>
        <time>2026-05-26T11:09:12Z</time>
      </trkpt>
      <trkpt lat="42.88493" lon="-0.19675">
        <ele>1749.65</ele>
        <time>2026-05-26T11:09:24Z</time>
      </trkpt>
      <trkpt lat="42.88492" lon="-0.19672">
        <ele>1748.41</ele>
        <time>2026-05-26T11:09:27Z</time>
      </trkpt>
      <trkpt lat="42.88496" lon="-0.19669">
        <ele>1748.45</ele>
        <time>2026-05-26T11:09:40Z</time>
      </trkpt>
      <trkpt lat="42.88501" lon="-0.19669">
        <ele>1746.7</ele>
        <time>2026-05-26T11:09:52Z</time>
      </trkpt>
      <trkpt lat="42.88503" lon="-0.19665">
        <ele>1746.74</ele>
        <time>2026-05-26T11:10:05Z</time>
      </trkpt>
      <trkpt lat="42.88503" lon="-0.19665">
        <ele>1746.81</ele>
        <time>2026-05-26T11:10:24Z</time>
      </trkpt>
      <trkpt lat="42.88507" lon="-0.19667">
        <ele>1746</ele>
        <time>2026-05-26T11:10:47Z</time>
      </trkpt>
      <trkpt lat="42.88508" lon="-0.19666">
        <ele>1746.02</ele>
        <time>2026-05-26T11:11:05Z</time>
      </trkpt>
      <trkpt lat="42.88508" lon="-0.19666">
        <ele>1746.04</ele>
        <time>2026-05-26T11:11:33Z</time>
      </trkpt>
      <trkpt lat="42.88514" lon="-0.19671">
        <ele>1746.01</ele>
        <time>2026-05-26T11:11:48Z</time>
      </trkpt>
      <trkpt lat="42.88515" lon="-0.19673">
        <ele>1746.05</ele>
        <time>2026-05-26T11:12:14Z</time>
      </trkpt>
      <trkpt lat="42.88524" lon="-0.1968">
        <ele>1744.32</ele>
        <time>2026-05-26T11:12:29Z</time>
      </trkpt>
      <trkpt lat="42.88528" lon="-0.19682">
        <ele>1741.83</ele>
        <time>2026-05-26T11:12:37Z</time>
      </trkpt>
      <trkpt lat="42.88535" lon="-0.19692">
        <ele>1739.86</ele>
        <time>2026-05-26T11:12:54Z</time>
      </trkpt>
      <trkpt lat="42.88542" lon="-0.19703">
        <ele>1736.17</ele>
        <time>2026-05-26T11:13:11Z</time>
      </trkpt>
      <trkpt lat="42.88546" lon="-0.19707">
        <ele>1735.45</ele>
        <time>2026-05-26T11:13:18Z</time>
      </trkpt>
      <trkpt lat="42.88551" lon="-0.19721">
        <ele>1733.04</ele>
        <time>2026-05-26T11:13:34Z</time>
      </trkpt>
      <trkpt lat="42.88558" lon="-0.19723">
        <ele>1730.03</ele>
        <time>2026-05-26T11:13:47Z</time>
      </trkpt>
      <trkpt lat="42.88566" lon="-0.19734">
        <ele>1728.32</ele>
        <time>2026-05-26T11:14:05Z</time>
      </trkpt>
      <trkpt lat="42.88567" lon="-0.19734">
        <ele>1726.78</ele>
        <time>2026-05-26T11:14:09Z</time>
      </trkpt>
      <trkpt lat="42.88574" lon="-0.19741">
        <ele>1724.13</ele>
        <time>2026-05-26T11:14:25Z</time>
      </trkpt>
      <trkpt lat="42.88581" lon="-0.1974">
        <ele>1721.43</ele>
        <time>2026-05-26T11:14:43Z</time>
      </trkpt>
      <trkpt lat="42.88589" lon="-0.19738">
        <ele>1717.21</ele>
        <time>2026-05-26T11:15:00Z</time>
      </trkpt>
      <trkpt lat="42.88589" lon="-0.19739">
        <ele>1717.22</ele>
        <time>2026-05-26T11:15:01Z</time>
      </trkpt>
      <trkpt lat="42.88594" lon="-0.19745">
        <ele>1716.32</ele>
        <time>2026-05-26T11:15:18Z</time>
      </trkpt>
      <trkpt lat="42.88593" lon="-0.19746">
        <ele>1716.39</ele>
        <time>2026-05-26T11:15:45Z</time>
      </trkpt>
      <trkpt lat="42.88595" lon="-0.19746">
        <ele>1716.47</ele>
        <time>2026-05-26T11:16:17Z</time>
      </trkpt>
      <trkpt lat="42.88598" lon="-0.19748">
        <ele>1715.51</ele>
        <time>2026-05-26T11:16:43Z</time>
      </trkpt>
      <trkpt lat="42.886" lon="-0.19749">
        <ele>1714.04</ele>
        <time>2026-05-26T11:16:48Z</time>
      </trkpt>
      <trkpt lat="42.8861" lon="-0.19755">
        <ele>1710.94</ele>
        <time>2026-05-26T11:17:06Z</time>
      </trkpt>
      <trkpt lat="42.88613" lon="-0.19758">
        <ele>1709.67</ele>
        <time>2026-05-26T11:17:14Z</time>
      </trkpt>
      <trkpt lat="42.88614" lon="-0.1976">
        <ele>1708.36</ele>
        <time>2026-05-26T11:17:22Z</time>
      </trkpt>
      <trkpt lat="42.88617" lon="-0.19763">
        <ele>1706.7</ele>
        <time>2026-05-26T11:17:40Z</time>
      </trkpt>
      <trkpt lat="42.8862" lon="-0.19766">
        <ele>1705.48</ele>
        <time>2026-05-26T11:17:46Z</time>
      </trkpt>
      <trkpt lat="42.88626" lon="-0.19766">
        <ele>1702.74</ele>
        <time>2026-05-26T11:18:03Z</time>
      </trkpt>
      <trkpt lat="42.88635" lon="-0.1977">
        <ele>1699.96</ele>
        <time>2026-05-26T11:18:20Z</time>
      </trkpt>
      <trkpt lat="42.88638" lon="-0.19772">
        <ele>1698.51</ele>
        <time>2026-05-26T11:18:23Z</time>
      </trkpt>
      <trkpt lat="42.88651" lon="-0.19777">
        <ele>1696.73</ele>
        <time>2026-05-26T11:18:41Z</time>
      </trkpt>
      <trkpt lat="42.88653" lon="-0.19778">
        <ele>1695.48</ele>
        <time>2026-05-26T11:18:44Z</time>
      </trkpt>
      <trkpt lat="42.8866" lon="-0.19782">
        <ele>1693.56</ele>
        <time>2026-05-26T11:18:52Z</time>
      </trkpt>
      <trkpt lat="42.88669" lon="-0.19788">
        <ele>1690.98</ele>
        <time>2026-05-26T11:19:08Z</time>
      </trkpt>
      <trkpt lat="42.88679" lon="-0.19792">
        <ele>1688.96</ele>
        <time>2026-05-26T11:19:22Z</time>
      </trkpt>
      <trkpt lat="42.88686" lon="-0.19797">
        <ele>1685.67</ele>
        <time>2026-05-26T11:19:31Z</time>
      </trkpt>
      <trkpt lat="42.8869" lon="-0.198">
        <ele>1683.82</ele>
        <time>2026-05-26T11:19:38Z</time>
      </trkpt>
      <trkpt lat="42.88701" lon="-0.19809">
        <ele>1680.32</ele>
        <time>2026-05-26T11:19:53Z</time>
      </trkpt>
      <trkpt lat="42.88703" lon="-0.19812">
        <ele>1679.21</ele>
        <time>2026-05-26T11:20:08Z</time>
      </trkpt>
      <trkpt lat="42.88713" lon="-0.1982">
        <ele>1675.93</ele>
        <time>2026-05-26T11:20:22Z</time>
      </trkpt>
      <trkpt lat="42.88721" lon="-0.19826">
        <ele>1673.91</ele>
        <time>2026-05-26T11:20:36Z</time>
      </trkpt>
      <trkpt lat="42.88728" lon="-0.19834">
        <ele>1671.68</ele>
        <time>2026-05-26T11:20:52Z</time>
      </trkpt>
      <trkpt lat="42.8873" lon="-0.19837">
        <ele>1669.1</ele>
        <time>2026-05-26T11:20:57Z</time>
      </trkpt>
      <trkpt lat="42.88732" lon="-0.19838">
        <ele>1667.86</ele>
        <time>2026-05-26T11:21:02Z</time>
      </trkpt>
      <trkpt lat="42.88733" lon="-0.19839">
        <ele>1666.51</ele>
        <time>2026-05-26T11:21:08Z</time>
      </trkpt>
      <trkpt lat="42.88737" lon="-0.19847">
        <ele>1665.36</ele>
        <time>2026-05-26T11:21:21Z</time>
      </trkpt>
      <trkpt lat="42.88741" lon="-0.19849">
        <ele>1664.26</ele>
        <time>2026-05-26T11:21:27Z</time>
      </trkpt>
      <trkpt lat="42.88745" lon="-0.19852">
        <ele>1664.31</ele>
        <time>2026-05-26T11:21:33Z</time>
      </trkpt>
      <trkpt lat="42.88753" lon="-0.19854">
        <ele>1662.57</ele>
        <time>2026-05-26T11:21:45Z</time>
      </trkpt>
      <trkpt lat="42.88755" lon="-0.19852">
        <ele>1661.66</ele>
        <time>2026-05-26T11:21:48Z</time>
      </trkpt>
      <trkpt lat="42.88757" lon="-0.19849">
        <ele>1660.8</ele>
        <time>2026-05-26T11:21:52Z</time>
      </trkpt>
      <trkpt lat="42.88763" lon="-0.19851">
        <ele>1659.71</ele>
        <time>2026-05-26T11:22:00Z</time>
      </trkpt>
      <trkpt lat="42.88776" lon="-0.19874">
        <ele>1659.72</ele>
        <time>2026-05-26T11:22:23Z</time>
      </trkpt>
      <trkpt lat="42.8878" lon="-0.19873">
        <ele>1659.71</ele>
        <time>2026-05-26T11:22:38Z</time>
      </trkpt>
      <trkpt lat="42.88781" lon="-0.19872">
        <ele>1659.68</ele>
        <time>2026-05-26T11:22:59Z</time>
      </trkpt>
      <trkpt lat="42.88781" lon="-0.19872">
        <ele>1659.59</ele>
        <time>2026-05-26T11:23:39Z</time>
      </trkpt>
      <trkpt lat="42.88781" lon="-0.19872">
        <ele>1659.49</ele>
        <time>2026-05-26T11:24:10Z</time>
      </trkpt>
      <trkpt lat="42.88781" lon="-0.19871">
        <ele>1659.37</ele>
        <time>2026-05-26T11:24:43Z</time>
      </trkpt>
      <trkpt lat="42.88781" lon="-0.19871">
        <ele>1659.25</ele>
        <time>2026-05-26T11:25:13Z</time>
      </trkpt>
      <trkpt lat="42.8878" lon="-0.19872">
        <ele>1659.12</ele>
        <time>2026-05-26T11:25:45Z</time>
      </trkpt>
      <trkpt lat="42.88779" lon="-0.19873">
        <ele>1659.01</ele>
        <time>2026-05-26T11:26:09Z</time>
      </trkpt>
      <trkpt lat="42.88778" lon="-0.19875">
        <ele>1660.56</ele>
        <time>2026-05-26T11:26:29Z</time>
      </trkpt>
      <trkpt lat="42.88777" lon="-0.19876">
        <ele>1657.79</ele>
        <time>2026-05-26T11:26:36Z</time>
      </trkpt>
      <trkpt lat="42.88777" lon="-0.19876">
        <ele>1657.74</ele>
        <time>2026-05-26T11:26:53Z</time>
      </trkpt>
      <trkpt lat="42.88783" lon="-0.19878">
        <ele>1657.66</ele>
        <time>2026-05-26T11:27:15Z</time>
      </trkpt>
      <trkpt lat="42.88785" lon="-0.1988">
        <ele>1657.59</ele>
        <time>2026-05-26T11:27:42Z</time>
      </trkpt>
      <trkpt lat="42.88787" lon="-0.19884">
        <ele>1657.54</ele>
        <time>2026-05-26T11:27:58Z</time>
      </trkpt>
      <trkpt lat="42.88789" lon="-0.19883">
        <ele>1657.48</ele>
        <time>2026-05-26T11:28:20Z</time>
      </trkpt>
      <trkpt lat="42.88803" lon="-0.1989">
        <ele>1655.65</ele>
        <time>2026-05-26T11:28:38Z</time>
      </trkpt>
      <trkpt lat="42.88804" lon="-0.19889">
        <ele>1655.63</ele>
        <time>2026-05-26T11:28:47Z</time>
      </trkpt>
      <trkpt lat="42.88817" lon="-0.19894">
        <ele>1654.8</ele>
        <time>2026-05-26T11:28:57Z</time>
      </trkpt>
      <trkpt lat="42.88819" lon="-0.19895">
        <ele>1653.57</ele>
        <time>2026-05-26T11:28:59Z</time>
      </trkpt>
      <trkpt lat="42.88822" lon="-0.19896">
        <ele>1653.57</ele>
        <time>2026-05-26T11:29:01Z</time>
      </trkpt>
      <trkpt lat="42.88836" lon="-0.19905">
        <ele>1652.01</ele>
        <time>2026-05-26T11:29:14Z</time>
      </trkpt>
      <trkpt lat="42.88855" lon="-0.19912">
        <ele>1649.25</ele>
        <time>2026-05-26T11:29:30Z</time>
      </trkpt>
      <trkpt lat="42.88857" lon="-0.19912">
        <ele>1649.25</ele>
        <time>2026-05-26T11:29:32Z</time>
      </trkpt>
      <trkpt lat="42.88867" lon="-0.19918">
        <ele>1647.59</ele>
        <time>2026-05-26T11:29:41Z</time>
      </trkpt>
      <trkpt lat="42.8888" lon="-0.19927">
        <ele>1646.58</ele>
        <time>2026-05-26T11:29:52Z</time>
      </trkpt>
      <trkpt lat="42.88882" lon="-0.19928">
        <ele>1646.58</ele>
        <time>2026-05-26T11:29:54Z</time>
      </trkpt>
      <trkpt lat="42.88896" lon="-0.19935">
        <ele>1646.57</ele>
        <time>2026-05-26T11:30:07Z</time>
      </trkpt>
      <trkpt lat="42.88903" lon="-0.19938">
        <ele>1644.87</ele>
        <time>2026-05-26T11:30:18Z</time>
      </trkpt>
      <trkpt lat="42.88923" lon="-0.19943">
        <ele>1644.84</ele>
        <time>2026-05-26T11:30:35Z</time>
      </trkpt>
      <trkpt lat="42.88931" lon="-0.19948">
        <ele>1642.08</ele>
        <time>2026-05-26T11:30:43Z</time>
      </trkpt>
      <trkpt lat="42.88942" lon="-0.19952">
        <ele>1641.3</ele>
        <time>2026-05-26T11:30:55Z</time>
      </trkpt>
      <trkpt lat="42.88945" lon="-0.19955">
        <ele>1640.36</ele>
        <time>2026-05-26T11:30:59Z</time>
      </trkpt>
      <trkpt lat="42.88964" lon="-0.19959">
        <ele>1638.57</ele>
        <time>2026-05-26T11:31:14Z</time>
      </trkpt>
      <trkpt lat="42.88969" lon="-0.19963">
        <ele>1637.67</ele>
        <time>2026-05-26T11:31:19Z</time>
      </trkpt>
      <trkpt lat="42.88978" lon="-0.19963">
        <ele>1635.98</ele>
        <time>2026-05-26T11:31:26Z</time>
      </trkpt>
      <trkpt lat="42.88989" lon="-0.19967">
        <ele>1634.79</ele>
        <time>2026-05-26T11:31:36Z</time>
      </trkpt>
      <trkpt lat="42.88991" lon="-0.19969">
        <ele>1633.84</ele>
        <time>2026-05-26T11:31:38Z</time>
      </trkpt>
      <trkpt lat="42.88992" lon="-0.19972">
        <ele>1633.84</ele>
        <time>2026-05-26T11:31:40Z</time>
      </trkpt>
      <trkpt lat="42.88995" lon="-0.19979">
        <ele>1633.01</ele>
        <time>2026-05-26T11:31:46Z</time>
      </trkpt>
      <trkpt lat="42.88998" lon="-0.19983">
        <ele>1632.18</ele>
        <time>2026-05-26T11:31:50Z</time>
      </trkpt>
      <trkpt lat="42.89001" lon="-0.19984">
        <ele>1630.92</ele>
        <time>2026-05-26T11:31:53Z</time>
      </trkpt>
      <trkpt lat="42.8901" lon="-0.19989">
        <ele>1630.26</ele>
        <time>2026-05-26T11:32:01Z</time>
      </trkpt>
      <trkpt lat="42.89012" lon="-0.19991">
        <ele>1630.26</ele>
        <time>2026-05-26T11:32:03Z</time>
      </trkpt>
      <trkpt lat="42.89025" lon="-0.20003">
        <ele>1628.55</ele>
        <time>2026-05-26T11:32:16Z</time>
      </trkpt>
      <trkpt lat="42.89038" lon="-0.20024">
        <ele>1627.49</ele>
        <time>2026-05-26T11:32:34Z</time>
      </trkpt>
      <trkpt lat="42.89056" lon="-0.20047">
        <ele>1625.7</ele>
        <time>2026-05-26T11:32:57Z</time>
      </trkpt>
      <trkpt lat="42.89067" lon="-0.20052">
        <ele>1622.18</ele>
        <time>2026-05-26T11:33:07Z</time>
      </trkpt>
      <trkpt lat="42.89067" lon="-0.20053">
        <ele>1621.92</ele>
        <time>2026-05-26T11:33:08Z</time>
      </trkpt>
      <trkpt lat="42.89072" lon="-0.20059">
        <ele>1621.07</ele>
        <time>2026-05-26T11:33:27Z</time>
      </trkpt>
      <trkpt lat="42.89069" lon="-0.20063">
        <ele>1621.04</ele>
        <time>2026-05-26T11:33:53Z</time>
      </trkpt>
      <trkpt lat="42.89075" lon="-0.20067">
        <ele>1620.24</ele>
        <time>2026-05-26T11:34:06Z</time>
      </trkpt>
      <trkpt lat="42.89084" lon="-0.20071">
        <ele>1618.1</ele>
        <time>2026-05-26T11:34:17Z</time>
      </trkpt>
      <trkpt lat="42.89086" lon="-0.20072">
        <ele>1618.07</ele>
        <time>2026-05-26T11:34:19Z</time>
      </trkpt>
      <trkpt lat="42.89106" lon="-0.2009">
        <ele>1615.53</ele>
        <time>2026-05-26T11:34:44Z</time>
      </trkpt>
      <trkpt lat="42.89108" lon="-0.20093">
        <ele>1614.18</ele>
        <time>2026-05-26T11:34:47Z</time>
      </trkpt>
      <trkpt lat="42.89123" lon="-0.20104">
        <ele>1611.65</ele>
        <time>2026-05-26T11:35:05Z</time>
      </trkpt>
      <trkpt lat="42.89135" lon="-0.20117">
        <ele>1609.12</ele>
        <time>2026-05-26T11:35:24Z</time>
      </trkpt>
      <trkpt lat="42.89148" lon="-0.20125">
        <ele>1607.14</ele>
        <time>2026-05-26T11:35:40Z</time>
      </trkpt>
      <trkpt lat="42.89159" lon="-0.20133">
        <ele>1605.49</ele>
        <time>2026-05-26T11:35:52Z</time>
      </trkpt>
      <trkpt lat="42.89162" lon="-0.20137">
        <ele>1603.81</ele>
        <time>2026-05-26T11:36:00Z</time>
      </trkpt>
      <trkpt lat="42.89173" lon="-0.2014">
        <ele>1602.72</ele>
        <time>2026-05-26T11:36:10Z</time>
      </trkpt>
      <trkpt lat="42.89179" lon="-0.20142">
        <ele>1601.57</ele>
        <time>2026-05-26T11:36:15Z</time>
      </trkpt>
      <trkpt lat="42.89195" lon="-0.20159">
        <ele>1598.53</ele>
        <time>2026-05-26T11:36:32Z</time>
      </trkpt>
      <trkpt lat="42.89196" lon="-0.2016">
        <ele>1598.52</ele>
        <time>2026-05-26T11:36:33Z</time>
      </trkpt>
      <trkpt lat="42.89208" lon="-0.20171">
        <ele>1597.6</ele>
        <time>2026-05-26T11:36:49Z</time>
      </trkpt>
      <trkpt lat="42.89221" lon="-0.20175">
        <ele>1595.04</ele>
        <time>2026-05-26T11:37:06Z</time>
      </trkpt>
      <trkpt lat="42.89228" lon="-0.20179">
        <ele>1593.27</ele>
        <time>2026-05-26T11:37:15Z</time>
      </trkpt>
      <trkpt lat="42.8923" lon="-0.20181">
        <ele>1593.24</ele>
        <time>2026-05-26T11:37:18Z</time>
      </trkpt>
      <trkpt lat="42.89244" lon="-0.20186">
        <ele>1589.26</ele>
        <time>2026-05-26T11:37:35Z</time>
      </trkpt>
      <trkpt lat="42.89255" lon="-0.20191">
        <ele>1585.5</ele>
        <time>2026-05-26T11:37:49Z</time>
      </trkpt>
      <trkpt lat="42.89267" lon="-0.20194">
        <ele>1582.31</ele>
        <time>2026-05-26T11:38:01Z</time>
      </trkpt>
      <trkpt lat="42.89268" lon="-0.20194">
        <ele>1582.31</ele>
        <time>2026-05-26T11:38:02Z</time>
      </trkpt>
      <trkpt lat="42.89277" lon="-0.20196">
        <ele>1582.28</ele>
        <time>2026-05-26T11:38:10Z</time>
      </trkpt>
      <trkpt lat="42.89282" lon="-0.20201">
        <ele>1581.4</ele>
        <time>2026-05-26T11:38:15Z</time>
      </trkpt>
      <trkpt lat="42.89297" lon="-0.20209">
        <ele>1579.52</ele>
        <time>2026-05-26T11:38:31Z</time>
      </trkpt>
      <trkpt lat="42.89304" lon="-0.20214">
        <ele>1578.5</ele>
        <time>2026-05-26T11:38:40Z</time>
      </trkpt>
      <trkpt lat="42.89312" lon="-0.20219">
        <ele>1576.68</ele>
        <time>2026-05-26T11:38:48Z</time>
      </trkpt>
      <trkpt lat="42.89313" lon="-0.2022">
        <ele>1576.67</ele>
        <time>2026-05-26T11:38:49Z</time>
      </trkpt>
      <trkpt lat="42.89325" lon="-0.20231">
        <ele>1575.13</ele>
        <time>2026-05-26T11:39:05Z</time>
      </trkpt>
      <trkpt lat="42.89328" lon="-0.20233">
        <ele>1575.12</ele>
        <time>2026-05-26T11:39:08Z</time>
      </trkpt>
      <trkpt lat="42.89341" lon="-0.20241">
        <ele>1572.32</ele>
        <time>2026-05-26T11:39:23Z</time>
      </trkpt>
      <trkpt lat="42.8935" lon="-0.20244">
        <ele>1570.34</ele>
        <time>2026-05-26T11:39:34Z</time>
      </trkpt>
      <trkpt lat="42.89364" lon="-0.20256">
        <ele>1567.44</ele>
        <time>2026-05-26T11:39:49Z</time>
      </trkpt>
      <trkpt lat="42.89379" lon="-0.20269">
        <ele>1566.39</ele>
        <time>2026-05-26T11:40:06Z</time>
      </trkpt>
      <trkpt lat="42.8938" lon="-0.20271">
        <ele>1566.66</ele>
        <time>2026-05-26T11:40:08Z</time>
      </trkpt>
      <trkpt lat="42.89383" lon="-0.20272">
        <ele>1565.18</ele>
        <time>2026-05-26T11:40:12Z</time>
      </trkpt>
      <trkpt lat="42.89384" lon="-0.20274">
        <ele>1564.35</ele>
        <time>2026-05-26T11:40:14Z</time>
      </trkpt>
      <trkpt lat="42.89392" lon="-0.20284">
        <ele>1561.18</ele>
        <time>2026-05-26T11:40:25Z</time>
      </trkpt>
      <trkpt lat="42.89393" lon="-0.20285">
        <ele>1561.17</ele>
        <time>2026-05-26T11:40:26Z</time>
      </trkpt>
      <trkpt lat="42.89401" lon="-0.20291">
        <ele>1559.67</ele>
        <time>2026-05-26T11:40:41Z</time>
      </trkpt>
      <trkpt lat="42.89411" lon="-0.20298">
        <ele>1557.72</ele>
        <time>2026-05-26T11:41:01Z</time>
      </trkpt>
      <trkpt lat="42.89422" lon="-0.2031">
        <ele>1556.05</ele>
        <time>2026-05-26T11:41:15Z</time>
      </trkpt>
      <trkpt lat="42.89432" lon="-0.20318">
        <ele>1552.17</ele>
        <time>2026-05-26T11:41:27Z</time>
      </trkpt>
      <trkpt lat="42.89441" lon="-0.20321">
        <ele>1551.23</ele>
        <time>2026-05-26T11:41:37Z</time>
      </trkpt>
      <trkpt lat="42.89448" lon="-0.20323">
        <ele>1548.26</ele>
        <time>2026-05-26T11:41:43Z</time>
      </trkpt>
      <trkpt lat="42.89459" lon="-0.20326">
        <ele>1547.47</ele>
        <time>2026-05-26T11:41:53Z</time>
      </trkpt>
      <trkpt lat="42.89465" lon="-0.20329">
        <ele>1546.58</ele>
        <time>2026-05-26T11:41:59Z</time>
      </trkpt>
      <trkpt lat="42.89473" lon="-0.20334">
        <ele>1543.75</ele>
        <time>2026-05-26T11:42:07Z</time>
      </trkpt>
      <trkpt lat="42.89474" lon="-0.20335">
        <ele>1543.73</ele>
        <time>2026-05-26T11:42:08Z</time>
      </trkpt>
      <trkpt lat="42.89478" lon="-0.20338">
        <ele>1541.66</ele>
        <time>2026-05-26T11:42:12Z</time>
      </trkpt>
      <trkpt lat="42.89497" lon="-0.20347">
        <ele>1538.64</ele>
        <time>2026-05-26T11:42:29Z</time>
      </trkpt>
      <trkpt lat="42.89509" lon="-0.20357">
        <ele>1536.52</ele>
        <time>2026-05-26T11:42:41Z</time>
      </trkpt>
      <trkpt lat="42.89517" lon="-0.20362">
        <ele>1533.85</ele>
        <time>2026-05-26T11:42:55Z</time>
      </trkpt>
      <trkpt lat="42.89524" lon="-0.20368">
        <ele>1532.62</ele>
        <time>2026-05-26T11:43:01Z</time>
      </trkpt>
      <trkpt lat="42.89528" lon="-0.20372">
        <ele>1531.5</ele>
        <time>2026-05-26T11:43:06Z</time>
      </trkpt>
      <trkpt lat="42.89538" lon="-0.20374">
        <ele>1530.55</ele>
        <time>2026-05-26T11:43:13Z</time>
      </trkpt>
      <trkpt lat="42.89544" lon="-0.20381">
        <ele>1527.8</ele>
        <time>2026-05-26T11:43:20Z</time>
      </trkpt>
      <trkpt lat="42.89559" lon="-0.20396">
        <ele>1525.68</ele>
        <time>2026-05-26T11:43:35Z</time>
      </trkpt>
      <trkpt lat="42.89565" lon="-0.20401">
        <ele>1524.61</ele>
        <time>2026-05-26T11:43:40Z</time>
      </trkpt>
      <trkpt lat="42.89568" lon="-0.20409">
        <ele>1523.59</ele>
        <time>2026-05-26T11:43:46Z</time>
      </trkpt>
      <trkpt lat="42.8957" lon="-0.20411">
        <ele>1522.23</ele>
        <time>2026-05-26T11:43:48Z</time>
      </trkpt>
      <trkpt lat="42.8958" lon="-0.20422">
        <ele>1519.22</ele>
        <time>2026-05-26T11:44:00Z</time>
      </trkpt>
      <trkpt lat="42.89581" lon="-0.20422">
        <ele>1519.22</ele>
        <time>2026-05-26T11:44:01Z</time>
      </trkpt>
      <trkpt lat="42.896" lon="-0.20435">
        <ele>1515.58</ele>
        <time>2026-05-26T11:44:21Z</time>
      </trkpt>
      <trkpt lat="42.89612" lon="-0.20438">
        <ele>1514.06</ele>
        <time>2026-05-26T11:44:31Z</time>
      </trkpt>
      <trkpt lat="42.89638" lon="-0.20444">
        <ele>1512.4</ele>
        <time>2026-05-26T11:44:52Z</time>
      </trkpt>
      <trkpt lat="42.89663" lon="-0.20448">
        <ele>1510.67</ele>
        <time>2026-05-26T11:45:12Z</time>
      </trkpt>
      <trkpt lat="42.89689" lon="-0.20447">
        <ele>1507.64</ele>
        <time>2026-05-26T11:45:33Z</time>
      </trkpt>
      <trkpt lat="42.89693" lon="-0.20447">
        <ele>1506.4</ele>
        <time>2026-05-26T11:45:36Z</time>
      </trkpt>
      <trkpt lat="42.89704" lon="-0.20449">
        <ele>1504.9</ele>
        <time>2026-05-26T11:45:45Z</time>
      </trkpt>
      <trkpt lat="42.89709" lon="-0.2045">
        <ele>1503.71</ele>
        <time>2026-05-26T11:45:49Z</time>
      </trkpt>
      <trkpt lat="42.89724" lon="-0.20455">
        <ele>1500.57</ele>
        <time>2026-05-26T11:46:02Z</time>
      </trkpt>
      <trkpt lat="42.89746" lon="-0.20456">
        <ele>1497.34</ele>
        <time>2026-05-26T11:46:22Z</time>
      </trkpt>
      <trkpt lat="42.89747" lon="-0.20457">
        <ele>1497.29</ele>
        <time>2026-05-26T11:46:23Z</time>
      </trkpt>
      <trkpt lat="42.89749" lon="-0.20458">
        <ele>1496.09</ele>
        <time>2026-05-26T11:46:25Z</time>
      </trkpt>
      <trkpt lat="42.89754" lon="-0.20463">
        <ele>1494.24</ele>
        <time>2026-05-26T11:46:31Z</time>
      </trkpt>
      <trkpt lat="42.89762" lon="-0.20467">
        <ele>1491.37</ele>
        <time>2026-05-26T11:46:40Z</time>
      </trkpt>
      <trkpt lat="42.89768" lon="-0.20484">
        <ele>1487.64</ele>
        <time>2026-05-26T11:46:56Z</time>
      </trkpt>
      <trkpt lat="42.89773" lon="-0.20493">
        <ele>1483.03</ele>
        <time>2026-05-26T11:47:06Z</time>
      </trkpt>
      <trkpt lat="42.89773" lon="-0.20494">
        <ele>1483.03</ele>
        <time>2026-05-26T11:47:07Z</time>
      </trkpt>
      <trkpt lat="42.89775" lon="-0.20497">
        <ele>1480.95</ele>
        <time>2026-05-26T11:47:11Z</time>
      </trkpt>
      <trkpt lat="42.89778" lon="-0.20497">
        <ele>1477.77</ele>
        <time>2026-05-26T11:47:18Z</time>
      </trkpt>
      <trkpt lat="42.89779" lon="-0.20496">
        <ele>1477.84</ele>
        <time>2026-05-26T11:47:19Z</time>
      </trkpt>
      <trkpt lat="42.89783" lon="-0.20488">
        <ele>1476.31</ele>
        <time>2026-05-26T11:47:28Z</time>
      </trkpt>
      <trkpt lat="42.89785" lon="-0.20485">
        <ele>1475.54</ele>
        <time>2026-05-26T11:47:31Z</time>
      </trkpt>
      <trkpt lat="42.89786" lon="-0.2048">
        <ele>1473.34</ele>
        <time>2026-05-26T11:47:35Z</time>
      </trkpt>
      <trkpt lat="42.89788" lon="-0.20476">
        <ele>1471.62</ele>
        <time>2026-05-26T11:47:41Z</time>
      </trkpt>
      <trkpt lat="42.89793" lon="-0.2047">
        <ele>1468.97</ele>
        <time>2026-05-26T11:47:52Z</time>
      </trkpt>
      <trkpt lat="42.89798" lon="-0.20477">
        <ele>1466.3</ele>
        <time>2026-05-26T11:48:05Z</time>
      </trkpt>
      <trkpt lat="42.898" lon="-0.2048">
        <ele>1464.03</ele>
        <time>2026-05-26T11:48:11Z</time>
      </trkpt>
      <trkpt lat="42.89802" lon="-0.20479">
        <ele>1460.83</ele>
        <time>2026-05-26T11:48:18Z</time>
      </trkpt>
      <trkpt lat="42.89802" lon="-0.20476">
        <ele>1459.45</ele>
        <time>2026-05-26T11:48:21Z</time>
      </trkpt>
      <trkpt lat="42.89807" lon="-0.20482">
        <ele>1456.43</ele>
        <time>2026-05-26T11:48:35Z</time>
      </trkpt>
      <trkpt lat="42.89807" lon="-0.20483">
        <ele>1456.44</ele>
        <time>2026-05-26T11:48:36Z</time>
      </trkpt>
      <trkpt lat="42.89809" lon="-0.20485">
        <ele>1454.29</ele>
        <time>2026-05-26T11:48:49Z</time>
      </trkpt>
      <trkpt lat="42.89811" lon="-0.20492">
        <ele>1452.39</ele>
        <time>2026-05-26T11:49:01Z</time>
      </trkpt>
      <trkpt lat="42.89813" lon="-0.20491">
        <ele>1451.61</ele>
        <time>2026-05-26T11:49:03Z</time>
      </trkpt>
      <trkpt lat="42.89823" lon="-0.20463">
        <ele>1450.67</ele>
        <time>2026-05-26T11:49:22Z</time>
      </trkpt>
      <trkpt lat="42.89824" lon="-0.20462">
        <ele>1449.78</ele>
        <time>2026-05-26T11:49:23Z</time>
      </trkpt>
      <trkpt lat="42.89825" lon="-0.2047">
        <ele>1447.54</ele>
        <time>2026-05-26T11:49:34Z</time>
      </trkpt>
      <trkpt lat="42.89826" lon="-0.20472">
        <ele>1447.54</ele>
        <time>2026-05-26T11:49:36Z</time>
      </trkpt>
      <trkpt lat="42.89828" lon="-0.20475">
        <ele>1446.6</ele>
        <time>2026-05-26T11:49:39Z</time>
      </trkpt>
      <trkpt lat="42.89836" lon="-0.20471">
        <ele>1444.38</ele>
        <time>2026-05-26T11:49:49Z</time>
      </trkpt>
      <trkpt lat="42.89841" lon="-0.20472">
        <ele>1444.41</ele>
        <time>2026-05-26T11:49:55Z</time>
      </trkpt>
      <trkpt lat="42.89844" lon="-0.20474">
        <ele>1444.41</ele>
        <time>2026-05-26T11:49:58Z</time>
      </trkpt>
      <trkpt lat="42.89849" lon="-0.20478">
        <ele>1443.16</ele>
        <time>2026-05-26T11:50:04Z</time>
      </trkpt>
      <trkpt lat="42.89851" lon="-0.20478">
        <ele>1443.15</ele>
        <time>2026-05-26T11:50:06Z</time>
      </trkpt>
      <trkpt lat="42.89859" lon="-0.2048">
        <ele>1440.71</ele>
        <time>2026-05-26T11:50:15Z</time>
      </trkpt>
      <trkpt lat="42.89869" lon="-0.20482">
        <ele>1437.77</ele>
        <time>2026-05-26T11:50:28Z</time>
      </trkpt>
      <trkpt lat="42.89876" lon="-0.20482">
        <ele>1436.25</ele>
        <time>2026-05-26T11:50:35Z</time>
      </trkpt>
      <trkpt lat="42.89892" lon="-0.20487">
        <ele>1433.15</ele>
        <time>2026-05-26T11:50:49Z</time>
      </trkpt>
      <trkpt lat="42.89902" lon="-0.20491">
        <ele>1430.14</ele>
        <time>2026-05-26T11:50:59Z</time>
      </trkpt>
      <trkpt lat="42.8991" lon="-0.2049">
        <ele>1428.65</ele>
        <time>2026-05-26T11:51:06Z</time>
      </trkpt>
      <trkpt lat="42.89927" lon="-0.20495">
        <ele>1425.62</ele>
        <time>2026-05-26T11:51:21Z</time>
      </trkpt>
      <trkpt lat="42.89942" lon="-0.20509">
        <ele>1421.79</ele>
        <time>2026-05-26T11:51:38Z</time>
      </trkpt>
      <trkpt lat="42.89951" lon="-0.20517">
        <ele>1421.07</ele>
        <time>2026-05-26T11:51:48Z</time>
      </trkpt>
      <trkpt lat="42.89961" lon="-0.20513">
        <ele>1419.61</ele>
        <time>2026-05-26T11:52:03Z</time>
      </trkpt>
      <trkpt lat="42.89963" lon="-0.20512">
        <ele>1419.61</ele>
        <time>2026-05-26T11:52:05Z</time>
      </trkpt>
      <trkpt lat="42.8997" lon="-0.20508">
        <ele>1418.83</ele>
        <time>2026-05-26T11:52:19Z</time>
      </trkpt>
      <trkpt lat="42.89974" lon="-0.20506">
        <ele>1418.83</ele>
        <time>2026-05-26T11:52:33Z</time>
      </trkpt>
      <trkpt lat="42.89972" lon="-0.20507">
        <ele>1418.78</ele>
        <time>2026-05-26T11:52:55Z</time>
      </trkpt>
      <trkpt lat="42.89972" lon="-0.20509">
        <ele>1418.73</ele>
        <time>2026-05-26T11:53:20Z</time>
      </trkpt>
      <trkpt lat="42.89972" lon="-0.20509">
        <ele>1418.68</ele>
        <time>2026-05-26T11:53:38Z</time>
      </trkpt>
      <trkpt lat="42.89974" lon="-0.20509">
        <ele>1418.61</ele>
        <time>2026-05-26T11:54:02Z</time>
      </trkpt>
      <trkpt lat="42.89989" lon="-0.20499">
        <ele>1417.73</ele>
        <time>2026-05-26T11:54:17Z</time>
      </trkpt>
      <trkpt lat="42.89991" lon="-0.20497">
        <ele>1417.66</ele>
        <time>2026-05-26T11:54:33Z</time>
      </trkpt>
      <trkpt lat="42.89991" lon="-0.20495">
        <ele>1417.56</ele>
        <time>2026-05-26T11:54:56Z</time>
      </trkpt>
      <trkpt lat="42.89991" lon="-0.20494">
        <ele>1417.4</ele>
        <time>2026-05-26T11:55:32Z</time>
      </trkpt>
      <trkpt lat="42.89991" lon="-0.20495">
        <ele>1417.2</ele>
        <time>2026-05-26T11:56:17Z</time>
      </trkpt>
      <trkpt lat="42.89991" lon="-0.20494">
        <ele>1417.05</ele>
        <time>2026-05-26T11:56:46Z</time>
      </trkpt>
      <trkpt lat="42.89992" lon="-0.20494">
        <ele>1416.91</ele>
        <time>2026-05-26T11:57:12Z</time>
      </trkpt>
      <trkpt lat="42.89991" lon="-0.20496">
        <ele>1416.7</ele>
        <time>2026-05-26T11:57:42Z</time>
      </trkpt>
      <trkpt lat="42.89992" lon="-0.20494">
        <ele>1416.48</ele>
        <time>2026-05-26T11:58:14Z</time>
      </trkpt>
      <trkpt lat="42.89987" lon="-0.20493">
        <ele>1416.29</ele>
        <time>2026-05-26T11:58:41Z</time>
      </trkpt>
      <trkpt lat="42.8999" lon="-0.20493">
        <ele>1416.14</ele>
        <time>2026-05-26T11:59:08Z</time>
      </trkpt>
      <trkpt lat="42.8999" lon="-0.20495">
        <ele>1416.01</ele>
        <time>2026-05-26T11:59:26Z</time>
      </trkpt>
      <trkpt lat="42.89988" lon="-0.20497">
        <ele>1415.99</ele>
        <time>2026-05-26T11:59:29Z</time>
      </trkpt>
      <trkpt lat="42.89986" lon="-0.20498">
        <ele>1415.98</ele>
        <time>2026-05-26T11:59:31Z</time>
      </trkpt>
      <trkpt lat="42.89977" lon="-0.205">
        <ele>1415.89</ele>
        <time>2026-05-26T11:59:46Z</time>
      </trkpt>
      <trkpt lat="42.89977" lon="-0.205">
        <ele>1415.89</ele>
        <time>2026-05-26T11:59:47Z</time>
      </trkpt>
      <trkpt lat="42.89973" lon="-0.20505">
        <ele>1415.8</ele>
        <time>2026-05-26T12:00:00Z</time>
      </trkpt>
      <trkpt lat="42.89974" lon="-0.20505">
        <ele>1415.71</ele>
        <time>2026-05-26T12:00:12Z</time>
      </trkpt>
      <trkpt lat="42.89973" lon="-0.20507">
        <ele>1415.56</ele>
        <time>2026-05-26T12:00:36Z</time>
      </trkpt>
      <trkpt lat="42.89973" lon="-0.20506">
        <ele>1415.41</ele>
        <time>2026-05-26T12:01:03Z</time>
      </trkpt>
      <trkpt lat="42.89972" lon="-0.20507">
        <ele>1415.33</ele>
        <time>2026-05-26T12:01:19Z</time>
      </trkpt>
      <trkpt lat="42.89972" lon="-0.20506">
        <ele>1415.27</ele>
        <time>2026-05-26T12:01:38Z</time>
      </trkpt>
      <trkpt lat="42.89974" lon="-0.20505">
        <ele>1415.17</ele>
        <time>2026-05-26T12:01:56Z</time>
      </trkpt>
      <trkpt lat="42.89975" lon="-0.20504">
        <ele>1415.15</ele>
        <time>2026-05-26T12:01:59Z</time>
      </trkpt>
      <trkpt lat="42.89987" lon="-0.20498">
        <ele>1415.04</ele>
        <time>2026-05-26T12:02:16Z</time>
      </trkpt>
      <trkpt lat="42.89993" lon="-0.20492">
        <ele>1414.97</ele>
        <time>2026-05-26T12:02:31Z</time>
      </trkpt>
      <trkpt lat="42.89998" lon="-0.20486">
        <ele>1414.89</ele>
        <time>2026-05-26T12:02:47Z</time>
      </trkpt>
      <trkpt lat="42.90003" lon="-0.20482">
        <ele>1413.96</ele>
        <time>2026-05-26T12:03:00Z</time>
      </trkpt>
      <trkpt lat="42.90008" lon="-0.20478">
        <ele>1411.93</ele>
        <time>2026-05-26T12:03:17Z</time>
      </trkpt>
      <trkpt lat="42.90012" lon="-0.20484">
        <ele>1411.05</ele>
        <time>2026-05-26T12:03:34Z</time>
      </trkpt>
      <trkpt lat="42.90017" lon="-0.20494">
        <ele>1407.84</ele>
        <time>2026-05-26T12:03:51Z</time>
      </trkpt>
      <trkpt lat="42.90018" lon="-0.20494">
        <ele>1407.84</ele>
        <time>2026-05-26T12:03:52Z</time>
      </trkpt>
      <trkpt lat="42.90029" lon="-0.20502">
        <ele>1405.79</ele>
        <time>2026-05-26T12:04:08Z</time>
      </trkpt>
      <trkpt lat="42.90038" lon="-0.20514">
        <ele>1402.18</ele>
        <time>2026-05-26T12:04:26Z</time>
      </trkpt>
      <trkpt lat="42.90043" lon="-0.20523">
        <ele>1400.18</ele>
        <time>2026-05-26T12:04:38Z</time>
      </trkpt>
      <trkpt lat="42.90044" lon="-0.20538">
        <ele>1396.28</ele>
        <time>2026-05-26T12:04:54Z</time>
      </trkpt>
      <trkpt lat="42.90048" lon="-0.20551">
        <ele>1393.07</ele>
        <time>2026-05-26T12:05:08Z</time>
      </trkpt>
      <trkpt lat="42.90052" lon="-0.20555">
        <ele>1391.65</ele>
        <time>2026-05-26T12:05:14Z</time>
      </trkpt>
      <trkpt lat="42.90067" lon="-0.20555">
        <ele>1388.27</ele>
        <time>2026-05-26T12:05:34Z</time>
      </trkpt>
      <trkpt lat="42.90072" lon="-0.20555">
        <ele>1387.07</ele>
        <time>2026-05-26T12:05:40Z</time>
      </trkpt>
      <trkpt lat="42.90077" lon="-0.20558">
        <ele>1384.59</ele>
        <time>2026-05-26T12:05:47Z</time>
      </trkpt>
      <trkpt lat="42.90088" lon="-0.20563">
        <ele>1382.27</ele>
        <time>2026-05-26T12:06:07Z</time>
      </trkpt>
      <trkpt lat="42.90098" lon="-0.20561">
        <ele>1379.76</ele>
        <time>2026-05-26T12:06:32Z</time>
      </trkpt>
      <trkpt lat="42.90109" lon="-0.2056">
        <ele>1378.13</ele>
        <time>2026-05-26T12:06:49Z</time>
      </trkpt>
      <trkpt lat="42.90115" lon="-0.20557">
        <ele>1374.61</ele>
        <time>2026-05-26T12:06:59Z</time>
      </trkpt>
      <trkpt lat="42.90122" lon="-0.2056">
        <ele>1370.88</ele>
        <time>2026-05-26T12:07:09Z</time>
      </trkpt>
      <trkpt lat="42.90129" lon="-0.20574">
        <ele>1368.65</ele>
        <time>2026-05-26T12:07:27Z</time>
      </trkpt>
      <trkpt lat="42.90133" lon="-0.20576">
        <ele>1367.45</ele>
        <time>2026-05-26T12:07:47Z</time>
      </trkpt>
      <trkpt lat="42.90138" lon="-0.20581">
        <ele>1365.3</ele>
        <time>2026-05-26T12:08:02Z</time>
      </trkpt>
      <trkpt lat="42.9014" lon="-0.20585">
        <ele>1363.74</ele>
        <time>2026-05-26T12:08:11Z</time>
      </trkpt>
      <trkpt lat="42.90146" lon="-0.20594">
        <ele>1363.41</ele>
        <time>2026-05-26T12:08:29Z</time>
      </trkpt>
      <trkpt lat="42.9015" lon="-0.20603">
        <ele>1362.02</ele>
        <time>2026-05-26T12:08:50Z</time>
      </trkpt>
      <trkpt lat="42.90153" lon="-0.2061">
        <ele>1359.79</ele>
        <time>2026-05-26T12:09:02Z</time>
      </trkpt>
      <trkpt lat="42.90163" lon="-0.20622">
        <ele>1357.23</ele>
        <time>2026-05-26T12:09:19Z</time>
      </trkpt>
      <trkpt lat="42.90175" lon="-0.20636">
        <ele>1353.9</ele>
        <time>2026-05-26T12:09:33Z</time>
      </trkpt>
      <trkpt lat="42.90179" lon="-0.2064">
        <ele>1352.8</ele>
        <time>2026-05-26T12:09:38Z</time>
      </trkpt>
      <trkpt lat="42.90191" lon="-0.20652">
        <ele>1349.46</ele>
        <time>2026-05-26T12:09:51Z</time>
      </trkpt>
      <trkpt lat="42.90191" lon="-0.20653">
        <ele>1349.22</ele>
        <time>2026-05-26T12:09:52Z</time>
      </trkpt>
      <trkpt lat="42.90198" lon="-0.20657">
        <ele>1347.78</ele>
        <time>2026-05-26T12:10:05Z</time>
      </trkpt>
      <trkpt lat="42.90199" lon="-0.2066">
        <ele>1346.19</ele>
        <time>2026-05-26T12:10:07Z</time>
      </trkpt>
      <trkpt lat="42.90208" lon="-0.20672">
        <ele>1343.15</ele>
        <time>2026-05-26T12:10:25Z</time>
      </trkpt>
      <trkpt lat="42.9021" lon="-0.2068">
        <ele>1340.79</ele>
        <time>2026-05-26T12:10:34Z</time>
      </trkpt>
      <trkpt lat="42.90212" lon="-0.20697">
        <ele>1338.06</ele>
        <time>2026-05-26T12:10:44Z</time>
      </trkpt>
      <trkpt lat="42.90216" lon="-0.20711">
        <ele>1334.52</ele>
        <time>2026-05-26T12:10:55Z</time>
      </trkpt>
      <trkpt lat="42.90218" lon="-0.20721">
        <ele>1332.08</ele>
        <time>2026-05-26T12:11:04Z</time>
      </trkpt>
      <trkpt lat="42.90226" lon="-0.20735">
        <ele>1328.07</ele>
        <time>2026-05-26T12:11:15Z</time>
      </trkpt>
      <trkpt lat="42.90226" lon="-0.20737">
        <ele>1328.09</ele>
        <time>2026-05-26T12:11:16Z</time>
      </trkpt>
      <trkpt lat="42.90231" lon="-0.20747">
        <ele>1326.08</ele>
        <time>2026-05-26T12:11:23Z</time>
      </trkpt>
      <trkpt lat="42.90237" lon="-0.20759">
        <ele>1322.64</ele>
        <time>2026-05-26T12:11:34Z</time>
      </trkpt>
      <trkpt lat="42.90246" lon="-0.20766">
        <ele>1319.22</ele>
        <time>2026-05-26T12:11:48Z</time>
      </trkpt>
      <trkpt lat="42.9025" lon="-0.20768">
        <ele>1318.27</ele>
        <time>2026-05-26T12:11:51Z</time>
      </trkpt>
      <trkpt lat="42.90259" lon="-0.20773">
        <ele>1316.53</ele>
        <time>2026-05-26T12:11:56Z</time>
      </trkpt>
      <trkpt lat="42.90273" lon="-0.20772">
        <ele>1313.24</ele>
        <time>2026-05-26T12:12:08Z</time>
      </trkpt>
      <trkpt lat="42.90285" lon="-0.2077">
        <ele>1309.34</ele>
        <time>2026-05-26T12:12:21Z</time>
      </trkpt>
      <trkpt lat="42.90292" lon="-0.20769">
        <ele>1308.71</ele>
        <time>2026-05-26T12:12:25Z</time>
      </trkpt>
      <trkpt lat="42.90299" lon="-0.20763">
        <ele>1309</ele>
        <time>2026-05-26T12:12:36Z</time>
      </trkpt>
      <trkpt lat="42.90304" lon="-0.20759">
        <ele>1309.08</ele>
        <time>2026-05-26T12:13:05Z</time>
      </trkpt>
      <trkpt lat="42.90302" lon="-0.20763">
        <ele>1308.89</ele>
        <time>2026-05-26T12:13:32Z</time>
      </trkpt>
      <trkpt lat="42.90305" lon="-0.20765">
        <ele>1308.69</ele>
        <time>2026-05-26T12:13:58Z</time>
      </trkpt>
      <trkpt lat="42.90304" lon="-0.20765">
        <ele>1308.41</ele>
        <time>2026-05-26T12:14:30Z</time>
      </trkpt>
      <trkpt lat="42.90314" lon="-0.20764">
        <ele>1307.42</ele>
        <time>2026-05-26T12:14:55Z</time>
      </trkpt>
      <trkpt lat="42.90309" lon="-0.20763">
        <ele>1307.19</ele>
        <time>2026-05-26T12:15:24Z</time>
      </trkpt>
      <trkpt lat="42.90308" lon="-0.20759">
        <ele>1306.9</ele>
        <time>2026-05-26T12:15:48Z</time>
      </trkpt>
      <trkpt lat="42.90308" lon="-0.20758">
        <ele>1305.27</ele>
        <time>2026-05-26T12:15:50Z</time>
      </trkpt>
      <trkpt lat="42.90309" lon="-0.20754">
        <ele>1303.87</ele>
        <time>2026-05-26T12:15:57Z</time>
      </trkpt>
      <trkpt lat="42.90307" lon="-0.20748">
        <ele>1302.17</ele>
        <time>2026-05-26T12:16:15Z</time>
      </trkpt>
      <trkpt lat="42.9031" lon="-0.20746">
        <ele>1300.23</ele>
        <time>2026-05-26T12:16:36Z</time>
      </trkpt>
      <trkpt lat="42.90319" lon="-0.2074">
        <ele>1299.22</ele>
        <time>2026-05-26T12:16:51Z</time>
      </trkpt>
      <trkpt lat="42.90321" lon="-0.20736">
        <ele>1296.58</ele>
        <time>2026-05-26T12:16:54Z</time>
      </trkpt>
      <trkpt lat="42.9033" lon="-0.20738">
        <ele>1293.01</ele>
        <time>2026-05-26T12:17:05Z</time>
      </trkpt>
      <trkpt lat="42.9034" lon="-0.20748">
        <ele>1290.23</ele>
        <time>2026-05-26T12:17:19Z</time>
      </trkpt>
      <trkpt lat="42.90351" lon="-0.20756">
        <ele>1287.59</ele>
        <time>2026-05-26T12:17:33Z</time>
      </trkpt>
      <trkpt lat="42.9036" lon="-0.20764">
        <ele>1284.82</ele>
        <time>2026-05-26T12:17:49Z</time>
      </trkpt>
      <trkpt lat="42.9037" lon="-0.20763">
        <ele>1281.36</ele>
        <time>2026-05-26T12:18:04Z</time>
      </trkpt>
      <trkpt lat="42.90383" lon="-0.20762">
        <ele>1278.72</ele>
        <time>2026-05-26T12:18:21Z</time>
      </trkpt>
      <trkpt lat="42.90391" lon="-0.20754">
        <ele>1276.7</ele>
        <time>2026-05-26T12:18:41Z</time>
      </trkpt>
      <trkpt lat="42.90396" lon="-0.20751">
        <ele>1274.17</ele>
        <time>2026-05-26T12:18:57Z</time>
      </trkpt>
      <trkpt lat="42.90405" lon="-0.20741">
        <ele>1271.08</ele>
        <time>2026-05-26T12:19:13Z</time>
      </trkpt>
      <trkpt lat="42.90413" lon="-0.20744">
        <ele>1267.29</ele>
        <time>2026-05-26T12:19:31Z</time>
      </trkpt>
      <trkpt lat="42.90419" lon="-0.20746">
        <ele>1265.46</ele>
        <time>2026-05-26T12:19:45Z</time>
      </trkpt>
      <trkpt lat="42.9043" lon="-0.20746">
        <ele>1262.31</ele>
        <time>2026-05-26T12:19:58Z</time>
      </trkpt>
      <trkpt lat="42.90431" lon="-0.20746">
        <ele>1262.29</ele>
        <time>2026-05-26T12:19:59Z</time>
      </trkpt>
      <trkpt lat="42.9044" lon="-0.2074">
        <ele>1259.15</ele>
        <time>2026-05-26T12:20:10Z</time>
      </trkpt>
      <trkpt lat="42.90448" lon="-0.20738">
        <ele>1258.2</ele>
        <time>2026-05-26T12:20:24Z</time>
      </trkpt>
      <trkpt lat="42.9045" lon="-0.20742">
        <ele>1258.29</ele>
        <time>2026-05-26T12:20:29Z</time>
      </trkpt>
      <trkpt lat="42.90452" lon="-0.2075">
        <ele>1258.43</ele>
        <time>2026-05-26T12:21:00Z</time>
      </trkpt>
      <trkpt lat="42.90452" lon="-0.20752">
        <ele>1257.48</ele>
        <time>2026-05-26T12:21:21Z</time>
      </trkpt>
      <trkpt lat="42.90452" lon="-0.2075">
        <ele>1255.86</ele>
        <time>2026-05-26T12:21:38Z</time>
      </trkpt>
      <trkpt lat="42.90463" lon="-0.2075">
        <ele>1254.75</ele>
        <time>2026-05-26T12:21:50Z</time>
      </trkpt>
      <trkpt lat="42.90474" lon="-0.20751">
        <ele>1252.33</ele>
        <time>2026-05-26T12:22:00Z</time>
      </trkpt>
      <trkpt lat="42.90478" lon="-0.20743">
        <ele>1251.6</ele>
        <time>2026-05-26T12:22:06Z</time>
      </trkpt>
      <trkpt lat="42.90486" lon="-0.2073">
        <ele>1249.77</ele>
        <time>2026-05-26T12:22:19Z</time>
      </trkpt>
      <trkpt lat="42.90488" lon="-0.20731">
        <ele>1249.79</ele>
        <time>2026-05-26T12:22:22Z</time>
      </trkpt>
      <trkpt lat="42.90491" lon="-0.20727">
        <ele>1247.99</ele>
        <time>2026-05-26T12:22:25Z</time>
      </trkpt>
      <trkpt lat="42.90499" lon="-0.20725">
        <ele>1244.73</ele>
        <time>2026-05-26T12:22:35Z</time>
      </trkpt>
      <trkpt lat="42.905" lon="-0.20725">
        <ele>1243.88</ele>
        <time>2026-05-26T12:22:37Z</time>
      </trkpt>
      <trkpt lat="42.90511" lon="-0.2071">
        <ele>1240.92</ele>
        <time>2026-05-26T12:22:57Z</time>
      </trkpt>
      <trkpt lat="42.90516" lon="-0.20691">
        <ele>1240.42</ele>
        <time>2026-05-26T12:23:14Z</time>
      </trkpt>
      <trkpt lat="42.90519" lon="-0.20673">
        <ele>1236.89</ele>
        <time>2026-05-26T12:23:26Z</time>
      </trkpt>
      <trkpt lat="42.90523" lon="-0.20663">
        <ele>1232.73</ele>
        <time>2026-05-26T12:23:40Z</time>
      </trkpt>
      <trkpt lat="42.90523" lon="-0.20662">
        <ele>1232.77</ele>
        <time>2026-05-26T12:23:41Z</time>
      </trkpt>
      <trkpt lat="42.90529" lon="-0.20655">
        <ele>1229.6</ele>
        <time>2026-05-26T12:23:53Z</time>
      </trkpt>
      <trkpt lat="42.90538" lon="-0.20639">
        <ele>1226.75</ele>
        <time>2026-05-26T12:24:06Z</time>
      </trkpt>
      <trkpt lat="42.90554" lon="-0.20625">
        <ele>1224.86</ele>
        <time>2026-05-26T12:24:26Z</time>
      </trkpt>
      <trkpt lat="42.9056" lon="-0.20611">
        <ele>1221.43</ele>
        <time>2026-05-26T12:24:42Z</time>
      </trkpt>
      <trkpt lat="42.90567" lon="-0.20587">
        <ele>1218.06</ele>
        <time>2026-05-26T12:24:57Z</time>
      </trkpt>
      <trkpt lat="42.90579" lon="-0.20573">
        <ele>1217.46</ele>
        <time>2026-05-26T12:25:11Z</time>
      </trkpt>
      <trkpt lat="42.90586" lon="-0.20559">
        <ele>1215.03</ele>
        <time>2026-05-26T12:25:31Z</time>
      </trkpt>
      <trkpt lat="42.90583" lon="-0.20555">
        <ele>1215.42</ele>
        <time>2026-05-26T12:25:51Z</time>
      </trkpt>
      <trkpt lat="42.90587" lon="-0.20558">
        <ele>1215.68</ele>
        <time>2026-05-26T12:26:10Z</time>
      </trkpt>
      <trkpt lat="42.90591" lon="-0.20557">
        <ele>1215.82</ele>
        <time>2026-05-26T12:26:26Z</time>
      </trkpt>
      <trkpt lat="42.90592" lon="-0.20554">
        <ele>1216.01</ele>
        <time>2026-05-26T12:26:37Z</time>
      </trkpt>
      <trkpt lat="42.9059" lon="-0.20555">
        <ele>1216.02</ele>
        <time>2026-05-26T12:26:59Z</time>
      </trkpt>
      <trkpt lat="42.9059" lon="-0.20559">
        <ele>1216.11</ele>
        <time>2026-05-26T12:27:09Z</time>
      </trkpt>
      <trkpt lat="42.90594" lon="-0.20563">
        <ele>1216.14</ele>
        <time>2026-05-26T12:27:35Z</time>
      </trkpt>
      <trkpt lat="42.90592" lon="-0.20562">
        <ele>1216.14</ele>
        <time>2026-05-26T12:27:39Z</time>
      </trkpt>
      <trkpt lat="42.90591" lon="-0.2056">
        <ele>1216.08</ele>
        <time>2026-05-26T12:28:06Z</time>
      </trkpt>
      <trkpt lat="42.90585" lon="-0.20559">
        <ele>1216.09</ele>
        <time>2026-05-26T12:28:22Z</time>
      </trkpt>
      <trkpt lat="42.9059" lon="-0.20565">
        <ele>1216</ele>
        <time>2026-05-26T12:28:42Z</time>
      </trkpt>
      <trkpt lat="42.90598" lon="-0.20558">
        <ele>1215.95</ele>
        <time>2026-05-26T12:28:59Z</time>
      </trkpt>
      <trkpt lat="42.90599" lon="-0.20562">
        <ele>1215.93</ele>
        <time>2026-05-26T12:29:03Z</time>
      </trkpt>
      <trkpt lat="42.90596" lon="-0.20565">
        <ele>1215.86</ele>
        <time>2026-05-26T12:29:23Z</time>
      </trkpt>
      <trkpt lat="42.90591" lon="-0.20561">
        <ele>1215.73</ele>
        <time>2026-05-26T12:29:48Z</time>
      </trkpt>
      <trkpt lat="42.90599" lon="-0.2057">
        <ele>1215.54</ele>
        <time>2026-05-26T12:30:17Z</time>
      </trkpt>
      <trkpt lat="42.90601" lon="-0.20572">
        <ele>1215.41</ele>
        <time>2026-05-26T12:30:39Z</time>
      </trkpt>
      <trkpt lat="42.90598" lon="-0.20569">
        <ele>1215.09</ele>
        <time>2026-05-26T12:31:06Z</time>
      </trkpt>
      <trkpt lat="42.90599" lon="-0.20572">
        <ele>1215</ele>
        <time>2026-05-26T12:31:15Z</time>
      </trkpt>
      <trkpt lat="42.90604" lon="-0.20571">
        <ele>1214.74</ele>
        <time>2026-05-26T12:31:42Z</time>
      </trkpt>
      <trkpt lat="42.90602" lon="-0.20559">
        <ele>1213.58</ele>
        <time>2026-05-26T12:32:03Z</time>
      </trkpt>
      <trkpt lat="42.90603" lon="-0.20554">
        <ele>1213.54</ele>
        <time>2026-05-26T12:32:06Z</time>
      </trkpt>
      <trkpt lat="42.90613" lon="-0.20525">
        <ele>1211.7</ele>
        <time>2026-05-26T12:32:26Z</time>
      </trkpt>
      <trkpt lat="42.90621" lon="-0.20512">
        <ele>1209.63</ele>
        <time>2026-05-26T12:32:41Z</time>
      </trkpt>
      <trkpt lat="42.90618" lon="-0.205">
        <ele>1209.51</ele>
        <time>2026-05-26T12:32:58Z</time>
      </trkpt>
      <trkpt lat="42.90619" lon="-0.20469">
        <ele>1209.37</ele>
        <time>2026-05-26T12:33:17Z</time>
      </trkpt>
      <trkpt lat="42.90624" lon="-0.20452">
        <ele>1208.38</ele>
        <time>2026-05-26T12:33:34Z</time>
      </trkpt>
      <trkpt lat="42.90623" lon="-0.2045">
        <ele>1208.35</ele>
        <time>2026-05-26T12:33:45Z</time>
      </trkpt>
      <trkpt lat="42.90626" lon="-0.20442">
        <ele>1208.34</ele>
        <time>2026-05-26T12:33:56Z</time>
      </trkpt>
      <trkpt lat="42.90633" lon="-0.20429">
        <ele>1207.53</ele>
        <time>2026-05-26T12:34:07Z</time>
      </trkpt>
      <trkpt lat="42.90642" lon="-0.20404">
        <ele>1206.73</ele>
        <time>2026-05-26T12:34:29Z</time>
      </trkpt>
      <trkpt lat="42.90653" lon="-0.2039">
        <ele>1206.78</ele>
        <time>2026-05-26T12:34:48Z</time>
      </trkpt>
      <trkpt lat="42.90662" lon="-0.20389">
        <ele>1206.83</ele>
        <time>2026-05-26T12:35:01Z</time>
      </trkpt>
      <trkpt lat="42.90665" lon="-0.20387">
        <ele>1206.85</ele>
        <time>2026-05-26T12:35:06Z</time>
      </trkpt>
      <trkpt lat="42.90677" lon="-0.20382">
        <ele>1206.07</ele>
        <time>2026-05-26T12:35:20Z</time>
      </trkpt>
      <trkpt lat="42.90697" lon="-0.20366">
        <ele>1206.3</ele>
        <time>2026-05-26T12:35:41Z</time>
      </trkpt>
      <trkpt lat="42.90704" lon="-0.20366">
        <ele>1208.73</ele>
        <time>2026-05-26T12:35:48Z</time>
      </trkpt>
      <trkpt lat="42.90712" lon="-0.20367">
        <ele>1208.77</ele>
        <time>2026-05-26T12:36:00Z</time>
      </trkpt>
      <trkpt lat="42.90727" lon="-0.20355">
        <ele>1210.52</ele>
        <time>2026-05-26T12:36:20Z</time>
      </trkpt>
      <trkpt lat="42.90732" lon="-0.20352">
        <ele>1210.49</ele>
        <time>2026-05-26T12:36:26Z</time>
      </trkpt>
      <trkpt lat="42.90751" lon="-0.2034">
        <ele>1211.2</ele>
        <time>2026-05-26T12:36:46Z</time>
      </trkpt>
      <trkpt lat="42.90768" lon="-0.2033">
        <ele>1211.96</ele>
        <time>2026-05-26T12:37:05Z</time>
      </trkpt>
      <trkpt lat="42.90772" lon="-0.20327">
        <ele>1212.73</ele>
        <time>2026-05-26T12:37:10Z</time>
      </trkpt>
      <trkpt lat="42.90786" lon="-0.20319">
        <ele>1212.63</ele>
        <time>2026-05-26T12:37:26Z</time>
      </trkpt>
      <trkpt lat="42.90789" lon="-0.20319">
        <ele>1212.46</ele>
        <time>2026-05-26T12:37:45Z</time>
      </trkpt>
      <trkpt lat="42.90788" lon="-0.20322">
        <ele>1212.11</ele>
        <time>2026-05-26T12:38:19Z</time>
      </trkpt>
      <trkpt lat="42.90789" lon="-0.2032">
        <ele>1211.87</ele>
        <time>2026-05-26T12:38:41Z</time>
      </trkpt>
      <trkpt lat="42.9079" lon="-0.20319">
        <ele>1238.15</ele>
        <time>2026-05-26T12:38:52Z</time>
      </trkpt>
    </trkseg>
  </trk>
</gpx>